<?xml version="1.0" encoding="UTF-8" standalone="no" ?>
<gpx xmlns="http://www.topografix.com/GPX/1/1" creator="CompeGPS" version="1.1" xmlns:xsi="http://www.w3.org/2001/XMLSchema-instance" xsi:schemaLocation="http://www.topografix.com/GPX/1/1 http://www.topografix.com/GPX/1/1/gpx.xsd http://www.garmin.com/xmlschemas/GpxExtensions/v3 http://www.garmin.com/xmlschemas/GpxExtensionsv3.xsd http://www.garmin.com/xmlschemas/TrackPointExtension/v1 http://www.garmin.com/xmlschemas/TrackPointExtensionv1.xsd" xmlns:gpxtpx="http://www.garmin.com/xmlschemas/TrackPointExtension/v1">
  <metadata>
    <link href="http://www.compegps.com">
      <text>CompeGPS TEAM, SL</text>
    </link>
    <time>2020-05-22T19:52:08Z</time>
    <bounds maxlat="42.722395" maxlon="0.669943" minlat="42.689188" minlon="0.640391"/>
  </metadata>
    <wpt lat="42.716217" lon="0.662775">
    <ele>1525.4</ele>
    <time>2020-05-24T13:04:59Z</time>
    <name>Cabane du Pesson</name>
    <desc></desc>
    <sym>Waypoint</sym>
  </wpt>
  <wpt lat="42.696087" lon="0.667358">
    <ele>2083.9</ele>
    <time>2020-05-24T13:05:17Z</time>
    <name>Etang de la Freche</name>
    <desc></desc>
    <sym>Waypoint</sym>
  </wpt>
  <wpt lat="42.689207" lon="0.668911">
    <ele>2370.9</ele>
    <time>2020-05-24T13:05:37Z</time>
    <name>Pas de l Escalette</name>
    <desc></desc>
    <sym>Waypoint</sym>
  </wpt>
  <wpt lat="42.691920" lon="0.656690">
    <ele>2520.7</ele>
    <time>2020-05-24T13:05:48Z</time>
    <name>Sarrat de la Freche</name>
    <desc></desc>
    <sym>Waypoint</sym>
  </wpt>
  <wpt lat="42.694079" lon="0.648061">
    <ele>2533.3</ele>
    <time>2020-05-24T13:06:06Z</time>
    <name>Pīc de la Mine</name>
    <desc></desc>
    <sym>Waypoint</sym>
  </wpt>
  <wpt lat="42.692817" lon="0.641061">
    <ele>2402.5</ele>
    <time>2020-05-24T13:06:18Z</time>
    <name>Port de Venasque</name>
    <desc></desc>
    <sym>Waypoint</sym>
  </wpt>
  <wpt lat="42.699871" lon="0.642669">
    <ele>2243.0</ele>
    <time>2020-05-24T13:06:33Z</time>
    <name>Refuge de Venasque</name>
    <desc></desc>
    <sym>Waypoint</sym>
  </wpt>
  <wpt lat="42.721343" lon="0.654086">
    <ele>1389.2</ele>
    <time>2020-05-24T13:06:52Z</time>
    <name>Hospice de France</name>
    <desc></desc>
    <sym>Waypoint</sym>
  </wpt>
<trk>
    <name>pic_de_la_mine</name>
    <userMyTwoNav></userMyTwoNav>
    <serialNumber></serialNumber>
    <trkseg>
      <trkpt lat="42.722352" lon="0.653195">
        <ele>1372.9</ele>
        <time>2020-05-22T04:36:17Z</time>
      </trkpt>
      <trkpt lat="42.722233" lon="0.653220">
        <ele>1373.5</ele>
        <time>2020-05-22T04:36:27Z</time>
      </trkpt>
      <trkpt lat="42.722131" lon="0.653252">
        <ele>1375.0</ele>
        <time>2020-05-22T04:36:36Z</time>
      </trkpt>
      <trkpt lat="42.722036" lon="0.653292">
        <ele>1376.7</ele>
        <time>2020-05-22T04:36:45Z</time>
      </trkpt>
      <trkpt lat="42.721943" lon="0.653320">
        <ele>1377.4</ele>
        <time>2020-05-22T04:36:54Z</time>
      </trkpt>
      <trkpt lat="42.721846" lon="0.653368">
        <ele>1379.1</ele>
        <time>2020-05-22T04:37:04Z</time>
      </trkpt>
      <trkpt lat="42.721751" lon="0.653410">
        <ele>1380.1</ele>
        <time>2020-05-22T04:37:13Z</time>
      </trkpt>
      <trkpt lat="42.721657" lon="0.653465">
        <ele>1380.8</ele>
        <time>2020-05-22T04:37:22Z</time>
      </trkpt>
      <trkpt lat="42.721570" lon="0.653540">
        <ele>1381.6</ele>
        <time>2020-05-22T04:37:31Z</time>
      </trkpt>
      <trkpt lat="42.721501" lon="0.653648">
        <ele>1382.4</ele>
        <time>2020-05-22T04:37:40Z</time>
      </trkpt>
      <trkpt lat="42.721437" lon="0.653760">
        <ele>1383.2</ele>
        <time>2020-05-22T04:37:49Z</time>
      </trkpt>
      <trkpt lat="42.721377" lon="0.653871">
        <ele>1383.2</ele>
        <time>2020-05-22T04:37:57Z</time>
      </trkpt>
      <trkpt lat="42.721329" lon="0.654019">
        <ele>1383.9</ele>
        <time>2020-05-22T04:38:05Z</time>
      </trkpt>
      <trkpt lat="42.721308" lon="0.654148">
        <ele>1384.7</ele>
        <time>2020-05-22T04:38:14Z</time>
      </trkpt>
      <trkpt lat="42.721246" lon="0.654254">
        <ele>1386.3</ele>
        <time>2020-05-22T04:38:23Z</time>
      </trkpt>
      <trkpt lat="42.721171" lon="0.654338">
        <ele>1388.0</ele>
        <time>2020-05-22T04:38:32Z</time>
      </trkpt>
      <trkpt lat="42.721105" lon="0.654427">
        <ele>1389.8</ele>
        <time>2020-05-22T04:38:41Z</time>
      </trkpt>
      <trkpt lat="42.721046" lon="0.654538">
        <ele>1390.8</ele>
        <time>2020-05-22T04:38:50Z</time>
      </trkpt>
      <trkpt lat="42.721007" lon="0.654661">
        <ele>1392.3</ele>
        <time>2020-05-22T04:38:59Z</time>
      </trkpt>
      <trkpt lat="42.720965" lon="0.654789">
        <ele>1392.3</ele>
        <time>2020-05-22T04:39:08Z</time>
      </trkpt>
      <trkpt lat="42.720939" lon="0.654910">
        <ele>1393.1</ele>
        <time>2020-05-22T04:39:16Z</time>
      </trkpt>
      <trkpt lat="42.720909" lon="0.655036">
        <ele>1393.1</ele>
        <time>2020-05-22T04:39:24Z</time>
      </trkpt>
      <trkpt lat="42.720876" lon="0.655157">
        <ele>1393.9</ele>
        <time>2020-05-22T04:39:32Z</time>
      </trkpt>
      <trkpt lat="42.720830" lon="0.655267">
        <ele>1393.9</ele>
        <time>2020-05-22T04:39:41Z</time>
      </trkpt>
      <trkpt lat="42.720773" lon="0.655356">
        <ele>1394.6</ele>
        <time>2020-05-22T04:39:58Z</time>
      </trkpt>
      <trkpt lat="42.720714" lon="0.655453">
        <ele>1395.4</ele>
        <time>2020-05-22T04:40:10Z</time>
      </trkpt>
      <trkpt lat="42.720639" lon="0.655561">
        <ele>1396.2</ele>
        <time>2020-05-22T04:40:19Z</time>
      </trkpt>
      <trkpt lat="42.720572" lon="0.655656">
        <ele>1397.0</ele>
        <time>2020-05-22T04:40:27Z</time>
      </trkpt>
      <trkpt lat="42.720532" lon="0.655780">
        <ele>1397.7</ele>
        <time>2020-05-22T04:40:35Z</time>
      </trkpt>
      <trkpt lat="42.720489" lon="0.655909">
        <ele>1399.2</ele>
        <time>2020-05-22T04:40:44Z</time>
      </trkpt>
      <trkpt lat="42.720430" lon="0.656026">
        <ele>1400.8</ele>
        <time>2020-05-22T04:40:54Z</time>
      </trkpt>
      <trkpt lat="42.720381" lon="0.656165">
        <ele>1400.7</ele>
        <time>2020-05-22T04:41:03Z</time>
      </trkpt>
      <trkpt lat="42.720326" lon="0.656293">
        <ele>1402.3</ele>
        <time>2020-05-22T04:41:13Z</time>
      </trkpt>
      <trkpt lat="42.720267" lon="0.656414">
        <ele>1404.7</ele>
        <time>2020-05-22T04:41:23Z</time>
      </trkpt>
      <trkpt lat="42.720212" lon="0.656539">
        <ele>1405.4</ele>
        <time>2020-05-22T04:41:32Z</time>
      </trkpt>
      <trkpt lat="42.720148" lon="0.656645">
        <ele>1406.2</ele>
        <time>2020-05-22T04:41:41Z</time>
      </trkpt>
      <trkpt lat="42.720081" lon="0.656744">
        <ele>1407.0</ele>
        <time>2020-05-22T04:41:50Z</time>
      </trkpt>
      <trkpt lat="42.720051" lon="0.656891">
        <ele>1408.4</ele>
        <time>2020-05-22T04:42:00Z</time>
      </trkpt>
      <trkpt lat="42.720015" lon="0.657074">
        <ele>1409.2</ele>
        <time>2020-05-22T04:42:11Z</time>
      </trkpt>
      <trkpt lat="42.719965" lon="0.657222">
        <ele>1411.0</ele>
        <time>2020-05-22T04:42:23Z</time>
      </trkpt>
      <trkpt lat="42.719885" lon="0.657367">
        <ele>1412.6</ele>
        <time>2020-05-22T04:42:37Z</time>
      </trkpt>
      <trkpt lat="42.719760" lon="0.657510">
        <ele>1414.9</ele>
        <time>2020-05-22T04:42:53Z</time>
      </trkpt>
      <trkpt lat="42.719636" lon="0.657677">
        <ele>1418.3</ele>
        <time>2020-05-22T04:43:11Z</time>
      </trkpt>
      <trkpt lat="42.719519" lon="0.657818">
        <ele>1419.8</ele>
        <time>2020-05-22T04:43:26Z</time>
      </trkpt>
      <trkpt lat="42.719394" lon="0.657970">
        <ele>1422.0</ele>
        <time>2020-05-22T04:43:42Z</time>
      </trkpt>
      <trkpt lat="42.719249" lon="0.658117">
        <ele>1423.5</ele>
        <time>2020-05-22T04:43:56Z</time>
      </trkpt>
      <trkpt lat="42.719143" lon="0.658226">
        <ele>1424.8</ele>
        <time>2020-05-22T04:44:10Z</time>
      </trkpt>
      <trkpt lat="42.719025" lon="0.658341">
        <ele>1426.2</ele>
        <time>2020-05-22T04:44:24Z</time>
      </trkpt>
      <trkpt lat="42.718929" lon="0.658457">
        <ele>1427.8</ele>
        <time>2020-05-22T04:44:38Z</time>
      </trkpt>
      <trkpt lat="42.718704" lon="0.658374">
        <ele>1428.4</ele>
        <time>2020-05-22T04:44:54Z</time>
      </trkpt>
      <trkpt lat="42.718573" lon="0.658419">
        <ele>1430.7</ele>
        <time>2020-05-22T04:45:14Z</time>
      </trkpt>
      <trkpt lat="42.718463" lon="0.658433">
        <ele>1432.4</ele>
        <time>2020-05-22T04:45:28Z</time>
      </trkpt>
      <trkpt lat="42.718357" lon="0.658543">
        <ele>1435.4</ele>
        <time>2020-05-22T04:45:46Z</time>
      </trkpt>
      <trkpt lat="42.718285" lon="0.658733">
        <ele>1437.8</ele>
        <time>2020-05-22T04:46:04Z</time>
      </trkpt>
      <trkpt lat="42.718392" lon="0.658761">
        <ele>1439.5</ele>
        <time>2020-05-22T04:46:18Z</time>
      </trkpt>
      <trkpt lat="42.718530" lon="0.658781">
        <ele>1440.8</ele>
        <time>2020-05-22T04:46:33Z</time>
      </trkpt>
      <trkpt lat="42.718500" lon="0.658846">
        <ele>1444.3</ele>
        <time>2020-05-22T04:46:54Z</time>
      </trkpt>
      <trkpt lat="42.718393" lon="0.659033">
        <ele>1447.0</ele>
        <time>2020-05-22T04:47:12Z</time>
      </trkpt>
      <trkpt lat="42.718308" lon="0.659189">
        <ele>1448.7</ele>
        <time>2020-05-22T04:47:21Z</time>
      </trkpt>
      <trkpt lat="42.718192" lon="0.659280">
        <ele>1450.4</ele>
        <time>2020-05-22T04:47:36Z</time>
      </trkpt>
      <trkpt lat="42.718129" lon="0.659385">
        <ele>1452.9</ele>
        <time>2020-05-22T04:47:51Z</time>
      </trkpt>
      <trkpt lat="42.718075" lon="0.659583">
        <ele>1455.4</ele>
        <time>2020-05-22T04:48:09Z</time>
      </trkpt>
      <trkpt lat="42.718014" lon="0.659706">
        <ele>1456.2</ele>
        <time>2020-05-22T04:48:26Z</time>
      </trkpt>
      <trkpt lat="42.717963" lon="0.659812">
        <ele>1456.5</ele>
        <time>2020-05-22T04:50:42Z</time>
      </trkpt>
      <trkpt lat="42.717932" lon="0.659901">
        <ele>1457.3</ele>
        <time>2020-05-22T04:50:58Z</time>
      </trkpt>
      <trkpt lat="42.717831" lon="0.660072">
        <ele>1459.9</ele>
        <time>2020-05-22T04:51:15Z</time>
      </trkpt>
      <trkpt lat="42.717744" lon="0.660284">
        <ele>1462.2</ele>
        <time>2020-05-22T04:51:31Z</time>
      </trkpt>
      <trkpt lat="42.717664" lon="0.660460">
        <ele>1464.6</ele>
        <time>2020-05-22T04:51:46Z</time>
      </trkpt>
      <trkpt lat="42.717583" lon="0.660634">
        <ele>1467.0</ele>
        <time>2020-05-22T04:51:58Z</time>
      </trkpt>
      <trkpt lat="42.717502" lon="0.660720">
        <ele>1468.4</ele>
        <time>2020-05-22T04:52:13Z</time>
      </trkpt>
      <trkpt lat="42.717369" lon="0.660824">
        <ele>1471.7</ele>
        <time>2020-05-22T04:52:28Z</time>
      </trkpt>
      <trkpt lat="42.717224" lon="0.660951">
        <ele>1473.3</ele>
        <time>2020-05-22T04:52:40Z</time>
      </trkpt>
      <trkpt lat="42.717146" lon="0.661119">
        <ele>1475.0</ele>
        <time>2020-05-22T04:52:57Z</time>
      </trkpt>
      <trkpt lat="42.717021" lon="0.661328">
        <ele>1476.6</ele>
        <time>2020-05-22T04:53:14Z</time>
      </trkpt>
      <trkpt lat="42.716894" lon="0.661458">
        <ele>1478.4</ele>
        <time>2020-05-22T04:53:25Z</time>
      </trkpt>
      <trkpt lat="42.716795" lon="0.661602">
        <ele>1479.9</ele>
        <time>2020-05-22T04:53:36Z</time>
      </trkpt>
      <trkpt lat="42.716712" lon="0.661763">
        <ele>1482.7</ele>
        <time>2020-05-22T04:53:49Z</time>
      </trkpt>
      <trkpt lat="42.716663" lon="0.661889">
        <ele>1483.4</ele>
        <time>2020-05-22T04:54:00Z</time>
      </trkpt>
      <trkpt lat="42.716610" lon="0.662049">
        <ele>1484.3</ele>
        <time>2020-05-22T04:54:11Z</time>
      </trkpt>
      <trkpt lat="42.716538" lon="0.662189">
        <ele>1485.9</ele>
        <time>2020-05-22T04:54:21Z</time>
      </trkpt>
      <trkpt lat="42.716467" lon="0.662321">
        <ele>1486.7</ele>
        <time>2020-05-22T04:54:30Z</time>
      </trkpt>
      <trkpt lat="42.716404" lon="0.662432">
        <ele>1486.8</ele>
        <time>2020-05-22T04:54:40Z</time>
      </trkpt>
      <trkpt lat="42.716321" lon="0.662512">
        <ele>1487.7</ele>
        <time>2020-05-22T04:54:49Z</time>
      </trkpt>
      <trkpt lat="42.716266" lon="0.662644">
        <ele>1488.6</ele>
        <time>2020-05-22T04:55:01Z</time>
      </trkpt>
      <trkpt lat="42.716217" lon="0.662775">
        <ele>1488.6</ele>
        <time>2020-05-22T04:55:10Z</time>
      </trkpt>
      <trkpt lat="42.716191" lon="0.662908">
        <ele>1489.6</ele>
        <time>2020-05-22T04:55:21Z</time>
      </trkpt>
      <trkpt lat="42.716104" lon="0.662996">
        <ele>1490.4</ele>
        <time>2020-05-22T04:55:31Z</time>
      </trkpt>
      <trkpt lat="42.715987" lon="0.662928">
        <ele>1491.2</ele>
        <time>2020-05-22T04:55:44Z</time>
      </trkpt>
      <trkpt lat="42.715923" lon="0.663094">
        <ele>1492.2</ele>
        <time>2020-05-22T04:55:58Z</time>
      </trkpt>
      <trkpt lat="42.715839" lon="0.663251">
        <ele>1493.0</ele>
        <time>2020-05-22T04:56:11Z</time>
      </trkpt>
      <trkpt lat="42.715748" lon="0.663446">
        <ele>1495.2</ele>
        <time>2020-05-22T04:56:26Z</time>
      </trkpt>
      <trkpt lat="42.715665" lon="0.663600">
        <ele>1497.0</ele>
        <time>2020-05-22T04:56:38Z</time>
      </trkpt>
      <trkpt lat="42.715595" lon="0.663728">
        <ele>1498.6</ele>
        <time>2020-05-22T04:56:53Z</time>
      </trkpt>
      <trkpt lat="42.715514" lon="0.663885">
        <ele>1501.2</ele>
        <time>2020-05-22T04:57:10Z</time>
      </trkpt>
      <trkpt lat="42.715392" lon="0.664065">
        <ele>1502.8</ele>
        <time>2020-05-22T04:57:25Z</time>
      </trkpt>
      <trkpt lat="42.715223" lon="0.664220">
        <ele>1503.7</ele>
        <time>2020-05-22T04:57:43Z</time>
      </trkpt>
      <trkpt lat="42.715105" lon="0.664361">
        <ele>1505.3</ele>
        <time>2020-05-22T04:57:58Z</time>
      </trkpt>
      <trkpt lat="42.714961" lon="0.664491">
        <ele>1506.0</ele>
        <time>2020-05-22T04:58:16Z</time>
      </trkpt>
      <trkpt lat="42.714864" lon="0.664648">
        <ele>1506.8</ele>
        <time>2020-05-22T04:58:28Z</time>
      </trkpt>
      <trkpt lat="42.714748" lon="0.664771">
        <ele>1507.6</ele>
        <time>2020-05-22T04:58:39Z</time>
      </trkpt>
      <trkpt lat="42.714649" lon="0.664908">
        <ele>1508.3</ele>
        <time>2020-05-22T04:58:50Z</time>
      </trkpt>
      <trkpt lat="42.714552" lon="0.665045">
        <ele>1509.9</ele>
        <time>2020-05-22T04:59:01Z</time>
      </trkpt>
      <trkpt lat="42.714518" lon="0.665184">
        <ele>1510.8</ele>
        <time>2020-05-22T04:59:10Z</time>
      </trkpt>
      <trkpt lat="42.714405" lon="0.665353">
        <ele>1511.6</ele>
        <time>2020-05-22T04:59:21Z</time>
      </trkpt>
      <trkpt lat="42.714309" lon="0.665451">
        <ele>1513.3</ele>
        <time>2020-05-22T04:59:32Z</time>
      </trkpt>
      <trkpt lat="42.714232" lon="0.665545">
        <ele>1514.8</ele>
        <time>2020-05-22T04:59:42Z</time>
      </trkpt>
      <trkpt lat="42.714184" lon="0.665679">
        <ele>1516.4</ele>
        <time>2020-05-22T04:59:55Z</time>
      </trkpt>
      <trkpt lat="42.714112" lon="0.665784">
        <ele>1517.2</ele>
        <time>2020-05-22T05:00:17Z</time>
      </trkpt>
      <trkpt lat="42.714009" lon="0.665828">
        <ele>1519.0</ele>
        <time>2020-05-22T05:00:31Z</time>
      </trkpt>
      <trkpt lat="42.713928" lon="0.665914">
        <ele>1521.4</ele>
        <time>2020-05-22T05:00:45Z</time>
      </trkpt>
      <trkpt lat="42.713813" lon="0.665962">
        <ele>1522.9</ele>
        <time>2020-05-22T05:00:57Z</time>
      </trkpt>
      <trkpt lat="42.713724" lon="0.666052">
        <ele>1524.8</ele>
        <time>2020-05-22T05:01:08Z</time>
      </trkpt>
      <trkpt lat="42.713652" lon="0.666172">
        <ele>1526.3</ele>
        <time>2020-05-22T05:01:18Z</time>
      </trkpt>
      <trkpt lat="42.713578" lon="0.666269">
        <ele>1527.9</ele>
        <time>2020-05-22T05:01:27Z</time>
      </trkpt>
      <trkpt lat="42.713514" lon="0.666354">
        <ele>1530.3</ele>
        <time>2020-05-22T05:01:41Z</time>
      </trkpt>
      <trkpt lat="42.713411" lon="0.666383">
        <ele>1531.1</ele>
        <time>2020-05-22T05:01:56Z</time>
      </trkpt>
      <trkpt lat="42.713326" lon="0.666445">
        <ele>1532.8</ele>
        <time>2020-05-22T05:02:13Z</time>
      </trkpt>
      <trkpt lat="42.713236" lon="0.666525">
        <ele>1532.8</ele>
        <time>2020-05-22T05:02:24Z</time>
      </trkpt>
      <trkpt lat="42.713152" lon="0.666615">
        <ele>1534.5</ele>
        <time>2020-05-22T05:02:35Z</time>
      </trkpt>
      <trkpt lat="42.713058" lon="0.666719">
        <ele>1535.5</ele>
        <time>2020-05-22T05:02:47Z</time>
      </trkpt>
      <trkpt lat="42.712958" lon="0.666811">
        <ele>1535.5</ele>
        <time>2020-05-22T05:02:57Z</time>
      </trkpt>
      <trkpt lat="42.712866" lon="0.666855">
        <ele>1536.2</ele>
        <time>2020-05-22T05:03:06Z</time>
      </trkpt>
      <trkpt lat="42.712777" lon="0.666920">
        <ele>1537.9</ele>
        <time>2020-05-22T05:03:17Z</time>
      </trkpt>
      <trkpt lat="42.712676" lon="0.666983">
        <ele>1538.8</ele>
        <time>2020-05-22T05:03:28Z</time>
      </trkpt>
      <trkpt lat="42.712565" lon="0.667029">
        <ele>1538.7</ele>
        <time>2020-05-22T05:03:40Z</time>
      </trkpt>
      <trkpt lat="42.712470" lon="0.667074">
        <ele>1538.8</ele>
        <time>2020-05-22T05:03:51Z</time>
      </trkpt>
      <trkpt lat="42.712372" lon="0.667142">
        <ele>1538.8</ele>
        <time>2020-05-22T05:04:01Z</time>
      </trkpt>
      <trkpt lat="42.712294" lon="0.667214">
        <ele>1538.9</ele>
        <time>2020-05-22T05:04:10Z</time>
      </trkpt>
      <trkpt lat="42.712213" lon="0.667302">
        <ele>1538.9</ele>
        <time>2020-05-22T05:04:18Z</time>
      </trkpt>
      <trkpt lat="42.712094" lon="0.667349">
        <ele>1539.9</ele>
        <time>2020-05-22T05:04:31Z</time>
      </trkpt>
      <trkpt lat="42.711985" lon="0.667403">
        <ele>1542.7</ele>
        <time>2020-05-22T05:04:42Z</time>
      </trkpt>
      <trkpt lat="42.711882" lon="0.667487">
        <ele>1544.5</ele>
        <time>2020-05-22T05:04:53Z</time>
      </trkpt>
      <trkpt lat="42.711781" lon="0.667531">
        <ele>1545.4</ele>
        <time>2020-05-22T05:05:04Z</time>
      </trkpt>
      <trkpt lat="42.711686" lon="0.667539">
        <ele>1547.0</ele>
        <time>2020-05-22T05:05:14Z</time>
      </trkpt>
      <trkpt lat="42.711586" lon="0.667560">
        <ele>1548.7</ele>
        <time>2020-05-22T05:05:26Z</time>
      </trkpt>
      <trkpt lat="42.711496" lon="0.667634">
        <ele>1549.7</ele>
        <time>2020-05-22T05:05:36Z</time>
      </trkpt>
      <trkpt lat="42.711384" lon="0.667674">
        <ele>1552.6</ele>
        <time>2020-05-22T05:05:49Z</time>
      </trkpt>
      <trkpt lat="42.711283" lon="0.667711">
        <ele>1553.3</ele>
        <time>2020-05-22T05:06:01Z</time>
      </trkpt>
      <trkpt lat="42.711170" lon="0.667788">
        <ele>1554.1</ele>
        <time>2020-05-22T05:06:12Z</time>
      </trkpt>
      <trkpt lat="42.711049" lon="0.667817">
        <ele>1555.2</ele>
        <time>2020-05-22T05:06:23Z</time>
      </trkpt>
      <trkpt lat="42.710937" lon="0.667853">
        <ele>1556.2</ele>
        <time>2020-05-22T05:06:34Z</time>
      </trkpt>
      <trkpt lat="42.710822" lon="0.667896">
        <ele>1556.2</ele>
        <time>2020-05-22T05:06:44Z</time>
      </trkpt>
      <trkpt lat="42.710720" lon="0.667963">
        <ele>1556.2</ele>
        <time>2020-05-22T05:06:54Z</time>
      </trkpt>
      <trkpt lat="42.710621" lon="0.668009">
        <ele>1557.1</ele>
        <time>2020-05-22T05:07:04Z</time>
      </trkpt>
      <trkpt lat="42.710514" lon="0.668051">
        <ele>1558.0</ele>
        <time>2020-05-22T05:07:15Z</time>
      </trkpt>
      <trkpt lat="42.710419" lon="0.668062">
        <ele>1558.0</ele>
        <time>2020-05-22T05:07:24Z</time>
      </trkpt>
      <trkpt lat="42.710312" lon="0.668016">
        <ele>1558.9</ele>
        <time>2020-05-22T05:07:35Z</time>
      </trkpt>
      <trkpt lat="42.710213" lon="0.667972">
        <ele>1559.0</ele>
        <time>2020-05-22T05:07:45Z</time>
      </trkpt>
      <trkpt lat="42.710114" lon="0.667928">
        <ele>1560.8</ele>
        <time>2020-05-22T05:07:56Z</time>
      </trkpt>
      <trkpt lat="42.710031" lon="0.667860">
        <ele>1560.9</ele>
        <time>2020-05-22T05:08:07Z</time>
      </trkpt>
      <trkpt lat="42.709929" lon="0.667762">
        <ele>1560.9</ele>
        <time>2020-05-22T05:08:18Z</time>
      </trkpt>
      <trkpt lat="42.709827" lon="0.667731">
        <ele>1561.0</ele>
        <time>2020-05-22T05:08:28Z</time>
      </trkpt>
      <trkpt lat="42.709735" lon="0.667701">
        <ele>1561.0</ele>
        <time>2020-05-22T05:08:38Z</time>
      </trkpt>
      <trkpt lat="42.709660" lon="0.667608">
        <ele>1561.9</ele>
        <time>2020-05-22T05:08:47Z</time>
      </trkpt>
      <trkpt lat="42.709568" lon="0.667545">
        <ele>1562.8</ele>
        <time>2020-05-22T05:08:57Z</time>
      </trkpt>
      <trkpt lat="42.709454" lon="0.667558">
        <ele>1563.6</ele>
        <time>2020-05-22T05:09:07Z</time>
      </trkpt>
      <trkpt lat="42.709354" lon="0.667611">
        <ele>1564.5</ele>
        <time>2020-05-22T05:09:16Z</time>
      </trkpt>
      <trkpt lat="42.709261" lon="0.667659">
        <ele>1564.5</ele>
        <time>2020-05-22T05:09:24Z</time>
      </trkpt>
      <trkpt lat="42.709164" lon="0.667652">
        <ele>1566.3</ele>
        <time>2020-05-22T05:09:33Z</time>
      </trkpt>
      <trkpt lat="42.709064" lon="0.667629">
        <ele>1567.2</ele>
        <time>2020-05-22T05:09:43Z</time>
      </trkpt>
      <trkpt lat="42.708975" lon="0.667612">
        <ele>1568.8</ele>
        <time>2020-05-22T05:09:52Z</time>
      </trkpt>
      <trkpt lat="42.708899" lon="0.667546">
        <ele>1570.4</ele>
        <time>2020-05-22T05:10:06Z</time>
      </trkpt>
      <trkpt lat="42.708812" lon="0.667522">
        <ele>1574.0</ele>
        <time>2020-05-22T05:10:23Z</time>
      </trkpt>
      <trkpt lat="42.708719" lon="0.667518">
        <ele>1576.5</ele>
        <time>2020-05-22T05:10:37Z</time>
      </trkpt>
      <trkpt lat="42.708632" lon="0.667496">
        <ele>1580.0</ele>
        <time>2020-05-22T05:10:52Z</time>
      </trkpt>
      <trkpt lat="42.708561" lon="0.667461">
        <ele>1582.5</ele>
        <time>2020-05-22T05:11:08Z</time>
      </trkpt>
      <trkpt lat="42.708617" lon="0.667352">
        <ele>1585.8</ele>
        <time>2020-05-22T05:11:22Z</time>
      </trkpt>
      <trkpt lat="42.708631" lon="0.667230">
        <ele>1589.4</ele>
        <time>2020-05-22T05:11:38Z</time>
      </trkpt>
      <trkpt lat="42.708626" lon="0.667103">
        <ele>1593.1</ele>
        <time>2020-05-22T05:11:56Z</time>
      </trkpt>
      <trkpt lat="42.708666" lon="0.667002">
        <ele>1595.6</ele>
        <time>2020-05-22T05:12:10Z</time>
      </trkpt>
      <trkpt lat="42.708717" lon="0.666918">
        <ele>1597.5</ele>
        <time>2020-05-22T05:12:23Z</time>
      </trkpt>
      <trkpt lat="42.708766" lon="0.666792">
        <ele>1601.1</ele>
        <time>2020-05-22T05:12:40Z</time>
      </trkpt>
      <trkpt lat="42.708785" lon="0.666667">
        <ele>1608.4</ele>
        <time>2020-05-22T05:13:28Z</time>
      </trkpt>
      <trkpt lat="42.708675" lon="0.666661">
        <ele>1611.3</ele>
        <time>2020-05-22T05:13:42Z</time>
      </trkpt>
      <trkpt lat="42.708533" lon="0.666668">
        <ele>1615.0</ele>
        <time>2020-05-22T05:14:01Z</time>
      </trkpt>
      <trkpt lat="42.708417" lon="0.666677">
        <ele>1618.8</ele>
        <time>2020-05-22T05:14:16Z</time>
      </trkpt>
      <trkpt lat="42.708299" lon="0.666690">
        <ele>1621.1</ele>
        <time>2020-05-22T05:14:34Z</time>
      </trkpt>
      <trkpt lat="42.708186" lon="0.666695">
        <ele>1623.8</ele>
        <time>2020-05-22T05:14:48Z</time>
      </trkpt>
      <trkpt lat="42.708110" lon="0.666760">
        <ele>1625.6</ele>
        <time>2020-05-22T05:14:59Z</time>
      </trkpt>
      <trkpt lat="42.708027" lon="0.666823">
        <ele>1628.1</ele>
        <time>2020-05-22T05:15:12Z</time>
      </trkpt>
      <trkpt lat="42.707940" lon="0.666880">
        <ele>1630.7</ele>
        <time>2020-05-22T05:15:27Z</time>
      </trkpt>
      <trkpt lat="42.707841" lon="0.666924">
        <ele>1633.3</ele>
        <time>2020-05-22T05:15:40Z</time>
      </trkpt>
      <trkpt lat="42.707740" lon="0.666930">
        <ele>1635.3</ele>
        <time>2020-05-22T05:15:54Z</time>
      </trkpt>
      <trkpt lat="42.707647" lon="0.666938">
        <ele>1637.1</ele>
        <time>2020-05-22T05:16:09Z</time>
      </trkpt>
      <trkpt lat="42.707549" lon="0.666946">
        <ele>1638.8</ele>
        <time>2020-05-22T05:16:23Z</time>
      </trkpt>
      <trkpt lat="42.707444" lon="0.666850">
        <ele>1639.6</ele>
        <time>2020-05-22T05:16:41Z</time>
      </trkpt>
      <trkpt lat="42.707312" lon="0.666863">
        <ele>1640.5</ele>
        <time>2020-05-22T05:16:55Z</time>
      </trkpt>
      <trkpt lat="42.707199" lon="0.666904">
        <ele>1645.8</ele>
        <time>2020-05-22T05:17:15Z</time>
      </trkpt>
      <trkpt lat="42.707037" lon="0.666870">
        <ele>1647.3</ele>
        <time>2020-05-22T05:17:33Z</time>
      </trkpt>
      <trkpt lat="42.706878" lon="0.666879">
        <ele>1649.7</ele>
        <time>2020-05-22T05:17:48Z</time>
      </trkpt>
      <trkpt lat="42.706744" lon="0.666864">
        <ele>1652.6</ele>
        <time>2020-05-22T05:18:02Z</time>
      </trkpt>
      <trkpt lat="42.706602" lon="0.666878">
        <ele>1653.4</ele>
        <time>2020-05-22T05:18:14Z</time>
      </trkpt>
      <trkpt lat="42.706496" lon="0.666912">
        <ele>1655.9</ele>
        <time>2020-05-22T05:18:26Z</time>
      </trkpt>
      <trkpt lat="42.706388" lon="0.666934">
        <ele>1656.8</ele>
        <time>2020-05-22T05:18:39Z</time>
      </trkpt>
      <trkpt lat="42.706314" lon="0.666970">
        <ele>1658.6</ele>
        <time>2020-05-22T05:19:02Z</time>
      </trkpt>
      <trkpt lat="42.706232" lon="0.666957">
        <ele>1664.0</ele>
        <time>2020-05-22T05:19:25Z</time>
      </trkpt>
      <trkpt lat="42.706164" lon="0.666871">
        <ele>1668.5</ele>
        <time>2020-05-22T05:19:47Z</time>
      </trkpt>
      <trkpt lat="42.706116" lon="0.666944">
        <ele>1672.9</ele>
        <time>2020-05-22T05:20:08Z</time>
      </trkpt>
      <trkpt lat="42.706007" lon="0.666961">
        <ele>1675.6</ele>
        <time>2020-05-22T05:20:24Z</time>
      </trkpt>
      <trkpt lat="42.705893" lon="0.666942">
        <ele>1680.2</ele>
        <time>2020-05-22T05:20:45Z</time>
      </trkpt>
      <trkpt lat="42.705788" lon="0.666884">
        <ele>1683.8</ele>
        <time>2020-05-22T05:21:04Z</time>
      </trkpt>
      <trkpt lat="42.705685" lon="0.666825">
        <ele>1687.5</ele>
        <time>2020-05-22T05:21:24Z</time>
      </trkpt>
      <trkpt lat="42.705589" lon="0.666768">
        <ele>1691.3</ele>
        <time>2020-05-22T05:21:47Z</time>
      </trkpt>
      <trkpt lat="42.705486" lon="0.666720">
        <ele>1695.4</ele>
        <time>2020-05-22T05:22:09Z</time>
      </trkpt>
      <trkpt lat="42.705384" lon="0.666666">
        <ele>1699.8</ele>
        <time>2020-05-22T05:22:29Z</time>
      </trkpt>
      <trkpt lat="42.705278" lon="0.666652">
        <ele>1701.4</ele>
        <time>2020-05-22T05:22:47Z</time>
      </trkpt>
      <trkpt lat="42.705179" lon="0.666647">
        <ele>1704.0</ele>
        <time>2020-05-22T05:23:06Z</time>
      </trkpt>
      <trkpt lat="42.705070" lon="0.666599">
        <ele>1708.1</ele>
        <time>2020-05-22T05:23:24Z</time>
      </trkpt>
      <trkpt lat="42.704948" lon="0.666531">
        <ele>1711.4</ele>
        <time>2020-05-22T05:23:41Z</time>
      </trkpt>
      <trkpt lat="42.704818" lon="0.666434">
        <ele>1713.7</ele>
        <time>2020-05-22T05:23:58Z</time>
      </trkpt>
      <trkpt lat="42.704699" lon="0.666430">
        <ele>1716.3</ele>
        <time>2020-05-22T05:24:14Z</time>
      </trkpt>
      <trkpt lat="42.704604" lon="0.666462">
        <ele>1717.9</ele>
        <time>2020-05-22T05:24:29Z</time>
      </trkpt>
      <trkpt lat="42.704505" lon="0.666489">
        <ele>1721.1</ele>
        <time>2020-05-22T05:24:46Z</time>
      </trkpt>
      <trkpt lat="42.704385" lon="0.666522">
        <ele>1725.3</ele>
        <time>2020-05-22T05:25:03Z</time>
      </trkpt>
      <trkpt lat="42.704290" lon="0.666522">
        <ele>1726.9</ele>
        <time>2020-05-22T05:25:24Z</time>
      </trkpt>
      <trkpt lat="42.704180" lon="0.666513">
        <ele>1730.4</ele>
        <time>2020-05-22T05:25:39Z</time>
      </trkpt>
      <trkpt lat="42.704068" lon="0.666517">
        <ele>1733.0</ele>
        <time>2020-05-22T05:25:54Z</time>
      </trkpt>
      <trkpt lat="42.703957" lon="0.666509">
        <ele>1735.6</ele>
        <time>2020-05-22T05:26:09Z</time>
      </trkpt>
      <trkpt lat="42.703827" lon="0.666514">
        <ele>1738.2</ele>
        <time>2020-05-22T05:26:25Z</time>
      </trkpt>
      <trkpt lat="42.703710" lon="0.666511">
        <ele>1741.0</ele>
        <time>2020-05-22T05:26:40Z</time>
      </trkpt>
      <trkpt lat="42.703580" lon="0.666525">
        <ele>1743.6</ele>
        <time>2020-05-22T05:26:54Z</time>
      </trkpt>
      <trkpt lat="42.703488" lon="0.666558">
        <ele>1746.4</ele>
        <time>2020-05-22T05:27:09Z</time>
      </trkpt>
      <trkpt lat="42.703387" lon="0.666546">
        <ele>1749.9</ele>
        <time>2020-05-22T05:27:26Z</time>
      </trkpt>
      <trkpt lat="42.703271" lon="0.666512">
        <ele>1751.5</ele>
        <time>2020-05-22T05:27:44Z</time>
      </trkpt>
      <trkpt lat="42.703180" lon="0.666610">
        <ele>1754.4</ele>
        <time>2020-05-22T05:28:02Z</time>
      </trkpt>
      <trkpt lat="42.703095" lon="0.666655">
        <ele>1757.1</ele>
        <time>2020-05-22T05:28:19Z</time>
      </trkpt>
      <trkpt lat="42.703022" lon="0.666654">
        <ele>1759.9</ele>
        <time>2020-05-22T05:28:37Z</time>
      </trkpt>
      <trkpt lat="42.702933" lon="0.666731">
        <ele>1762.7</ele>
        <time>2020-05-22T05:28:56Z</time>
      </trkpt>
      <trkpt lat="42.702855" lon="0.666717">
        <ele>1765.8</ele>
        <time>2020-05-22T05:29:29Z</time>
      </trkpt>
      <trkpt lat="42.702814" lon="0.666643">
        <ele>1771.7</ele>
        <time>2020-05-22T05:32:54Z</time>
      </trkpt>
      <trkpt lat="42.702832" lon="0.666523">
        <ele>1773.2</ele>
        <time>2020-05-22T05:33:07Z</time>
      </trkpt>
      <trkpt lat="42.702860" lon="0.666395">
        <ele>1774.9</ele>
        <time>2020-05-22T05:33:20Z</time>
      </trkpt>
      <trkpt lat="42.702759" lon="0.666397">
        <ele>1777.8</ele>
        <time>2020-05-22T05:33:36Z</time>
      </trkpt>
      <trkpt lat="42.702706" lon="0.666346">
        <ele>1780.7</ele>
        <time>2020-05-22T05:33:51Z</time>
      </trkpt>
      <trkpt lat="42.702612" lon="0.666296">
        <ele>1784.9</ele>
        <time>2020-05-22T05:34:11Z</time>
      </trkpt>
      <trkpt lat="42.702496" lon="0.666238">
        <ele>1788.4</ele>
        <time>2020-05-22T05:34:29Z</time>
      </trkpt>
      <trkpt lat="42.702376" lon="0.666222">
        <ele>1790.2</ele>
        <time>2020-05-22T05:34:44Z</time>
      </trkpt>
      <trkpt lat="42.702264" lon="0.666212">
        <ele>1794.0</ele>
        <time>2020-05-22T05:35:00Z</time>
      </trkpt>
      <trkpt lat="42.702170" lon="0.666241">
        <ele>1795.8</ele>
        <time>2020-05-22T05:35:13Z</time>
      </trkpt>
      <trkpt lat="42.702063" lon="0.666235">
        <ele>1798.9</ele>
        <time>2020-05-22T05:35:29Z</time>
      </trkpt>
      <trkpt lat="42.701997" lon="0.666092">
        <ele>1803.1</ele>
        <time>2020-05-22T05:35:48Z</time>
      </trkpt>
      <trkpt lat="42.702010" lon="0.665934">
        <ele>1805.7</ele>
        <time>2020-05-22T05:36:05Z</time>
      </trkpt>
      <trkpt lat="42.702030" lon="0.665818">
        <ele>1808.5</ele>
        <time>2020-05-22T05:36:22Z</time>
      </trkpt>
      <trkpt lat="42.702030" lon="0.665675">
        <ele>1813.1</ele>
        <time>2020-05-22T05:36:43Z</time>
      </trkpt>
      <trkpt lat="42.701996" lon="0.665602">
        <ele>1816.6</ele>
        <time>2020-05-22T05:37:06Z</time>
      </trkpt>
      <trkpt lat="42.701959" lon="0.665492">
        <ele>1821.9</ele>
        <time>2020-05-22T05:37:32Z</time>
      </trkpt>
      <trkpt lat="42.701899" lon="0.665394">
        <ele>1825.6</ele>
        <time>2020-05-22T05:37:53Z</time>
      </trkpt>
      <trkpt lat="42.701832" lon="0.665278">
        <ele>1832.9</ele>
        <time>2020-05-22T05:38:28Z</time>
      </trkpt>
      <trkpt lat="42.701769" lon="0.665223">
        <ele>1838.1</ele>
        <time>2020-05-22T05:38:55Z</time>
      </trkpt>
      <trkpt lat="42.701689" lon="0.665078">
        <ele>1842.4</ele>
        <time>2020-05-22T05:39:18Z</time>
      </trkpt>
      <trkpt lat="42.701662" lon="0.664960">
        <ele>1845.9</ele>
        <time>2020-05-22T05:39:43Z</time>
      </trkpt>
      <trkpt lat="42.701613" lon="0.664855">
        <ele>1850.9</ele>
        <time>2020-05-22T05:40:09Z</time>
      </trkpt>
      <trkpt lat="42.701585" lon="0.664735">
        <ele>1855.4</ele>
        <time>2020-05-22T05:40:34Z</time>
      </trkpt>
      <trkpt lat="42.701571" lon="0.664630">
        <ele>1861.4</ele>
        <time>2020-05-22T05:41:13Z</time>
      </trkpt>
      <trkpt lat="42.701547" lon="0.664527">
        <ele>1864.7</ele>
        <time>2020-05-22T05:41:33Z</time>
      </trkpt>
      <trkpt lat="42.701480" lon="0.664458">
        <ele>1868.8</ele>
        <time>2020-05-22T05:42:00Z</time>
      </trkpt>
      <trkpt lat="42.701412" lon="0.664360">
        <ele>1874.1</ele>
        <time>2020-05-22T05:42:33Z</time>
      </trkpt>
      <trkpt lat="42.701332" lon="0.664287">
        <ele>1877.7</ele>
        <time>2020-05-22T05:42:58Z</time>
      </trkpt>
      <trkpt lat="42.701301" lon="0.664206">
        <ele>1882.0</ele>
        <time>2020-05-22T05:43:25Z</time>
      </trkpt>
      <trkpt lat="42.701261" lon="0.664104">
        <ele>1885.4</ele>
        <time>2020-05-22T05:43:46Z</time>
      </trkpt>
      <trkpt lat="42.701174" lon="0.664052">
        <ele>1889.5</ele>
        <time>2020-05-22T05:44:14Z</time>
      </trkpt>
      <trkpt lat="42.701093" lon="0.663981">
        <ele>1895.8</ele>
        <time>2020-05-22T05:44:49Z</time>
      </trkpt>
      <trkpt lat="42.701088" lon="0.663877">
        <ele>1900.1</ele>
        <time>2020-05-22T05:45:17Z</time>
      </trkpt>
      <trkpt lat="42.701107" lon="0.663756">
        <ele>1903.3</ele>
        <time>2020-05-22T05:45:42Z</time>
      </trkpt>
      <trkpt lat="42.701052" lon="0.663700">
        <ele>1907.7</ele>
        <time>2020-05-22T05:46:15Z</time>
      </trkpt>
      <trkpt lat="42.700971" lon="0.663646">
        <ele>1911.1</ele>
        <time>2020-05-22T05:46:40Z</time>
      </trkpt>
      <trkpt lat="42.700952" lon="0.663515">
        <ele>1915.6</ele>
        <time>2020-05-22T05:47:08Z</time>
      </trkpt>
      <trkpt lat="42.700916" lon="0.663461">
        <ele>1919.9</ele>
        <time>2020-05-22T05:47:35Z</time>
      </trkpt>
      <trkpt lat="42.700820" lon="0.663479">
        <ele>1924.4</ele>
        <time>2020-05-22T05:48:03Z</time>
      </trkpt>
      <trkpt lat="42.700725" lon="0.663511">
        <ele>1927.9</ele>
        <time>2020-05-22T05:48:29Z</time>
      </trkpt>
      <trkpt lat="42.700656" lon="0.663441">
        <ele>1933.3</ele>
        <time>2020-05-22T05:49:06Z</time>
      </trkpt>
      <trkpt lat="42.700565" lon="0.663502">
        <ele>1935.8</ele>
        <time>2020-05-22T05:49:26Z</time>
      </trkpt>
      <trkpt lat="42.700470" lon="0.663551">
        <ele>1940.1</ele>
        <time>2020-05-22T05:49:54Z</time>
      </trkpt>
      <trkpt lat="42.700373" lon="0.663589">
        <ele>1940.9</ele>
        <time>2020-05-22T05:50:11Z</time>
      </trkpt>
      <trkpt lat="42.700290" lon="0.663586">
        <ele>1945.6</ele>
        <time>2020-05-22T05:50:37Z</time>
      </trkpt>
      <trkpt lat="42.700239" lon="0.663531">
        <ele>1949.5</ele>
        <time>2020-05-22T05:51:01Z</time>
      </trkpt>
      <trkpt lat="42.700142" lon="0.663513">
        <ele>1954.6</ele>
        <time>2020-05-22T05:51:29Z</time>
      </trkpt>
      <trkpt lat="42.700119" lon="0.663458">
        <ele>1958.9</ele>
        <time>2020-05-22T05:52:09Z</time>
      </trkpt>
      <trkpt lat="42.700178" lon="0.663381">
        <ele>1962.5</ele>
        <time>2020-05-22T05:52:39Z</time>
      </trkpt>
      <trkpt lat="42.700172" lon="0.663267">
        <ele>1967.9</ele>
        <time>2020-05-22T05:53:09Z</time>
      </trkpt>
      <trkpt lat="42.700229" lon="0.663190">
        <ele>1974.3</ele>
        <time>2020-05-22T05:53:46Z</time>
      </trkpt>
      <trkpt lat="42.700314" lon="0.663128">
        <ele>1977.5</ele>
        <time>2020-05-22T05:54:08Z</time>
      </trkpt>
      <trkpt lat="42.700277" lon="0.663028">
        <ele>1980.9</ele>
        <time>2020-05-22T05:54:30Z</time>
      </trkpt>
      <trkpt lat="42.700200" lon="0.663004">
        <ele>1984.5</ele>
        <time>2020-05-22T05:54:53Z</time>
      </trkpt>
      <trkpt lat="42.700149" lon="0.662912">
        <ele>1988.9</ele>
        <time>2020-05-22T05:55:21Z</time>
      </trkpt>
      <trkpt lat="42.700083" lon="0.663007">
        <ele>1991.0</ele>
        <time>2020-05-22T05:55:38Z</time>
      </trkpt>
      <trkpt lat="42.700009" lon="0.663081">
        <ele>1993.5</ele>
        <time>2020-05-22T05:55:53Z</time>
      </trkpt>
      <trkpt lat="42.699958" lon="0.663117">
        <ele>1996.3</ele>
        <time>2020-05-22T05:58:14Z</time>
      </trkpt>
      <trkpt lat="42.699869" lon="0.663093">
        <ele>1986.7</ele>
        <time>2020-05-22T05:58:51Z</time>
      </trkpt>
      <trkpt lat="42.699758" lon="0.663193">
        <ele>1985.6</ele>
        <time>2020-05-22T06:00:20Z</time>
      </trkpt>
      <trkpt lat="42.699663" lon="0.663334">
        <ele>1982.1</ele>
        <time>2020-05-22T06:00:51Z</time>
      </trkpt>
      <trkpt lat="42.699553" lon="0.663519">
        <ele>1978.7</ele>
        <time>2020-05-22T06:01:46Z</time>
      </trkpt>
      <trkpt lat="42.699495" lon="0.663669">
        <ele>1975.4</ele>
        <time>2020-05-22T06:03:59Z</time>
      </trkpt>
      <trkpt lat="42.699322" lon="0.663851">
        <ele>1977.6</ele>
        <time>2020-05-22T06:05:07Z</time>
      </trkpt>
      <trkpt lat="42.699269" lon="0.664009">
        <ele>1974.6</ele>
        <time>2020-05-22T06:05:47Z</time>
      </trkpt>
      <trkpt lat="42.699319" lon="0.664325">
        <ele>1963.9</ele>
        <time>2020-05-22T06:07:07Z</time>
      </trkpt>
      <trkpt lat="42.699299" lon="0.664573">
        <ele>1962.6</ele>
        <time>2020-05-22T06:08:04Z</time>
      </trkpt>
      <trkpt lat="42.699226" lon="0.664781">
        <ele>1965.9</ele>
        <time>2020-05-22T06:08:58Z</time>
      </trkpt>
      <trkpt lat="42.699219" lon="0.665147">
        <ele>1964.5</ele>
        <time>2020-05-22T06:10:21Z</time>
      </trkpt>
      <trkpt lat="42.699186" lon="0.665472">
        <ele>1966.9</ele>
        <time>2020-05-22T06:11:37Z</time>
      </trkpt>
      <trkpt lat="42.699163" lon="0.665752">
        <ele>1968.3</ele>
        <time>2020-05-22T06:12:41Z</time>
      </trkpt>
      <trkpt lat="42.699093" lon="0.665883">
        <ele>1972.3</ele>
        <time>2020-05-22T06:13:20Z</time>
      </trkpt>
      <trkpt lat="42.699100" lon="0.666397">
        <ele>1972.3</ele>
        <time>2020-05-22T06:15:18Z</time>
      </trkpt>
      <trkpt lat="42.699103" lon="0.666754">
        <ele>1973.4</ele>
        <time>2020-05-22T06:16:39Z</time>
      </trkpt>
      <trkpt lat="42.698981" lon="0.666830">
        <ele>1982.9</ele>
        <time>2020-05-22T06:17:29Z</time>
      </trkpt>
      <trkpt lat="42.698957" lon="0.667079">
        <ele>1987.3</ele>
        <time>2020-05-22T06:18:27Z</time>
      </trkpt>
      <trkpt lat="42.698934" lon="0.667336">
        <ele>1991.8</ele>
        <time>2020-05-22T06:19:28Z</time>
      </trkpt>
      <trkpt lat="42.698815" lon="0.667526">
        <ele>2000.6</ele>
        <time>2020-05-22T06:20:30Z</time>
      </trkpt>
      <trkpt lat="42.698655" lon="0.667526">
        <ele>2009.3</ele>
        <time>2020-05-22T06:21:25Z</time>
      </trkpt>
      <trkpt lat="42.698433" lon="0.667304">
        <ele>2020.9</ele>
        <time>2020-05-22T06:22:57Z</time>
      </trkpt>
      <trkpt lat="42.698264" lon="0.667128">
        <ele>2029.0</ele>
        <time>2020-05-22T06:24:07Z</time>
      </trkpt>
      <trkpt lat="42.698143" lon="0.666901">
        <ele>2033.9</ele>
        <time>2020-05-22T06:25:13Z</time>
      </trkpt>
      <trkpt lat="42.697927" lon="0.666833">
        <ele>2043.2</ele>
        <time>2020-05-22T06:25:52Z</time>
      </trkpt>
      <trkpt lat="42.697732" lon="0.666887">
        <ele>2050.6</ele>
        <time>2020-05-22T06:28:09Z</time>
      </trkpt>
      <trkpt lat="42.697594" lon="0.666840">
        <ele>2056.9</ele>
        <time>2020-05-22T06:28:29Z</time>
      </trkpt>
      <trkpt lat="42.697444" lon="0.666802">
        <ele>2062.6</ele>
        <time>2020-05-22T06:28:43Z</time>
      </trkpt>
      <trkpt lat="42.697322" lon="0.666791">
        <ele>2065.5</ele>
        <time>2020-05-22T06:29:22Z</time>
      </trkpt>
      <trkpt lat="42.697200" lon="0.666762">
        <ele>2068.7</ele>
        <time>2020-05-22T06:29:43Z</time>
      </trkpt>
      <trkpt lat="42.697108" lon="0.666820">
        <ele>2070.3</ele>
        <time>2020-05-22T06:29:55Z</time>
      </trkpt>
      <trkpt lat="42.697008" lon="0.666896">
        <ele>2071.8</ele>
        <time>2020-05-22T06:30:07Z</time>
      </trkpt>
      <trkpt lat="42.696935" lon="0.666893">
        <ele>2073.5</ele>
        <time>2020-05-22T06:30:21Z</time>
      </trkpt>
      <trkpt lat="42.696824" lon="0.666849">
        <ele>2076.5</ele>
        <time>2020-05-22T06:30:36Z</time>
      </trkpt>
      <trkpt lat="42.696670" lon="0.666872">
        <ele>2080.0</ele>
        <time>2020-05-22T06:30:48Z</time>
      </trkpt>
      <trkpt lat="42.696538" lon="0.666893">
        <ele>2081.4</ele>
        <time>2020-05-22T06:30:59Z</time>
      </trkpt>
      <trkpt lat="42.696480" lon="0.666954">
        <ele>2081.6</ele>
        <time>2020-05-22T06:31:09Z</time>
      </trkpt>
      <trkpt lat="42.696367" lon="0.667052">
        <ele>2082.3</ele>
        <time>2020-05-22T06:31:21Z</time>
      </trkpt>
      <trkpt lat="42.696245" lon="0.667189">
        <ele>2082.8</ele>
        <time>2020-05-22T06:31:36Z</time>
      </trkpt>
      <trkpt lat="42.696087" lon="0.667358">
        <ele>2083.9</ele>
        <time>2020-05-22T06:31:51Z</time>
      </trkpt>
      <trkpt lat="42.695951" lon="0.667397">
        <ele>2075.7</ele>
        <time>2020-05-22T06:32:04Z</time>
      </trkpt>
      <trkpt lat="42.695900" lon="0.667551">
        <ele>2075.7</ele>
        <time>2020-05-22T06:32:17Z</time>
      </trkpt>
      <trkpt lat="42.695872" lon="0.667691">
        <ele>2075.8</ele>
        <time>2020-05-22T06:32:36Z</time>
      </trkpt>
      <trkpt lat="42.695791" lon="0.667790">
        <ele>2080.4</ele>
        <time>2020-05-22T06:32:56Z</time>
      </trkpt>
      <trkpt lat="42.695728" lon="0.667888">
        <ele>2083.9</ele>
        <time>2020-05-22T06:33:14Z</time>
      </trkpt>
      <trkpt lat="42.695770" lon="0.668006">
        <ele>2087.5</ele>
        <time>2020-05-22T06:33:37Z</time>
      </trkpt>
      <trkpt lat="42.695866" lon="0.668116">
        <ele>2090.2</ele>
        <time>2020-05-22T06:33:57Z</time>
      </trkpt>
      <trkpt lat="42.695938" lon="0.668208">
        <ele>2094.1</ele>
        <time>2020-05-22T06:34:16Z</time>
      </trkpt>
      <trkpt lat="42.696021" lon="0.668269">
        <ele>2098.8</ele>
        <time>2020-05-22T06:34:41Z</time>
      </trkpt>
      <trkpt lat="42.696103" lon="0.668341">
        <ele>2102.0</ele>
        <time>2020-05-22T06:35:03Z</time>
      </trkpt>
      <trkpt lat="42.696121" lon="0.668447">
        <ele>2104.6</ele>
        <time>2020-05-22T06:35:25Z</time>
      </trkpt>
      <trkpt lat="42.696196" lon="0.668518">
        <ele>2106.5</ele>
        <time>2020-05-22T06:35:40Z</time>
      </trkpt>
      <trkpt lat="42.696200" lon="0.668627">
        <ele>2109.1</ele>
        <time>2020-05-22T06:35:58Z</time>
      </trkpt>
      <trkpt lat="42.696154" lon="0.668739">
        <ele>2112.8</ele>
        <time>2020-05-22T06:36:19Z</time>
      </trkpt>
      <trkpt lat="42.696182" lon="0.668844">
        <ele>2116.2</ele>
        <time>2020-05-22T06:36:39Z</time>
      </trkpt>
      <trkpt lat="42.696161" lon="0.668931">
        <ele>2119.9</ele>
        <time>2020-05-22T06:37:06Z</time>
      </trkpt>
      <trkpt lat="42.696153" lon="0.669037">
        <ele>2123.5</ele>
        <time>2020-05-22T06:37:31Z</time>
      </trkpt>
      <trkpt lat="42.696129" lon="0.669145">
        <ele>2126.9</ele>
        <time>2020-05-22T06:38:02Z</time>
      </trkpt>
      <trkpt lat="42.696093" lon="0.669253">
        <ele>2130.5</ele>
        <time>2020-05-22T06:38:35Z</time>
      </trkpt>
      <trkpt lat="42.696074" lon="0.669379">
        <ele>2134.8</ele>
        <time>2020-05-22T06:39:00Z</time>
      </trkpt>
      <trkpt lat="42.696003" lon="0.669429">
        <ele>2140.3</ele>
        <time>2020-05-22T06:39:42Z</time>
      </trkpt>
      <trkpt lat="42.695931" lon="0.669362">
        <ele>2143.9</ele>
        <time>2020-05-22T06:40:04Z</time>
      </trkpt>
      <trkpt lat="42.695887" lon="0.669321">
        <ele>2145.8</ele>
        <time>2020-05-22T06:41:47Z</time>
      </trkpt>
      <trkpt lat="42.695827" lon="0.669395">
        <ele>2148.9</ele>
        <time>2020-05-22T06:43:23Z</time>
      </trkpt>
      <trkpt lat="42.695749" lon="0.669376">
        <ele>2154.3</ele>
        <time>2020-05-22T06:43:49Z</time>
      </trkpt>
      <trkpt lat="42.695660" lon="0.669391">
        <ele>2157.1</ele>
        <time>2020-05-22T06:44:06Z</time>
      </trkpt>
      <trkpt lat="42.695577" lon="0.669398">
        <ele>2158.9</ele>
        <time>2020-05-22T06:44:40Z</time>
      </trkpt>
      <trkpt lat="42.695490" lon="0.669417">
        <ele>2160.8</ele>
        <time>2020-05-22T06:44:58Z</time>
      </trkpt>
      <trkpt lat="42.695399" lon="0.669435">
        <ele>2164.5</ele>
        <time>2020-05-22T06:45:16Z</time>
      </trkpt>
      <trkpt lat="42.695318" lon="0.669476">
        <ele>2168.2</ele>
        <time>2020-05-22T06:46:15Z</time>
      </trkpt>
      <trkpt lat="42.695245" lon="0.669568">
        <ele>2168.9</ele>
        <time>2020-05-22T06:47:37Z</time>
      </trkpt>
      <trkpt lat="42.695178" lon="0.669652">
        <ele>2168.9</ele>
        <time>2020-05-22T06:47:47Z</time>
      </trkpt>
      <trkpt lat="42.695104" lon="0.669726">
        <ele>2169.0</ele>
        <time>2020-05-22T06:47:59Z</time>
      </trkpt>
      <trkpt lat="42.695015" lon="0.669752">
        <ele>2169.1</ele>
        <time>2020-05-22T06:48:11Z</time>
      </trkpt>
      <trkpt lat="42.694934" lon="0.669675">
        <ele>2169.1</ele>
        <time>2020-05-22T06:48:21Z</time>
      </trkpt>
      <trkpt lat="42.694848" lon="0.669617">
        <ele>2169.2</ele>
        <time>2020-05-22T06:48:33Z</time>
      </trkpt>
      <trkpt lat="42.694737" lon="0.669599">
        <ele>2169.2</ele>
        <time>2020-05-22T06:48:45Z</time>
      </trkpt>
      <trkpt lat="42.694637" lon="0.669577">
        <ele>2169.2</ele>
        <time>2020-05-22T06:48:56Z</time>
      </trkpt>
      <trkpt lat="42.694551" lon="0.669611">
        <ele>2169.3</ele>
        <time>2020-05-22T06:49:10Z</time>
      </trkpt>
      <trkpt lat="42.694465" lon="0.669676">
        <ele>2170.2</ele>
        <time>2020-05-22T06:49:28Z</time>
      </trkpt>
      <trkpt lat="42.694368" lon="0.669699">
        <ele>2172.9</ele>
        <time>2020-05-22T06:49:45Z</time>
      </trkpt>
      <trkpt lat="42.694279" lon="0.669717">
        <ele>2177.1</ele>
        <time>2020-05-22T06:50:08Z</time>
      </trkpt>
      <trkpt lat="42.694218" lon="0.669653">
        <ele>2180.5</ele>
        <time>2020-05-22T06:50:39Z</time>
      </trkpt>
      <trkpt lat="42.694171" lon="0.669622">
        <ele>2184.9</ele>
        <time>2020-05-22T06:51:01Z</time>
      </trkpt>
      <trkpt lat="42.694130" lon="0.669680">
        <ele>2187.6</ele>
        <time>2020-05-22T06:51:22Z</time>
      </trkpt>
      <trkpt lat="42.694072" lon="0.669767">
        <ele>2190.9</ele>
        <time>2020-05-22T06:51:45Z</time>
      </trkpt>
      <trkpt lat="42.694008" lon="0.669788">
        <ele>2194.3</ele>
        <time>2020-05-22T06:52:04Z</time>
      </trkpt>
      <trkpt lat="42.693918" lon="0.669792">
        <ele>2196.9</ele>
        <time>2020-05-22T06:52:23Z</time>
      </trkpt>
      <trkpt lat="42.693827" lon="0.669835">
        <ele>2200.8</ele>
        <time>2020-05-22T06:52:45Z</time>
      </trkpt>
      <trkpt lat="42.693747" lon="0.669787">
        <ele>2203.4</ele>
        <time>2020-05-22T06:53:04Z</time>
      </trkpt>
      <trkpt lat="42.693659" lon="0.669790">
        <ele>2206.9</ele>
        <time>2020-05-22T06:53:27Z</time>
      </trkpt>
      <trkpt lat="42.693571" lon="0.669761">
        <ele>2209.8</ele>
        <time>2020-05-22T06:53:45Z</time>
      </trkpt>
      <trkpt lat="42.693473" lon="0.669749">
        <ele>2212.4</ele>
        <time>2020-05-22T06:54:07Z</time>
      </trkpt>
      <trkpt lat="42.693399" lon="0.669691">
        <ele>2216.2</ele>
        <time>2020-05-22T06:54:30Z</time>
      </trkpt>
      <trkpt lat="42.693315" lon="0.669650">
        <ele>2220.2</ele>
        <time>2020-05-22T06:54:54Z</time>
      </trkpt>
      <trkpt lat="42.693233" lon="0.669589">
        <ele>2223.8</ele>
        <time>2020-05-22T06:55:16Z</time>
      </trkpt>
      <trkpt lat="42.693206" lon="0.669455">
        <ele>2225.7</ele>
        <time>2020-05-22T06:55:31Z</time>
      </trkpt>
      <trkpt lat="42.693161" lon="0.669347">
        <ele>2228.4</ele>
        <time>2020-05-22T06:55:49Z</time>
      </trkpt>
      <trkpt lat="42.693088" lon="0.669270">
        <ele>2231.2</ele>
        <time>2020-05-22T06:56:11Z</time>
      </trkpt>
      <trkpt lat="42.693006" lon="0.669205">
        <ele>2233.8</ele>
        <time>2020-05-22T06:56:36Z</time>
      </trkpt>
      <trkpt lat="42.692921" lon="0.669205">
        <ele>2237.0</ele>
        <time>2020-05-22T06:56:59Z</time>
      </trkpt>
      <trkpt lat="42.692837" lon="0.669248">
        <ele>2240.5</ele>
        <time>2020-05-22T06:57:22Z</time>
      </trkpt>
      <trkpt lat="42.692768" lon="0.669301">
        <ele>2242.4</ele>
        <time>2020-05-22T06:57:41Z</time>
      </trkpt>
      <trkpt lat="42.692683" lon="0.669294">
        <ele>2246.9</ele>
        <time>2020-05-22T06:58:05Z</time>
      </trkpt>
      <trkpt lat="42.692588" lon="0.669307">
        <ele>2249.5</ele>
        <time>2020-05-22T06:58:27Z</time>
      </trkpt>
      <trkpt lat="42.692520" lon="0.669378">
        <ele>2252.6</ele>
        <time>2020-05-22T06:58:54Z</time>
      </trkpt>
      <trkpt lat="42.692439" lon="0.669366">
        <ele>2256.0</ele>
        <time>2020-05-22T06:59:17Z</time>
      </trkpt>
      <trkpt lat="42.692354" lon="0.669372">
        <ele>2260.6</ele>
        <time>2020-05-22T06:59:46Z</time>
      </trkpt>
      <trkpt lat="42.692269" lon="0.669358">
        <ele>2264.0</ele>
        <time>2020-05-22T07:00:09Z</time>
      </trkpt>
      <trkpt lat="42.692192" lon="0.669351">
        <ele>2266.6</ele>
        <time>2020-05-22T07:00:30Z</time>
      </trkpt>
      <trkpt lat="42.692122" lon="0.669415">
        <ele>2269.9</ele>
        <time>2020-05-22T07:00:51Z</time>
      </trkpt>
      <trkpt lat="42.692066" lon="0.669484">
        <ele>2269.9</ele>
        <time>2020-05-22T07:01:16Z</time>
      </trkpt>
      <trkpt lat="42.692030" lon="0.669544">
        <ele>2270.1</ele>
        <time>2020-05-22T07:01:46Z</time>
      </trkpt>
      <trkpt lat="42.691976" lon="0.669576">
        <ele>2270.2</ele>
        <time>2020-05-22T07:02:01Z</time>
      </trkpt>
      <trkpt lat="42.691869" lon="0.669604">
        <ele>2272.8</ele>
        <time>2020-05-22T07:02:18Z</time>
      </trkpt>
      <trkpt lat="42.691785" lon="0.669648">
        <ele>2273.7</ele>
        <time>2020-05-22T07:02:34Z</time>
      </trkpt>
      <trkpt lat="42.691726" lon="0.669740">
        <ele>2274.6</ele>
        <time>2020-05-22T07:02:51Z</time>
      </trkpt>
      <trkpt lat="42.691640" lon="0.669813">
        <ele>2276.1</ele>
        <time>2020-05-22T07:03:11Z</time>
      </trkpt>
      <trkpt lat="42.691549" lon="0.669847">
        <ele>2280.0</ele>
        <time>2020-05-22T07:03:43Z</time>
      </trkpt>
      <trkpt lat="42.691485" lon="0.669918">
        <ele>2283.4</ele>
        <time>2020-05-22T07:04:16Z</time>
      </trkpt>
      <trkpt lat="42.691403" lon="0.669943">
        <ele>2286.7</ele>
        <time>2020-05-22T07:04:40Z</time>
      </trkpt>
      <trkpt lat="42.691321" lon="0.669906">
        <ele>2290.3</ele>
        <time>2020-05-22T07:05:05Z</time>
      </trkpt>
      <trkpt lat="42.691248" lon="0.669853">
        <ele>2293.6</ele>
        <time>2020-05-22T07:05:31Z</time>
      </trkpt>
      <trkpt lat="42.691184" lon="0.669776">
        <ele>2297.6</ele>
        <time>2020-05-22T07:05:59Z</time>
      </trkpt>
      <trkpt lat="42.691102" lon="0.669782">
        <ele>2302.0</ele>
        <time>2020-05-22T07:06:34Z</time>
      </trkpt>
      <trkpt lat="42.691013" lon="0.669739">
        <ele>2305.3</ele>
        <time>2020-05-22T07:07:08Z</time>
      </trkpt>
      <trkpt lat="42.690919" lon="0.669765">
        <ele>2308.9</ele>
        <time>2020-05-22T07:07:40Z</time>
      </trkpt>
      <trkpt lat="42.690832" lon="0.669791">
        <ele>2313.2</ele>
        <time>2020-05-22T07:08:10Z</time>
      </trkpt>
      <trkpt lat="42.690759" lon="0.669733">
        <ele>2315.8</ele>
        <time>2020-05-22T07:08:37Z</time>
      </trkpt>
      <trkpt lat="42.690690" lon="0.669679">
        <ele>2318.7</ele>
        <time>2020-05-22T07:09:07Z</time>
      </trkpt>
      <trkpt lat="42.690615" lon="0.669621">
        <ele>2321.4</ele>
        <time>2020-05-22T07:09:30Z</time>
      </trkpt>
      <trkpt lat="42.690549" lon="0.669563">
        <ele>2324.2</ele>
        <time>2020-05-22T07:09:59Z</time>
      </trkpt>
      <trkpt lat="42.690468" lon="0.669528">
        <ele>2330.6</ele>
        <time>2020-05-22T07:11:00Z</time>
      </trkpt>
      <trkpt lat="42.690396" lon="0.669436">
        <ele>2334.2</ele>
        <time>2020-05-22T07:12:01Z</time>
      </trkpt>
      <trkpt lat="42.690311" lon="0.669386">
        <ele>2337.6</ele>
        <time>2020-05-22T07:12:35Z</time>
      </trkpt>
      <trkpt lat="42.690231" lon="0.669349">
        <ele>2341.6</ele>
        <time>2020-05-22T07:13:13Z</time>
      </trkpt>
      <trkpt lat="42.690159" lon="0.669266">
        <ele>2344.8</ele>
        <time>2020-05-22T07:13:43Z</time>
      </trkpt>
      <trkpt lat="42.690077" lon="0.669214">
        <ele>2348.3</ele>
        <time>2020-05-22T07:14:17Z</time>
      </trkpt>
      <trkpt lat="42.690011" lon="0.669165">
        <ele>2351.0</ele>
        <time>2020-05-22T07:14:44Z</time>
      </trkpt>
      <trkpt lat="42.689934" lon="0.669117">
        <ele>2355.2</ele>
        <time>2020-05-22T07:15:16Z</time>
      </trkpt>
      <trkpt lat="42.689861" lon="0.669051">
        <ele>2357.8</ele>
        <time>2020-05-22T07:15:45Z</time>
      </trkpt>
      <trkpt lat="42.689791" lon="0.668995">
        <ele>2361.2</ele>
        <time>2020-05-22T07:16:14Z</time>
      </trkpt>
      <trkpt lat="42.689719" lon="0.668943">
        <ele>2365.1</ele>
        <time>2020-05-22T07:16:42Z</time>
      </trkpt>
      <trkpt lat="42.689626" lon="0.668917">
        <ele>2368.6</ele>
        <time>2020-05-22T07:17:08Z</time>
      </trkpt>
      <trkpt lat="42.689536" lon="0.668886">
        <ele>2371.2</ele>
        <time>2020-05-22T07:17:35Z</time>
      </trkpt>
      <trkpt lat="42.689450" lon="0.668849">
        <ele>2374.8</ele>
        <time>2020-05-22T07:18:01Z</time>
      </trkpt>
      <trkpt lat="42.689360" lon="0.668849">
        <ele>2377.3</ele>
        <time>2020-05-22T07:18:28Z</time>
      </trkpt>
      <trkpt lat="42.689277" lon="0.668839">
        <ele>2381.8</ele>
        <time>2020-05-22T07:18:56Z</time>
      </trkpt>
      <trkpt lat="42.689207" lon="0.668911">
        <ele>2383.4</ele>
        <time>2020-05-22T07:19:13Z</time>
      </trkpt>
      <trkpt lat="42.689193" lon="0.668832">
        <ele>2388.9</ele>
        <time>2020-05-22T07:33:46Z</time>
      </trkpt>
      <trkpt lat="42.689188" lon="0.668700">
        <ele>2389.0</ele>
        <time>2020-05-22T07:33:59Z</time>
      </trkpt>
      <trkpt lat="42.689220" lon="0.668590">
        <ele>2392.3</ele>
        <time>2020-05-22T07:34:15Z</time>
      </trkpt>
      <trkpt lat="42.689227" lon="0.668473">
        <ele>2396.7</ele>
        <time>2020-05-22T07:34:46Z</time>
      </trkpt>
      <trkpt lat="42.689238" lon="0.668358">
        <ele>2400.7</ele>
        <time>2020-05-22T07:35:07Z</time>
      </trkpt>
      <trkpt lat="42.689268" lon="0.668252">
        <ele>2402.5</ele>
        <time>2020-05-22T07:35:29Z</time>
      </trkpt>
      <trkpt lat="42.689302" lon="0.668147">
        <ele>2404.3</ele>
        <time>2020-05-22T07:35:43Z</time>
      </trkpt>
      <trkpt lat="42.689311" lon="0.668032">
        <ele>2405.1</ele>
        <time>2020-05-22T07:36:00Z</time>
      </trkpt>
      <trkpt lat="42.689304" lon="0.667910">
        <ele>2406.0</ele>
        <time>2020-05-22T07:36:13Z</time>
      </trkpt>
      <trkpt lat="42.689296" lon="0.667783">
        <ele>2406.0</ele>
        <time>2020-05-22T07:36:24Z</time>
      </trkpt>
      <trkpt lat="42.689329" lon="0.667669">
        <ele>2406.1</ele>
        <time>2020-05-22T07:36:36Z</time>
      </trkpt>
      <trkpt lat="42.689344" lon="0.667543">
        <ele>2407.8</ele>
        <time>2020-05-22T07:36:50Z</time>
      </trkpt>
      <trkpt lat="42.689351" lon="0.667426">
        <ele>2410.5</ele>
        <time>2020-05-22T07:37:09Z</time>
      </trkpt>
      <trkpt lat="42.689400" lon="0.667348">
        <ele>2413.2</ele>
        <time>2020-05-22T07:37:30Z</time>
      </trkpt>
      <trkpt lat="42.689435" lon="0.667243">
        <ele>2417.6</ele>
        <time>2020-05-22T07:37:54Z</time>
      </trkpt>
      <trkpt lat="42.689484" lon="0.667166">
        <ele>2421.5</ele>
        <time>2020-05-22T07:38:25Z</time>
      </trkpt>
      <trkpt lat="42.689548" lon="0.667071">
        <ele>2427.9</ele>
        <time>2020-05-22T07:39:09Z</time>
      </trkpt>
      <trkpt lat="42.689617" lon="0.666976">
        <ele>2435.8</ele>
        <time>2020-05-22T07:40:36Z</time>
      </trkpt>
      <trkpt lat="42.689717" lon="0.666875">
        <ele>2448.2</ele>
        <time>2020-05-22T07:42:32Z</time>
      </trkpt>
      <trkpt lat="42.689797" lon="0.666830">
        <ele>2454.1</ele>
        <time>2020-05-22T07:43:44Z</time>
      </trkpt>
      <trkpt lat="42.689874" lon="0.666769">
        <ele>2457.0</ele>
        <time>2020-05-22T07:44:44Z</time>
      </trkpt>
      <trkpt lat="42.689951" lon="0.666662">
        <ele>2466.5</ele>
        <time>2020-05-22T07:46:17Z</time>
      </trkpt>
      <trkpt lat="42.689994" lon="0.666565">
        <ele>2471.1</ele>
        <time>2020-05-22T07:47:28Z</time>
      </trkpt>
      <trkpt lat="42.690066" lon="0.666484">
        <ele>2473.7</ele>
        <time>2020-05-22T07:47:58Z</time>
      </trkpt>
      <trkpt lat="42.690136" lon="0.666400">
        <ele>2478.3</ele>
        <time>2020-05-22T07:48:45Z</time>
      </trkpt>
      <trkpt lat="42.690197" lon="0.666284">
        <ele>2482.6</ele>
        <time>2020-05-22T07:50:01Z</time>
      </trkpt>
      <trkpt lat="42.690207" lon="0.666223">
        <ele>2488.7</ele>
        <time>2020-05-22T07:50:59Z</time>
      </trkpt>
      <trkpt lat="42.690239" lon="0.666122">
        <ele>2492.5</ele>
        <time>2020-05-22T07:51:30Z</time>
      </trkpt>
      <trkpt lat="42.690292" lon="0.666014">
        <ele>2497.9</ele>
        <time>2020-05-22T07:52:14Z</time>
      </trkpt>
      <trkpt lat="42.690329" lon="0.665912">
        <ele>2503.0</ele>
        <time>2020-05-22T07:52:47Z</time>
      </trkpt>
      <trkpt lat="42.690369" lon="0.665779">
        <ele>2511.8</ele>
        <time>2020-05-22T07:53:57Z</time>
      </trkpt>
      <trkpt lat="42.690418" lon="0.665700">
        <ele>2517.3</ele>
        <time>2020-05-22T07:54:35Z</time>
      </trkpt>
      <trkpt lat="42.690458" lon="0.665594">
        <ele>2520.6</ele>
        <time>2020-05-22T07:55:05Z</time>
      </trkpt>
      <trkpt lat="42.690529" lon="0.665525">
        <ele>2524.2</ele>
        <time>2020-05-22T07:55:32Z</time>
      </trkpt>
      <trkpt lat="42.690572" lon="0.665433">
        <ele>2526.7</ele>
        <time>2020-05-22T07:55:58Z</time>
      </trkpt>
      <trkpt lat="42.690624" lon="0.665329">
        <ele>2528.6</ele>
        <time>2020-05-22T07:56:59Z</time>
      </trkpt>
      <trkpt lat="42.690672" lon="0.665243">
        <ele>2530.4</ele>
        <time>2020-05-22T07:57:20Z</time>
      </trkpt>
      <trkpt lat="42.690728" lon="0.665154">
        <ele>2533.0</ele>
        <time>2020-05-22T07:57:41Z</time>
      </trkpt>
      <trkpt lat="42.690793" lon="0.665072">
        <ele>2535.5</ele>
        <time>2020-05-22T07:58:01Z</time>
      </trkpt>
      <trkpt lat="42.690851" lon="0.665004">
        <ele>2538.3</ele>
        <time>2020-05-22T07:58:25Z</time>
      </trkpt>
      <trkpt lat="42.690897" lon="0.664918">
        <ele>2540.9</ele>
        <time>2020-05-22T07:58:47Z</time>
      </trkpt>
      <trkpt lat="42.690957" lon="0.664841">
        <ele>2543.4</ele>
        <time>2020-05-22T07:59:07Z</time>
      </trkpt>
      <trkpt lat="42.691045" lon="0.664788">
        <ele>2545.1</ele>
        <time>2020-05-22T07:59:27Z</time>
      </trkpt>
      <trkpt lat="42.691099" lon="0.664722">
        <ele>2545.7</ele>
        <time>2020-05-22T08:01:33Z</time>
      </trkpt>
      <trkpt lat="42.691073" lon="0.664635">
        <ele>2546.9</ele>
        <time>2020-05-22T08:03:10Z</time>
      </trkpt>
      <trkpt lat="42.691111" lon="0.664534">
        <ele>2547.2</ele>
        <time>2020-05-22T08:04:38Z</time>
      </trkpt>
      <trkpt lat="42.691129" lon="0.664421">
        <ele>2547.3</ele>
        <time>2020-05-22T08:04:53Z</time>
      </trkpt>
      <trkpt lat="42.691149" lon="0.664308">
        <ele>2547.4</ele>
        <time>2020-05-22T08:05:13Z</time>
      </trkpt>
      <trkpt lat="42.691162" lon="0.664189">
        <ele>2547.4</ele>
        <time>2020-05-22T08:05:30Z</time>
      </trkpt>
      <trkpt lat="42.691185" lon="0.664083">
        <ele>2547.5</ele>
        <time>2020-05-22T08:05:48Z</time>
      </trkpt>
      <trkpt lat="42.691221" lon="0.663979">
        <ele>2547.5</ele>
        <time>2020-05-22T08:06:06Z</time>
      </trkpt>
      <trkpt lat="42.691238" lon="0.663848">
        <ele>2547.6</ele>
        <time>2020-05-22T08:06:21Z</time>
      </trkpt>
      <trkpt lat="42.691238" lon="0.663717">
        <ele>2547.7</ele>
        <time>2020-05-22T08:06:35Z</time>
      </trkpt>
      <trkpt lat="42.691265" lon="0.663598">
        <ele>2547.8</ele>
        <time>2020-05-22T08:06:48Z</time>
      </trkpt>
      <trkpt lat="42.691291" lon="0.663476">
        <ele>2548.6</ele>
        <time>2020-05-22T08:07:14Z</time>
      </trkpt>
      <trkpt lat="42.691325" lon="0.663365">
        <ele>2552.0</ele>
        <time>2020-05-22T08:07:34Z</time>
      </trkpt>
      <trkpt lat="42.691326" lon="0.663234">
        <ele>2552.8</ele>
        <time>2020-05-22T08:07:51Z</time>
      </trkpt>
      <trkpt lat="42.691325" lon="0.663106">
        <ele>2557.1</ele>
        <time>2020-05-22T08:08:14Z</time>
      </trkpt>
      <trkpt lat="42.691313" lon="0.662979">
        <ele>2559.8</ele>
        <time>2020-05-22T08:08:32Z</time>
      </trkpt>
      <trkpt lat="42.691292" lon="0.662862">
        <ele>2562.4</ele>
        <time>2020-05-22T08:08:53Z</time>
      </trkpt>
      <trkpt lat="42.691282" lon="0.662741">
        <ele>2565.8</ele>
        <time>2020-05-22T08:09:13Z</time>
      </trkpt>
      <trkpt lat="42.691311" lon="0.662637">
        <ele>2567.5</ele>
        <time>2020-05-22T08:09:31Z</time>
      </trkpt>
      <trkpt lat="42.691326" lon="0.662517">
        <ele>2570.5</ele>
        <time>2020-05-22T08:09:56Z</time>
      </trkpt>
      <trkpt lat="42.691324" lon="0.662416">
        <ele>2574.2</ele>
        <time>2020-05-22T08:10:20Z</time>
      </trkpt>
      <trkpt lat="42.691342" lon="0.662300">
        <ele>2577.1</ele>
        <time>2020-05-22T08:10:40Z</time>
      </trkpt>
      <trkpt lat="42.691372" lon="0.662226">
        <ele>2577.8</ele>
        <time>2020-05-22T08:11:04Z</time>
      </trkpt>
      <trkpt lat="42.691390" lon="0.662110">
        <ele>2579.6</ele>
        <time>2020-05-22T08:11:23Z</time>
      </trkpt>
      <trkpt lat="42.691368" lon="0.661983">
        <ele>2582.1</ele>
        <time>2020-05-22T08:11:47Z</time>
      </trkpt>
      <trkpt lat="42.691340" lon="0.661864">
        <ele>2582.9</ele>
        <time>2020-05-22T08:12:06Z</time>
      </trkpt>
      <trkpt lat="42.691339" lon="0.661774">
        <ele>2585.6</ele>
        <time>2020-05-22T08:12:53Z</time>
      </trkpt>
      <trkpt lat="42.691313" lon="0.661664">
        <ele>2586.4</ele>
        <time>2020-05-22T08:13:09Z</time>
      </trkpt>
      <trkpt lat="42.691276" lon="0.661552">
        <ele>2587.2</ele>
        <time>2020-05-22T08:13:23Z</time>
      </trkpt>
      <trkpt lat="42.691241" lon="0.661443">
        <ele>2587.2</ele>
        <time>2020-05-22T08:13:37Z</time>
      </trkpt>
      <trkpt lat="42.691196" lon="0.661329">
        <ele>2587.2</ele>
        <time>2020-05-22T08:13:52Z</time>
      </trkpt>
      <trkpt lat="42.691133" lon="0.661235">
        <ele>2587.2</ele>
        <time>2020-05-22T08:14:07Z</time>
      </trkpt>
      <trkpt lat="42.691083" lon="0.661131">
        <ele>2587.2</ele>
        <time>2020-05-22T08:14:27Z</time>
      </trkpt>
      <trkpt lat="42.691059" lon="0.661028">
        <ele>2587.3</ele>
        <time>2020-05-22T08:14:46Z</time>
      </trkpt>
      <trkpt lat="42.691041" lon="0.660945">
        <ele>2587.4</ele>
        <time>2020-05-22T08:15:56Z</time>
      </trkpt>
      <trkpt lat="42.691008" lon="0.660832">
        <ele>2585.1</ele>
        <time>2020-05-22T08:16:22Z</time>
      </trkpt>
      <trkpt lat="42.690995" lon="0.660703">
        <ele>2584.3</ele>
        <time>2020-05-22T08:16:36Z</time>
      </trkpt>
      <trkpt lat="42.690985" lon="0.660595">
        <ele>2586.6</ele>
        <time>2020-05-22T08:16:55Z</time>
      </trkpt>
      <trkpt lat="42.690925" lon="0.660513">
        <ele>2586.6</ele>
        <time>2020-05-22T08:17:11Z</time>
      </trkpt>
      <trkpt lat="42.690886" lon="0.660398">
        <ele>2586.6</ele>
        <time>2020-05-22T08:17:24Z</time>
      </trkpt>
      <trkpt lat="42.690855" lon="0.660282">
        <ele>2584.3</ele>
        <time>2020-05-22T08:17:42Z</time>
      </trkpt>
      <trkpt lat="42.690839" lon="0.660171">
        <ele>2584.3</ele>
        <time>2020-05-22T08:18:01Z</time>
      </trkpt>
      <trkpt lat="42.690816" lon="0.660042">
        <ele>2584.4</ele>
        <time>2020-05-22T08:18:19Z</time>
      </trkpt>
      <trkpt lat="42.690794" lon="0.659919">
        <ele>2588.2</ele>
        <time>2020-05-22T08:18:37Z</time>
      </trkpt>
      <trkpt lat="42.690776" lon="0.659808">
        <ele>2590.0</ele>
        <time>2020-05-22T08:19:25Z</time>
      </trkpt>
      <trkpt lat="42.690810" lon="0.659703">
        <ele>2590.0</ele>
        <time>2020-05-22T08:19:42Z</time>
      </trkpt>
      <trkpt lat="42.690814" lon="0.659598">
        <ele>2590.9</ele>
        <time>2020-05-22T08:20:09Z</time>
      </trkpt>
      <trkpt lat="42.690832" lon="0.659469">
        <ele>2591.8</ele>
        <time>2020-05-22T08:20:34Z</time>
      </trkpt>
      <trkpt lat="42.690857" lon="0.659359">
        <ele>2593.3</ele>
        <time>2020-05-22T08:20:53Z</time>
      </trkpt>
      <trkpt lat="42.690872" lon="0.659243">
        <ele>2595.0</ele>
        <time>2020-05-22T08:21:12Z</time>
      </trkpt>
      <trkpt lat="42.690900" lon="0.659129">
        <ele>2595.8</ele>
        <time>2020-05-22T08:21:28Z</time>
      </trkpt>
      <trkpt lat="42.690902" lon="0.659001">
        <ele>2595.8</ele>
        <time>2020-05-22T08:21:45Z</time>
      </trkpt>
      <trkpt lat="42.690913" lon="0.658871">
        <ele>2597.6</ele>
        <time>2020-05-22T08:22:05Z</time>
      </trkpt>
      <trkpt lat="42.690927" lon="0.658744">
        <ele>2597.5</ele>
        <time>2020-05-22T08:22:27Z</time>
      </trkpt>
      <trkpt lat="42.690945" lon="0.658625">
        <ele>2597.5</ele>
        <time>2020-05-22T08:22:48Z</time>
      </trkpt>
      <trkpt lat="42.690997" lon="0.658520">
        <ele>2598.5</ele>
        <time>2020-05-22T08:23:15Z</time>
      </trkpt>
      <trkpt lat="42.691024" lon="0.658424">
        <ele>2601.8</ele>
        <time>2020-05-22T08:23:38Z</time>
      </trkpt>
      <trkpt lat="42.691045" lon="0.658314">
        <ele>2603.4</ele>
        <time>2020-05-22T08:24:32Z</time>
      </trkpt>
      <trkpt lat="42.691096" lon="0.658223">
        <ele>2608.3</ele>
        <time>2020-05-22T08:25:01Z</time>
      </trkpt>
      <trkpt lat="42.691130" lon="0.658110">
        <ele>2611.0</ele>
        <time>2020-05-22T08:25:18Z</time>
      </trkpt>
      <trkpt lat="42.691173" lon="0.658006">
        <ele>2611.7</ele>
        <time>2020-05-22T08:25:35Z</time>
      </trkpt>
      <trkpt lat="42.691233" lon="0.657925">
        <ele>2615.2</ele>
        <time>2020-05-22T08:25:55Z</time>
      </trkpt>
      <trkpt lat="42.691273" lon="0.657823">
        <ele>2615.1</ele>
        <time>2020-05-22T08:26:06Z</time>
      </trkpt>
      <trkpt lat="42.691306" lon="0.657702">
        <ele>2615.0</ele>
        <time>2020-05-22T08:26:18Z</time>
      </trkpt>
      <trkpt lat="42.691333" lon="0.657575">
        <ele>2612.8</ele>
        <time>2020-05-22T08:26:29Z</time>
      </trkpt>
      <trkpt lat="42.691374" lon="0.657468">
        <ele>2612.9</ele>
        <time>2020-05-22T08:26:48Z</time>
      </trkpt>
      <trkpt lat="42.691436" lon="0.657374">
        <ele>2612.9</ele>
        <time>2020-05-22T08:27:05Z</time>
      </trkpt>
      <trkpt lat="42.691498" lon="0.657285">
        <ele>2612.0</ele>
        <time>2020-05-22T08:27:21Z</time>
      </trkpt>
      <trkpt lat="42.691530" lon="0.657182">
        <ele>2612.1</ele>
        <time>2020-05-22T08:27:42Z</time>
      </trkpt>
      <trkpt lat="42.691597" lon="0.657099">
        <ele>2612.0</ele>
        <time>2020-05-22T08:28:03Z</time>
      </trkpt>
      <trkpt lat="42.691656" lon="0.657049">
        <ele>2612.1</ele>
        <time>2020-05-22T08:28:22Z</time>
      </trkpt>
      <trkpt lat="42.691686" lon="0.656933">
        <ele>2615.4</ele>
        <time>2020-05-22T08:28:45Z</time>
      </trkpt>
      <trkpt lat="42.691744" lon="0.656854">
        <ele>2616.1</ele>
        <time>2020-05-22T08:29:00Z</time>
      </trkpt>
      <trkpt lat="42.691813" lon="0.656832">
        <ele>2614.1</ele>
        <time>2020-05-22T08:32:10Z</time>
      </trkpt>
      <trkpt lat="42.691862" lon="0.656764">
        <ele>2616.7</ele>
        <time>2020-05-22T08:33:54Z</time>
      </trkpt>
      <trkpt lat="42.691920" lon="0.656690">
        <ele>2612.3</ele>
        <time>2020-05-22T08:34:15Z</time>
      </trkpt>
      <trkpt lat="42.691951" lon="0.656567">
        <ele>2612.4</ele>
        <time>2020-05-22T08:34:31Z</time>
      </trkpt>
      <trkpt lat="42.691946" lon="0.656444">
        <ele>2611.5</ele>
        <time>2020-05-22T08:34:50Z</time>
      </trkpt>
      <trkpt lat="42.691935" lon="0.656326">
        <ele>2610.8</ele>
        <time>2020-05-22T08:35:11Z</time>
      </trkpt>
      <trkpt lat="42.691943" lon="0.656247">
        <ele>2606.0</ele>
        <time>2020-05-22T08:35:40Z</time>
      </trkpt>
      <trkpt lat="42.691935" lon="0.656146">
        <ele>2605.3</ele>
        <time>2020-05-22T08:36:16Z</time>
      </trkpt>
      <trkpt lat="42.691976" lon="0.656146">
        <ele>2601.8</ele>
        <time>2020-05-22T08:36:45Z</time>
      </trkpt>
      <trkpt lat="42.691977" lon="0.656033">
        <ele>2598.7</ele>
        <time>2020-05-22T08:37:07Z</time>
      </trkpt>
      <trkpt lat="42.691952" lon="0.655908">
        <ele>2596.9</ele>
        <time>2020-05-22T08:37:19Z</time>
      </trkpt>
      <trkpt lat="42.691939" lon="0.655785">
        <ele>2595.1</ele>
        <time>2020-05-22T08:37:30Z</time>
      </trkpt>
      <trkpt lat="42.691948" lon="0.655665">
        <ele>2592.6</ele>
        <time>2020-05-22T08:37:38Z</time>
      </trkpt>
      <trkpt lat="42.691915" lon="0.655545">
        <ele>2591.1</ele>
        <time>2020-05-22T08:37:48Z</time>
      </trkpt>
      <trkpt lat="42.691904" lon="0.655411">
        <ele>2589.6</ele>
        <time>2020-05-22T08:37:58Z</time>
      </trkpt>
      <trkpt lat="42.691887" lon="0.655291">
        <ele>2587.3</ele>
        <time>2020-05-22T08:38:06Z</time>
      </trkpt>
      <trkpt lat="42.691897" lon="0.655164">
        <ele>2587.4</ele>
        <time>2020-05-22T08:38:17Z</time>
      </trkpt>
      <trkpt lat="42.691905" lon="0.655036">
        <ele>2590.6</ele>
        <time>2020-05-22T08:38:31Z</time>
      </trkpt>
      <trkpt lat="42.691913" lon="0.654940">
        <ele>2590.5</ele>
        <time>2020-05-22T08:38:50Z</time>
      </trkpt>
      <trkpt lat="42.691959" lon="0.654838">
        <ele>2586.5</ele>
        <time>2020-05-22T08:39:05Z</time>
      </trkpt>
      <trkpt lat="42.691989" lon="0.654721">
        <ele>2585.6</ele>
        <time>2020-05-22T08:39:17Z</time>
      </trkpt>
      <trkpt lat="42.691983" lon="0.654601">
        <ele>2585.6</ele>
        <time>2020-05-22T08:39:48Z</time>
      </trkpt>
      <trkpt lat="42.691966" lon="0.654481">
        <ele>2584.0</ele>
        <time>2020-05-22T08:40:12Z</time>
      </trkpt>
      <trkpt lat="42.691998" lon="0.654370">
        <ele>2583.2</ele>
        <time>2020-05-22T08:40:40Z</time>
      </trkpt>
      <trkpt lat="42.691993" lon="0.654246">
        <ele>2582.3</ele>
        <time>2020-05-22T08:41:04Z</time>
      </trkpt>
      <trkpt lat="42.692026" lon="0.654122">
        <ele>2580.0</ele>
        <time>2020-05-22T08:42:01Z</time>
      </trkpt>
      <trkpt lat="42.692028" lon="0.654092">
        <ele>2575.9</ele>
        <time>2020-05-22T08:43:11Z</time>
      </trkpt>
      <trkpt lat="42.692037" lon="0.653973">
        <ele>2574.4</ele>
        <time>2020-05-22T08:43:51Z</time>
      </trkpt>
      <trkpt lat="42.692062" lon="0.653858">
        <ele>2569.4</ele>
        <time>2020-05-22T08:44:18Z</time>
      </trkpt>
      <trkpt lat="42.692082" lon="0.653761">
        <ele>2568.8</ele>
        <time>2020-05-22T08:44:41Z</time>
      </trkpt>
      <trkpt lat="42.692079" lon="0.653660">
        <ele>2565.5</ele>
        <time>2020-05-22T08:45:10Z</time>
      </trkpt>
      <trkpt lat="42.692093" lon="0.653539">
        <ele>2564.7</ele>
        <time>2020-05-22T08:45:25Z</time>
      </trkpt>
      <trkpt lat="42.692130" lon="0.653428">
        <ele>2562.9</ele>
        <time>2020-05-22T08:45:38Z</time>
      </trkpt>
      <trkpt lat="42.692160" lon="0.653320">
        <ele>2563.0</ele>
        <time>2020-05-22T08:46:02Z</time>
      </trkpt>
      <trkpt lat="42.692165" lon="0.653201">
        <ele>2563.2</ele>
        <time>2020-05-22T08:49:39Z</time>
      </trkpt>
      <trkpt lat="42.692204" lon="0.653112">
        <ele>2563.2</ele>
        <time>2020-05-22T08:50:09Z</time>
      </trkpt>
      <trkpt lat="42.692259" lon="0.653017">
        <ele>2563.2</ele>
        <time>2020-05-22T08:50:40Z</time>
      </trkpt>
      <trkpt lat="42.692303" lon="0.652932">
        <ele>2563.2</ele>
        <time>2020-05-22T08:51:04Z</time>
      </trkpt>
      <trkpt lat="42.692309" lon="0.652823">
        <ele>2555.6</ele>
        <time>2020-05-22T08:51:58Z</time>
      </trkpt>
      <trkpt lat="42.692250" lon="0.652711">
        <ele>2558.9</ele>
        <time>2020-05-22T08:52:51Z</time>
      </trkpt>
      <trkpt lat="42.692235" lon="0.652599">
        <ele>2560.9</ele>
        <time>2020-05-22T08:53:18Z</time>
      </trkpt>
      <trkpt lat="42.692205" lon="0.652566">
        <ele>2564.0</ele>
        <time>2020-05-22T08:54:10Z</time>
      </trkpt>
      <trkpt lat="42.692193" lon="0.652490">
        <ele>2569.0</ele>
        <time>2020-05-22T08:55:10Z</time>
      </trkpt>
      <trkpt lat="42.692209" lon="0.652383">
        <ele>2569.9</ele>
        <time>2020-05-22T08:55:33Z</time>
      </trkpt>
      <trkpt lat="42.692201" lon="0.652308">
        <ele>2569.9</ele>
        <time>2020-05-22T08:56:07Z</time>
      </trkpt>
      <trkpt lat="42.692231" lon="0.652201">
        <ele>2570.0</ele>
        <time>2020-05-22T08:57:10Z</time>
      </trkpt>
      <trkpt lat="42.692210" lon="0.652100">
        <ele>2570.1</ele>
        <time>2020-05-22T08:57:38Z</time>
      </trkpt>
      <trkpt lat="42.692191" lon="0.652049">
        <ele>2567.7</ele>
        <time>2020-05-22T08:57:59Z</time>
      </trkpt>
      <trkpt lat="42.692221" lon="0.651935">
        <ele>2567.9</ele>
        <time>2020-05-22T08:58:51Z</time>
      </trkpt>
      <trkpt lat="42.692239" lon="0.651814">
        <ele>2570.4</ele>
        <time>2020-05-22T08:59:22Z</time>
      </trkpt>
      <trkpt lat="42.692232" lon="0.651693">
        <ele>2571.4</ele>
        <time>2020-05-22T08:59:43Z</time>
      </trkpt>
      <trkpt lat="42.692241" lon="0.651581">
        <ele>2571.4</ele>
        <time>2020-05-22T09:00:00Z</time>
      </trkpt>
      <trkpt lat="42.692266" lon="0.651478">
        <ele>2575.0</ele>
        <time>2020-05-22T09:00:27Z</time>
      </trkpt>
      <trkpt lat="42.692296" lon="0.651368">
        <ele>2576.6</ele>
        <time>2020-05-22T09:00:49Z</time>
      </trkpt>
      <trkpt lat="42.692346" lon="0.651275">
        <ele>2578.2</ele>
        <time>2020-05-22T09:01:19Z</time>
      </trkpt>
      <trkpt lat="42.692405" lon="0.651180">
        <ele>2579.0</ele>
        <time>2020-05-22T09:01:36Z</time>
      </trkpt>
      <trkpt lat="42.692445" lon="0.651066">
        <ele>2579.1</ele>
        <time>2020-05-22T09:01:55Z</time>
      </trkpt>
      <trkpt lat="42.692485" lon="0.651007">
        <ele>2581.1</ele>
        <time>2020-05-22T09:03:53Z</time>
      </trkpt>
      <trkpt lat="42.692526" lon="0.650898">
        <ele>2582.1</ele>
        <time>2020-05-22T09:04:10Z</time>
      </trkpt>
      <trkpt lat="42.692560" lon="0.650805">
        <ele>2584.7</ele>
        <time>2020-05-22T09:04:30Z</time>
      </trkpt>
      <trkpt lat="42.692620" lon="0.650721">
        <ele>2589.1</ele>
        <time>2020-05-22T09:05:01Z</time>
      </trkpt>
      <trkpt lat="42.692680" lon="0.650645">
        <ele>2593.2</ele>
        <time>2020-05-22T09:05:32Z</time>
      </trkpt>
      <trkpt lat="42.692717" lon="0.650531">
        <ele>2596.6</ele>
        <time>2020-05-22T09:06:25Z</time>
      </trkpt>
      <trkpt lat="42.692780" lon="0.650456">
        <ele>2602.6</ele>
        <time>2020-05-22T09:07:23Z</time>
      </trkpt>
      <trkpt lat="42.692814" lon="0.650344">
        <ele>2608.2</ele>
        <time>2020-05-22T09:07:59Z</time>
      </trkpt>
      <trkpt lat="42.692896" lon="0.650280">
        <ele>2609.9</ele>
        <time>2020-05-22T09:08:40Z</time>
      </trkpt>
      <trkpt lat="42.692962" lon="0.650183">
        <ele>2612.4</ele>
        <time>2020-05-22T09:09:25Z</time>
      </trkpt>
      <trkpt lat="42.693053" lon="0.650077">
        <ele>2615.6</ele>
        <time>2020-05-22T09:11:19Z</time>
      </trkpt>
      <trkpt lat="42.693130" lon="0.649993">
        <ele>2618.1</ele>
        <time>2020-05-22T09:12:26Z</time>
      </trkpt>
      <trkpt lat="42.693187" lon="0.649927">
        <ele>2615.1</ele>
        <time>2020-05-22T09:13:13Z</time>
      </trkpt>
      <trkpt lat="42.693251" lon="0.649871">
        <ele>2618.4</ele>
        <time>2020-05-22T09:14:27Z</time>
      </trkpt>
      <trkpt lat="42.693306" lon="0.649726">
        <ele>2625.5</ele>
        <time>2020-05-22T09:16:05Z</time>
      </trkpt>
      <trkpt lat="42.693355" lon="0.649577">
        <ele>2634.3</ele>
        <time>2020-05-22T09:19:04Z</time>
      </trkpt>
      <trkpt lat="42.693392" lon="0.649443">
        <ele>2639.6</ele>
        <time>2020-05-22T09:20:10Z</time>
      </trkpt>
      <trkpt lat="42.693452" lon="0.649338">
        <ele>2643.1</ele>
        <time>2020-05-22T09:21:02Z</time>
      </trkpt>
      <trkpt lat="42.693518" lon="0.649228">
        <ele>2648.5</ele>
        <time>2020-05-22T09:23:00Z</time>
      </trkpt>
      <trkpt lat="42.693598" lon="0.649153">
        <ele>2649.5</ele>
        <time>2020-05-22T09:23:39Z</time>
      </trkpt>
      <trkpt lat="42.693667" lon="0.649078">
        <ele>2649.7</ele>
        <time>2020-05-22T09:24:36Z</time>
      </trkpt>
      <trkpt lat="42.693719" lon="0.649068">
        <ele>2659.4</ele>
        <time>2020-05-22T09:27:15Z</time>
      </trkpt>
      <trkpt lat="42.693758" lon="0.648974">
        <ele>2663.5</ele>
        <time>2020-05-22T09:28:15Z</time>
      </trkpt>
      <trkpt lat="42.693827" lon="0.648894">
        <ele>2667.9</ele>
        <time>2020-05-22T09:29:01Z</time>
      </trkpt>
      <trkpt lat="42.693916" lon="0.648853">
        <ele>2669.5</ele>
        <time>2020-05-22T09:29:38Z</time>
      </trkpt>
      <trkpt lat="42.693953" lon="0.648731">
        <ele>2673.7</ele>
        <time>2020-05-22T09:30:20Z</time>
      </trkpt>
      <trkpt lat="42.693977" lon="0.648626">
        <ele>2680.6</ele>
        <time>2020-05-22T09:31:30Z</time>
      </trkpt>
      <trkpt lat="42.693996" lon="0.648540">
        <ele>2686.3</ele>
        <time>2020-05-22T09:32:33Z</time>
      </trkpt>
      <trkpt lat="42.694038" lon="0.648410">
        <ele>2690.8</ele>
        <time>2020-05-22T09:33:14Z</time>
      </trkpt>
      <trkpt lat="42.694056" lon="0.648295">
        <ele>2693.3</ele>
        <time>2020-05-22T09:33:36Z</time>
      </trkpt>
      <trkpt lat="42.694076" lon="0.648186">
        <ele>2695.1</ele>
        <time>2020-05-22T09:33:56Z</time>
      </trkpt>
      <trkpt lat="42.694079" lon="0.648061">
        <ele>2697.9</ele>
        <time>2020-05-22T09:34:15Z</time>
      </trkpt>
      <trkpt lat="42.694099" lon="0.647930">
        <ele>2699.6</ele>
        <time>2020-05-22T09:34:30Z</time>
      </trkpt>
      <trkpt lat="42.694100" lon="0.647878">
        <ele>2702.5</ele>
        <time>2020-05-22T09:47:10Z</time>
      </trkpt>
      <trkpt lat="42.694101" lon="0.647877">
        <ele>2702.1</ele>
        <time>2020-05-22T10:42:36Z</time>
      </trkpt>
      <trkpt lat="42.694119" lon="0.647784">
        <ele>2704.7</ele>
        <time>2020-05-22T11:04:25Z</time>
      </trkpt>
      <trkpt lat="42.694114" lon="0.647703">
        <ele>2704.7</ele>
        <time>2020-05-22T11:05:17Z</time>
      </trkpt>
      <trkpt lat="42.694169" lon="0.647606">
        <ele>2702.3</ele>
        <time>2020-05-22T11:05:33Z</time>
      </trkpt>
      <trkpt lat="42.694230" lon="0.647502">
        <ele>2701.6</ele>
        <time>2020-05-22T11:05:48Z</time>
      </trkpt>
      <trkpt lat="42.694239" lon="0.647389">
        <ele>2701.6</ele>
        <time>2020-05-22T11:06:03Z</time>
      </trkpt>
      <trkpt lat="42.694231" lon="0.647279">
        <ele>2700.7</ele>
        <time>2020-05-22T11:06:17Z</time>
      </trkpt>
      <trkpt lat="42.694212" lon="0.647163">
        <ele>2700.7</ele>
        <time>2020-05-22T11:06:32Z</time>
      </trkpt>
      <trkpt lat="42.694246" lon="0.647071">
        <ele>2696.7</ele>
        <time>2020-05-22T11:07:03Z</time>
      </trkpt>
      <trkpt lat="42.694296" lon="0.647033">
        <ele>2694.2</ele>
        <time>2020-05-22T11:08:17Z</time>
      </trkpt>
      <trkpt lat="42.694347" lon="0.647000">
        <ele>2688.0</ele>
        <time>2020-05-22T11:09:10Z</time>
      </trkpt>
      <trkpt lat="42.694388" lon="0.646945">
        <ele>2684.8</ele>
        <time>2020-05-22T11:09:45Z</time>
      </trkpt>
      <trkpt lat="42.694418" lon="0.646851">
        <ele>2678.6</ele>
        <time>2020-05-22T11:10:41Z</time>
      </trkpt>
      <trkpt lat="42.694422" lon="0.646749">
        <ele>2671.4</ele>
        <time>2020-05-22T11:12:12Z</time>
      </trkpt>
      <trkpt lat="42.694374" lon="0.646630">
        <ele>2662.7</ele>
        <time>2020-05-22T11:13:20Z</time>
      </trkpt>
      <trkpt lat="42.694368" lon="0.646545">
        <ele>2657.9</ele>
        <time>2020-05-22T11:14:05Z</time>
      </trkpt>
      <trkpt lat="42.694304" lon="0.646522">
        <ele>2653.8</ele>
        <time>2020-05-22T11:14:39Z</time>
      </trkpt>
      <trkpt lat="42.694241" lon="0.646457">
        <ele>2646.9</ele>
        <time>2020-05-22T11:15:35Z</time>
      </trkpt>
      <trkpt lat="42.694183" lon="0.646367">
        <ele>2641.5</ele>
        <time>2020-05-22T11:16:08Z</time>
      </trkpt>
      <trkpt lat="42.694091" lon="0.646343">
        <ele>2637.3</ele>
        <time>2020-05-22T11:17:47Z</time>
      </trkpt>
      <trkpt lat="42.694046" lon="0.646281">
        <ele>2635.8</ele>
        <time>2020-05-22T11:18:43Z</time>
      </trkpt>
      <trkpt lat="42.694085" lon="0.646271">
        <ele>2632.3</ele>
        <time>2020-05-22T11:20:00Z</time>
      </trkpt>
      <trkpt lat="42.694087" lon="0.646232">
        <ele>2632.3</ele>
        <time>2020-05-22T11:20:35Z</time>
      </trkpt>
      <trkpt lat="42.694080" lon="0.646222">
        <ele>2629.7</ele>
        <time>2020-05-22T11:21:31Z</time>
      </trkpt>
      <trkpt lat="42.694005" lon="0.646278">
        <ele>2632.7</ele>
        <time>2020-05-22T11:23:02Z</time>
      </trkpt>
      <trkpt lat="42.693945" lon="0.646264">
        <ele>2632.5</ele>
        <time>2020-05-22T11:24:16Z</time>
      </trkpt>
      <trkpt lat="42.693912" lon="0.646193">
        <ele>2623.6</ele>
        <time>2020-05-22T11:26:23Z</time>
      </trkpt>
      <trkpt lat="42.693906" lon="0.646085">
        <ele>2617.4</ele>
        <time>2020-05-22T11:28:09Z</time>
      </trkpt>
      <trkpt lat="42.693879" lon="0.646007">
        <ele>2609.4</ele>
        <time>2020-05-22T11:30:36Z</time>
      </trkpt>
      <trkpt lat="42.693879" lon="0.645955">
        <ele>2601.0</ele>
        <time>2020-05-22T11:33:26Z</time>
      </trkpt>
      <trkpt lat="42.693891" lon="0.645880">
        <ele>2596.0</ele>
        <time>2020-05-22T11:34:39Z</time>
      </trkpt>
      <trkpt lat="42.693860" lon="0.645825">
        <ele>2592.5</ele>
        <time>2020-05-22T11:35:30Z</time>
      </trkpt>
      <trkpt lat="42.693777" lon="0.645784">
        <ele>2587.2</ele>
        <time>2020-05-22T11:36:05Z</time>
      </trkpt>
      <trkpt lat="42.693743" lon="0.645756">
        <ele>2584.1</ele>
        <time>2020-05-22T11:37:38Z</time>
      </trkpt>
      <trkpt lat="42.693723" lon="0.645733">
        <ele>2580.5</ele>
        <time>2020-05-22T11:37:58Z</time>
      </trkpt>
      <trkpt lat="42.693690" lon="0.645681">
        <ele>2577.5</ele>
        <time>2020-05-22T11:38:12Z</time>
      </trkpt>
      <trkpt lat="42.693663" lon="0.645645">
        <ele>2574.1</ele>
        <time>2020-05-22T11:38:33Z</time>
      </trkpt>
      <trkpt lat="42.693672" lon="0.645598">
        <ele>2569.1</ele>
        <time>2020-05-22T11:39:22Z</time>
      </trkpt>
      <trkpt lat="42.693638" lon="0.645524">
        <ele>2565.1</ele>
        <time>2020-05-22T11:39:48Z</time>
      </trkpt>
      <trkpt lat="42.693624" lon="0.645471">
        <ele>2561.6</ele>
        <time>2020-05-22T11:40:08Z</time>
      </trkpt>
      <trkpt lat="42.693618" lon="0.645419">
        <ele>2557.3</ele>
        <time>2020-05-22T11:40:27Z</time>
      </trkpt>
      <trkpt lat="42.693657" lon="0.645318">
        <ele>2551.8</ele>
        <time>2020-05-22T11:40:46Z</time>
      </trkpt>
      <trkpt lat="42.693687" lon="0.645241">
        <ele>2548.1</ele>
        <time>2020-05-22T11:41:06Z</time>
      </trkpt>
      <trkpt lat="42.693755" lon="0.645207">
        <ele>2542.7</ele>
        <time>2020-05-22T11:41:32Z</time>
      </trkpt>
      <trkpt lat="42.693761" lon="0.645132">
        <ele>2538.0</ele>
        <time>2020-05-22T11:41:58Z</time>
      </trkpt>
      <trkpt lat="42.693737" lon="0.645039">
        <ele>2533.6</ele>
        <time>2020-05-22T11:42:14Z</time>
      </trkpt>
      <trkpt lat="42.693718" lon="0.644950">
        <ele>2528.6</ele>
        <time>2020-05-22T11:42:38Z</time>
      </trkpt>
      <trkpt lat="42.693699" lon="0.644875">
        <ele>2525.1</ele>
        <time>2020-05-22T11:44:09Z</time>
      </trkpt>
      <trkpt lat="42.693678" lon="0.644757">
        <ele>2522.6</ele>
        <time>2020-05-22T11:44:27Z</time>
      </trkpt>
      <trkpt lat="42.693647" lon="0.644643">
        <ele>2518.6</ele>
        <time>2020-05-22T11:44:46Z</time>
      </trkpt>
      <trkpt lat="42.693617" lon="0.644525">
        <ele>2515.0</ele>
        <time>2020-05-22T11:45:03Z</time>
      </trkpt>
      <trkpt lat="42.693566" lon="0.644436">
        <ele>2510.9</ele>
        <time>2020-05-22T11:45:54Z</time>
      </trkpt>
      <trkpt lat="42.693535" lon="0.644322">
        <ele>2510.8</ele>
        <time>2020-05-22T11:46:32Z</time>
      </trkpt>
      <trkpt lat="42.693498" lon="0.644206">
        <ele>2514.7</ele>
        <time>2020-05-22T11:47:15Z</time>
      </trkpt>
      <trkpt lat="42.693445" lon="0.644188">
        <ele>2518.6</ele>
        <time>2020-05-22T11:48:01Z</time>
      </trkpt>
      <trkpt lat="42.693416" lon="0.644120">
        <ele>2521.9</ele>
        <time>2020-05-22T11:48:30Z</time>
      </trkpt>
      <trkpt lat="42.693427" lon="0.644020">
        <ele>2519.4</ele>
        <time>2020-05-22T11:49:13Z</time>
      </trkpt>
      <trkpt lat="42.693406" lon="0.643921">
        <ele>2519.3</ele>
        <time>2020-05-22T11:49:37Z</time>
      </trkpt>
      <trkpt lat="42.693411" lon="0.643829">
        <ele>2517.6</ele>
        <time>2020-05-22T11:50:18Z</time>
      </trkpt>
      <trkpt lat="42.693422" lon="0.643716">
        <ele>2519.6</ele>
        <time>2020-05-22T11:52:12Z</time>
      </trkpt>
      <trkpt lat="42.693444" lon="0.643615">
        <ele>2517.2</ele>
        <time>2020-05-22T11:52:38Z</time>
      </trkpt>
      <trkpt lat="42.693456" lon="0.643515">
        <ele>2515.4</ele>
        <time>2020-05-22T11:53:03Z</time>
      </trkpt>
      <trkpt lat="42.693451" lon="0.643397">
        <ele>2518.1</ele>
        <time>2020-05-22T11:53:46Z</time>
      </trkpt>
      <trkpt lat="42.693459" lon="0.643279">
        <ele>2518.8</ele>
        <time>2020-05-22T11:54:12Z</time>
      </trkpt>
      <trkpt lat="42.693492" lon="0.643178">
        <ele>2518.7</ele>
        <time>2020-05-22T11:54:31Z</time>
      </trkpt>
      <trkpt lat="42.693517" lon="0.643083">
        <ele>2515.4</ele>
        <time>2020-05-22T11:55:19Z</time>
      </trkpt>
      <trkpt lat="42.693527" lon="0.642985">
        <ele>2511.2</ele>
        <time>2020-05-22T11:56:29Z</time>
      </trkpt>
      <trkpt lat="42.693526" lon="0.642850">
        <ele>2511.2</ele>
        <time>2020-05-22T11:57:17Z</time>
      </trkpt>
      <trkpt lat="42.693518" lon="0.642730">
        <ele>2510.1</ele>
        <time>2020-05-22T11:57:36Z</time>
      </trkpt>
      <trkpt lat="42.693509" lon="0.642628">
        <ele>2510.0</ele>
        <time>2020-05-22T11:57:57Z</time>
      </trkpt>
      <trkpt lat="42.693466" lon="0.642569">
        <ele>2504.4</ele>
        <time>2020-05-22T12:00:04Z</time>
      </trkpt>
      <trkpt lat="42.693455" lon="0.642567">
        <ele>2502.6</ele>
        <time>2020-05-22T12:01:45Z</time>
      </trkpt>
      <trkpt lat="42.693446" lon="0.642523">
        <ele>2501.1</ele>
        <time>2020-05-22T12:03:30Z</time>
      </trkpt>
      <trkpt lat="42.693480" lon="0.642505">
        <ele>2498.6</ele>
        <time>2020-05-22T12:04:03Z</time>
      </trkpt>
      <trkpt lat="42.693452" lon="0.642393">
        <ele>2498.7</ele>
        <time>2020-05-22T12:04:27Z</time>
      </trkpt>
      <trkpt lat="42.693442" lon="0.642336">
        <ele>2498.2</ele>
        <time>2020-05-22T12:07:54Z</time>
      </trkpt>
      <trkpt lat="42.693475" lon="0.642224">
        <ele>2500.8</ele>
        <time>2020-05-22T12:08:13Z</time>
      </trkpt>
      <trkpt lat="42.693449" lon="0.642109">
        <ele>2501.5</ele>
        <time>2020-05-22T12:08:55Z</time>
      </trkpt>
      <trkpt lat="42.693394" lon="0.642015">
        <ele>2501.6</ele>
        <time>2020-05-22T12:09:14Z</time>
      </trkpt>
      <trkpt lat="42.693379" lon="0.641913">
        <ele>2497.3</ele>
        <time>2020-05-22T12:09:43Z</time>
      </trkpt>
      <trkpt lat="42.693331" lon="0.641832">
        <ele>2499.6</ele>
        <time>2020-05-22T12:10:16Z</time>
      </trkpt>
      <trkpt lat="42.693317" lon="0.641715">
        <ele>2503.1</ele>
        <time>2020-05-22T12:10:43Z</time>
      </trkpt>
      <trkpt lat="42.693289" lon="0.641595">
        <ele>2504.7</ele>
        <time>2020-05-22T12:11:07Z</time>
      </trkpt>
      <trkpt lat="42.693322" lon="0.641522">
        <ele>2506.2</ele>
        <time>2020-05-22T12:11:35Z</time>
      </trkpt>
      <trkpt lat="42.693321" lon="0.641441">
        <ele>2503.6</ele>
        <time>2020-05-22T12:12:28Z</time>
      </trkpt>
      <trkpt lat="42.693228" lon="0.641497">
        <ele>2502.8</ele>
        <time>2020-05-22T12:14:41Z</time>
      </trkpt>
      <trkpt lat="42.693148" lon="0.641482">
        <ele>2497.0</ele>
        <time>2020-05-22T12:15:25Z</time>
      </trkpt>
      <trkpt lat="42.693139" lon="0.641526">
        <ele>2492.5</ele>
        <time>2020-05-22T12:16:00Z</time>
      </trkpt>
      <trkpt lat="42.693071" lon="0.641519">
        <ele>2488.7</ele>
        <time>2020-05-22T12:16:28Z</time>
      </trkpt>
      <trkpt lat="42.693009" lon="0.641514">
        <ele>2483.6</ele>
        <time>2020-05-22T12:17:19Z</time>
      </trkpt>
      <trkpt lat="42.692980" lon="0.641435">
        <ele>2481.9</ele>
        <time>2020-05-22T12:19:21Z</time>
      </trkpt>
      <trkpt lat="42.692937" lon="0.641313">
        <ele>2478.8</ele>
        <time>2020-05-22T12:19:36Z</time>
      </trkpt>
      <trkpt lat="42.692902" lon="0.641290">
        <ele>2479.6</ele>
        <time>2020-05-22T12:19:58Z</time>
      </trkpt>
      <trkpt lat="42.692871" lon="0.641313">
        <ele>2474.3</ele>
        <time>2020-05-22T12:20:49Z</time>
      </trkpt>
      <trkpt lat="42.692804" lon="0.641300">
        <ele>2466.7</ele>
        <time>2020-05-22T12:22:00Z</time>
      </trkpt>
      <trkpt lat="42.692755" lon="0.641367">
        <ele>2464.8</ele>
        <time>2020-05-22T12:22:27Z</time>
      </trkpt>
      <trkpt lat="42.692719" lon="0.641397">
        <ele>2461.2</ele>
        <time>2020-05-22T12:23:02Z</time>
      </trkpt>
      <trkpt lat="42.692697" lon="0.641365">
        <ele>2457.4</ele>
        <time>2020-05-22T12:23:21Z</time>
      </trkpt>
      <trkpt lat="42.692656" lon="0.641270">
        <ele>2451.7</ele>
        <time>2020-05-22T12:23:46Z</time>
      </trkpt>
      <trkpt lat="42.692697" lon="0.641183">
        <ele>2449.8</ele>
        <time>2020-05-22T12:24:24Z</time>
      </trkpt>
      <trkpt lat="42.692755" lon="0.641134">
        <ele>2448.1</ele>
        <time>2020-05-22T12:25:42Z</time>
      </trkpt>
      <trkpt lat="42.692766" lon="0.641106">
        <ele>2447.0</ele>
        <time>2020-05-22T12:26:40Z</time>
      </trkpt>
      <trkpt lat="42.692817" lon="0.641061">
        <ele>2447.5</ele>
        <time>2020-05-22T12:30:59Z</time>
      </trkpt>
      <trkpt lat="42.692851" lon="0.640979">
        <ele>2445.4</ele>
        <time>2020-05-22T12:31:16Z</time>
      </trkpt>
      <trkpt lat="42.692888" lon="0.640961">
        <ele>2439.2</ele>
        <time>2020-05-22T12:31:38Z</time>
      </trkpt>
      <trkpt lat="42.692950" lon="0.640942">
        <ele>2434.6</ele>
        <time>2020-05-22T12:31:59Z</time>
      </trkpt>
      <trkpt lat="42.692976" lon="0.640891">
        <ele>2431.1</ele>
        <time>2020-05-22T12:32:27Z</time>
      </trkpt>
      <trkpt lat="42.692997" lon="0.640875">
        <ele>2427.7</ele>
        <time>2020-05-22T12:32:51Z</time>
      </trkpt>
      <trkpt lat="42.693010" lon="0.640806">
        <ele>2422.6</ele>
        <time>2020-05-22T12:33:27Z</time>
      </trkpt>
      <trkpt lat="42.693050" lon="0.640738">
        <ele>2418.6</ele>
        <time>2020-05-22T12:33:41Z</time>
      </trkpt>
      <trkpt lat="42.693110" lon="0.640741">
        <ele>2415.3</ele>
        <time>2020-05-22T12:34:02Z</time>
      </trkpt>
      <trkpt lat="42.693141" lon="0.640684">
        <ele>2411.3</ele>
        <time>2020-05-22T12:34:22Z</time>
      </trkpt>
      <trkpt lat="42.693113" lon="0.640574">
        <ele>2409.4</ele>
        <time>2020-05-22T12:34:38Z</time>
      </trkpt>
      <trkpt lat="42.693194" lon="0.640521">
        <ele>2404.7</ele>
        <time>2020-05-22T12:34:59Z</time>
      </trkpt>
      <trkpt lat="42.693255" lon="0.640567">
        <ele>2401.5</ele>
        <time>2020-05-22T12:35:12Z</time>
      </trkpt>
      <trkpt lat="42.693295" lon="0.640526">
        <ele>2398.9</ele>
        <time>2020-05-22T12:35:24Z</time>
      </trkpt>
      <trkpt lat="42.693250" lon="0.640399">
        <ele>2397.9</ele>
        <time>2020-05-22T12:35:34Z</time>
      </trkpt>
      <trkpt lat="42.693318" lon="0.640398">
        <ele>2393.1</ele>
        <time>2020-05-22T12:35:47Z</time>
      </trkpt>
      <trkpt lat="42.693393" lon="0.640484">
        <ele>2389.9</ele>
        <time>2020-05-22T12:35:58Z</time>
      </trkpt>
      <trkpt lat="42.693443" lon="0.640590">
        <ele>2387.4</ele>
        <time>2020-05-22T12:36:08Z</time>
      </trkpt>
      <trkpt lat="42.693473" lon="0.640554">
        <ele>2384.5</ele>
        <time>2020-05-22T12:36:18Z</time>
      </trkpt>
      <trkpt lat="42.693495" lon="0.640427">
        <ele>2381.9</ele>
        <time>2020-05-22T12:36:30Z</time>
      </trkpt>
      <trkpt lat="42.693546" lon="0.640455">
        <ele>2377.0</ele>
        <time>2020-05-22T12:36:46Z</time>
      </trkpt>
      <trkpt lat="42.693542" lon="0.640442">
        <ele>2373.9</ele>
        <time>2020-05-22T12:37:07Z</time>
      </trkpt>
      <trkpt lat="42.693569" lon="0.640415">
        <ele>2371.1</ele>
        <time>2020-05-22T12:41:47Z</time>
      </trkpt>
      <trkpt lat="42.693588" lon="0.640391">
        <ele>2370.4</ele>
        <time>2020-05-22T12:43:25Z</time>
      </trkpt>
      <trkpt lat="42.693613" lon="0.640463">
        <ele>2370.0</ele>
        <time>2020-05-22T12:44:13Z</time>
      </trkpt>
      <trkpt lat="42.693603" lon="0.640608">
        <ele>2367.9</ele>
        <time>2020-05-22T12:44:35Z</time>
      </trkpt>
      <trkpt lat="42.693724" lon="0.640642">
        <ele>2364.3</ele>
        <time>2020-05-22T12:44:52Z</time>
      </trkpt>
      <trkpt lat="42.693818" lon="0.640673">
        <ele>2359.6</ele>
        <time>2020-05-22T12:45:08Z</time>
      </trkpt>
      <trkpt lat="42.693858" lon="0.640782">
        <ele>2355.9</ele>
        <time>2020-05-22T12:45:29Z</time>
      </trkpt>
      <trkpt lat="42.693818" lon="0.640904">
        <ele>2355.0</ele>
        <time>2020-05-22T12:45:45Z</time>
      </trkpt>
      <trkpt lat="42.693881" lon="0.640977">
        <ele>2352.3</ele>
        <time>2020-05-22T12:46:03Z</time>
      </trkpt>
      <trkpt lat="42.693917" lon="0.641072">
        <ele>2348.6</ele>
        <time>2020-05-22T12:46:19Z</time>
      </trkpt>
      <trkpt lat="42.693968" lon="0.641234">
        <ele>2346.0</ele>
        <time>2020-05-22T12:46:34Z</time>
      </trkpt>
      <trkpt lat="42.694051" lon="0.641327">
        <ele>2343.4</ele>
        <time>2020-05-22T12:46:49Z</time>
      </trkpt>
      <trkpt lat="42.694114" lon="0.641437">
        <ele>2340.6</ele>
        <time>2020-05-22T12:47:00Z</time>
      </trkpt>
      <trkpt lat="42.694210" lon="0.641488">
        <ele>2337.7</ele>
        <time>2020-05-22T12:47:10Z</time>
      </trkpt>
      <trkpt lat="42.694313" lon="0.641584">
        <ele>2334.7</ele>
        <time>2020-05-22T12:47:19Z</time>
      </trkpt>
      <trkpt lat="42.694436" lon="0.641577">
        <ele>2332.8</ele>
        <time>2020-05-22T12:47:31Z</time>
      </trkpt>
      <trkpt lat="42.694524" lon="0.641709">
        <ele>2330.2</ele>
        <time>2020-05-22T12:47:44Z</time>
      </trkpt>
      <trkpt lat="42.694625" lon="0.641754">
        <ele>2328.6</ele>
        <time>2020-05-22T12:47:57Z</time>
      </trkpt>
      <trkpt lat="42.694732" lon="0.641711">
        <ele>2326.6</ele>
        <time>2020-05-22T12:48:09Z</time>
      </trkpt>
      <trkpt lat="42.694718" lon="0.641729">
        <ele>2326.6</ele>
        <time>2020-05-22T12:48:27Z</time>
      </trkpt>
      <trkpt lat="42.694805" lon="0.641786">
        <ele>2325.0</ele>
        <time>2020-05-22T12:48:46Z</time>
      </trkpt>
      <trkpt lat="42.694854" lon="0.641744">
        <ele>2324.1</ele>
        <time>2020-05-22T12:49:04Z</time>
      </trkpt>
      <trkpt lat="42.694950" lon="0.641781">
        <ele>2321.6</ele>
        <time>2020-05-22T12:49:16Z</time>
      </trkpt>
      <trkpt lat="42.695039" lon="0.641773">
        <ele>2321.6</ele>
        <time>2020-05-22T12:49:57Z</time>
      </trkpt>
      <trkpt lat="42.695142" lon="0.641813">
        <ele>2319.6</ele>
        <time>2020-05-22T12:50:10Z</time>
      </trkpt>
      <trkpt lat="42.695258" lon="0.641818">
        <ele>2317.8</ele>
        <time>2020-05-22T12:50:23Z</time>
      </trkpt>
      <trkpt lat="42.695348" lon="0.641794">
        <ele>2317.0</ele>
        <time>2020-05-22T12:50:34Z</time>
      </trkpt>
      <trkpt lat="42.695457" lon="0.641777">
        <ele>2315.0</ele>
        <time>2020-05-22T12:50:44Z</time>
      </trkpt>
      <trkpt lat="42.695524" lon="0.641727">
        <ele>2315.1</ele>
        <time>2020-05-22T12:50:58Z</time>
      </trkpt>
      <trkpt lat="42.695583" lon="0.641731">
        <ele>2314.9</ele>
        <time>2020-05-22T12:51:13Z</time>
      </trkpt>
      <trkpt lat="42.695685" lon="0.641717">
        <ele>2314.8</ele>
        <time>2020-05-22T12:51:30Z</time>
      </trkpt>
      <trkpt lat="42.695755" lon="0.641736">
        <ele>2314.7</ele>
        <time>2020-05-22T12:51:44Z</time>
      </trkpt>
      <trkpt lat="42.695835" lon="0.641742">
        <ele>2313.8</ele>
        <time>2020-05-22T12:52:06Z</time>
      </trkpt>
      <trkpt lat="42.695901" lon="0.641811">
        <ele>2312.9</ele>
        <time>2020-05-22T12:52:40Z</time>
      </trkpt>
      <trkpt lat="42.695979" lon="0.641889">
        <ele>2312.9</ele>
        <time>2020-05-22T12:52:52Z</time>
      </trkpt>
      <trkpt lat="42.696055" lon="0.641962">
        <ele>2312.9</ele>
        <time>2020-05-22T12:53:03Z</time>
      </trkpt>
      <trkpt lat="42.696132" lon="0.642055">
        <ele>2311.9</ele>
        <time>2020-05-22T12:53:14Z</time>
      </trkpt>
      <trkpt lat="42.696199" lon="0.642141">
        <ele>2311.0</ele>
        <time>2020-05-22T12:53:25Z</time>
      </trkpt>
      <trkpt lat="42.696279" lon="0.642220">
        <ele>2309.2</ele>
        <time>2020-05-22T12:53:37Z</time>
      </trkpt>
      <trkpt lat="42.696359" lon="0.642296">
        <ele>2308.3</ele>
        <time>2020-05-22T12:53:47Z</time>
      </trkpt>
      <trkpt lat="42.696419" lon="0.642409">
        <ele>2307.5</ele>
        <time>2020-05-22T12:53:58Z</time>
      </trkpt>
      <trkpt lat="42.696477" lon="0.642511">
        <ele>2306.6</ele>
        <time>2020-05-22T12:54:09Z</time>
      </trkpt>
      <trkpt lat="42.696567" lon="0.642555">
        <ele>2305.7</ele>
        <time>2020-05-22T12:54:21Z</time>
      </trkpt>
      <trkpt lat="42.696657" lon="0.642617">
        <ele>2304.7</ele>
        <time>2020-05-22T12:54:37Z</time>
      </trkpt>
      <trkpt lat="42.696757" lon="0.642640">
        <ele>2303.8</ele>
        <time>2020-05-22T12:54:48Z</time>
      </trkpt>
      <trkpt lat="42.696861" lon="0.642640">
        <ele>2302.2</ele>
        <time>2020-05-22T12:54:58Z</time>
      </trkpt>
      <trkpt lat="42.696953" lon="0.642613">
        <ele>2301.3</ele>
        <time>2020-05-22T12:55:14Z</time>
      </trkpt>
      <trkpt lat="42.697031" lon="0.642590">
        <ele>2299.6</ele>
        <time>2020-05-22T12:55:28Z</time>
      </trkpt>
      <trkpt lat="42.697050" lon="0.642554">
        <ele>2298.5</ele>
        <time>2020-05-22T12:56:54Z</time>
      </trkpt>
      <trkpt lat="42.697132" lon="0.642476">
        <ele>2298.4</ele>
        <time>2020-05-22T12:57:22Z</time>
      </trkpt>
      <trkpt lat="42.697225" lon="0.642422">
        <ele>2297.5</ele>
        <time>2020-05-22T12:57:33Z</time>
      </trkpt>
      <trkpt lat="42.697317" lon="0.642391">
        <ele>2297.5</ele>
        <time>2020-05-22T12:57:44Z</time>
      </trkpt>
      <trkpt lat="42.697414" lon="0.642361">
        <ele>2297.5</ele>
        <time>2020-05-22T12:57:56Z</time>
      </trkpt>
      <trkpt lat="42.697477" lon="0.642366">
        <ele>2297.3</ele>
        <time>2020-05-22T12:58:52Z</time>
      </trkpt>
      <trkpt lat="42.697579" lon="0.642336">
        <ele>2296.5</ele>
        <time>2020-05-22T12:59:14Z</time>
      </trkpt>
      <trkpt lat="42.697646" lon="0.642237">
        <ele>2294.8</ele>
        <time>2020-05-22T12:59:24Z</time>
      </trkpt>
      <trkpt lat="42.697722" lon="0.642224">
        <ele>2293.8</ele>
        <time>2020-05-22T13:00:05Z</time>
      </trkpt>
      <trkpt lat="42.697804" lon="0.642269">
        <ele>2293.7</ele>
        <time>2020-05-22T13:00:17Z</time>
      </trkpt>
      <trkpt lat="42.697838" lon="0.642343">
        <ele>2293.6</ele>
        <time>2020-05-22T13:00:46Z</time>
      </trkpt>
      <trkpt lat="42.697939" lon="0.642369">
        <ele>2293.6</ele>
        <time>2020-05-22T13:00:55Z</time>
      </trkpt>
      <trkpt lat="42.698030" lon="0.642398">
        <ele>2292.7</ele>
        <time>2020-05-22T13:01:04Z</time>
      </trkpt>
      <trkpt lat="42.698125" lon="0.642426">
        <ele>2290.8</ele>
        <time>2020-05-22T13:01:15Z</time>
      </trkpt>
      <trkpt lat="42.698221" lon="0.642450">
        <ele>2289.0</ele>
        <time>2020-05-22T13:01:25Z</time>
      </trkpt>
      <trkpt lat="42.698310" lon="0.642487">
        <ele>2286.3</ele>
        <time>2020-05-22T13:01:36Z</time>
      </trkpt>
      <trkpt lat="42.698407" lon="0.642526">
        <ele>2283.8</ele>
        <time>2020-05-22T13:01:46Z</time>
      </trkpt>
      <trkpt lat="42.698499" lon="0.642546">
        <ele>2282.1</ele>
        <time>2020-05-22T13:01:55Z</time>
      </trkpt>
      <trkpt lat="42.698589" lon="0.642567">
        <ele>2280.5</ele>
        <time>2020-05-22T13:02:04Z</time>
      </trkpt>
      <trkpt lat="42.698682" lon="0.642613">
        <ele>2277.8</ele>
        <time>2020-05-22T13:02:13Z</time>
      </trkpt>
      <trkpt lat="42.698775" lon="0.642653">
        <ele>2276.0</ele>
        <time>2020-05-22T13:02:22Z</time>
      </trkpt>
      <trkpt lat="42.698866" lon="0.642636">
        <ele>2274.9</ele>
        <time>2020-05-22T13:02:32Z</time>
      </trkpt>
      <trkpt lat="42.698947" lon="0.642582">
        <ele>2272.8</ele>
        <time>2020-05-22T13:02:42Z</time>
      </trkpt>
      <trkpt lat="42.699012" lon="0.642636">
        <ele>2268.9</ele>
        <time>2020-05-22T13:03:01Z</time>
      </trkpt>
      <trkpt lat="42.699084" lon="0.642673">
        <ele>2264.9</ele>
        <time>2020-05-22T13:03:11Z</time>
      </trkpt>
      <trkpt lat="42.699165" lon="0.642706">
        <ele>2262.5</ele>
        <time>2020-05-22T13:03:19Z</time>
      </trkpt>
      <trkpt lat="42.699253" lon="0.642751">
        <ele>2260.0</ele>
        <time>2020-05-22T13:03:27Z</time>
      </trkpt>
      <trkpt lat="42.699358" lon="0.642749">
        <ele>2257.5</ele>
        <time>2020-05-22T13:03:36Z</time>
      </trkpt>
      <trkpt lat="42.699460" lon="0.642748">
        <ele>2255.9</ele>
        <time>2020-05-22T13:03:45Z</time>
      </trkpt>
      <trkpt lat="42.699558" lon="0.642719">
        <ele>2254.0</ele>
        <time>2020-05-22T13:03:54Z</time>
      </trkpt>
      <trkpt lat="42.699651" lon="0.642717">
        <ele>2253.0</ele>
        <time>2020-05-22T13:04:05Z</time>
      </trkpt>
      <trkpt lat="42.699948" lon="0.642710">
        <ele>2239.1</ele>
        <time>2020-05-22T13:30:37Z</time>
      </trkpt>
      <trkpt lat="42.700049" lon="0.642738">
        <ele>2237.5</ele>
        <time>2020-05-22T13:30:47Z</time>
      </trkpt>
      <trkpt lat="42.700135" lon="0.642793">
        <ele>2236.6</ele>
        <time>2020-05-22T13:30:57Z</time>
      </trkpt>
      <trkpt lat="42.700193" lon="0.642884">
        <ele>2233.6</ele>
        <time>2020-05-22T13:31:10Z</time>
      </trkpt>
      <trkpt lat="42.700235" lon="0.643001">
        <ele>2230.6</ele>
        <time>2020-05-22T13:31:20Z</time>
      </trkpt>
      <trkpt lat="42.700314" lon="0.643070">
        <ele>2229.7</ele>
        <time>2020-05-22T13:31:29Z</time>
      </trkpt>
      <trkpt lat="42.700385" lon="0.643161">
        <ele>2227.0</ele>
        <time>2020-05-22T13:31:38Z</time>
      </trkpt>
      <trkpt lat="42.700410" lon="0.643258">
        <ele>2224.2</ele>
        <time>2020-05-22T13:31:56Z</time>
      </trkpt>
      <trkpt lat="42.700455" lon="0.643341">
        <ele>2221.6</ele>
        <time>2020-05-22T13:32:12Z</time>
      </trkpt>
      <trkpt lat="42.700435" lon="0.643435">
        <ele>2218.1</ele>
        <time>2020-05-22T13:32:34Z</time>
      </trkpt>
      <trkpt lat="42.700478" lon="0.643544">
        <ele>2214.9</ele>
        <time>2020-05-22T13:32:45Z</time>
      </trkpt>
      <trkpt lat="42.700515" lon="0.643664">
        <ele>2212.2</ele>
        <time>2020-05-22T13:32:56Z</time>
      </trkpt>
      <trkpt lat="42.700573" lon="0.643771">
        <ele>2211.4</ele>
        <time>2020-05-22T13:33:06Z</time>
      </trkpt>
      <trkpt lat="42.700625" lon="0.643881">
        <ele>2209.6</ele>
        <time>2020-05-22T13:33:16Z</time>
      </trkpt>
      <trkpt lat="42.700691" lon="0.643980">
        <ele>2207.8</ele>
        <time>2020-05-22T13:33:26Z</time>
      </trkpt>
      <trkpt lat="42.700790" lon="0.643992">
        <ele>2205.3</ele>
        <time>2020-05-22T13:33:35Z</time>
      </trkpt>
      <trkpt lat="42.700795" lon="0.644046">
        <ele>2204.4</ele>
        <time>2020-05-22T13:33:45Z</time>
      </trkpt>
      <trkpt lat="42.700699" lon="0.644099">
        <ele>2202.9</ele>
        <time>2020-05-22T13:33:54Z</time>
      </trkpt>
      <trkpt lat="42.700618" lon="0.644147">
        <ele>2201.3</ele>
        <time>2020-05-22T13:34:04Z</time>
      </trkpt>
      <trkpt lat="42.700582" lon="0.644218">
        <ele>2199.3</ele>
        <time>2020-05-22T13:34:15Z</time>
      </trkpt>
      <trkpt lat="42.700550" lon="0.644324">
        <ele>2194.1</ele>
        <time>2020-05-22T13:34:51Z</time>
      </trkpt>
      <trkpt lat="42.700640" lon="0.644360">
        <ele>2192.1</ele>
        <time>2020-05-22T13:35:02Z</time>
      </trkpt>
      <trkpt lat="42.700638" lon="0.644416">
        <ele>2191.3</ele>
        <time>2020-05-22T13:35:14Z</time>
      </trkpt>
      <trkpt lat="42.700538" lon="0.644457">
        <ele>2189.6</ele>
        <time>2020-05-22T13:35:23Z</time>
      </trkpt>
      <trkpt lat="42.700487" lon="0.644496">
        <ele>2187.8</ele>
        <time>2020-05-22T13:35:32Z</time>
      </trkpt>
      <trkpt lat="42.700572" lon="0.644566">
        <ele>2186.0</ele>
        <time>2020-05-22T13:35:42Z</time>
      </trkpt>
      <trkpt lat="42.700672" lon="0.644567">
        <ele>2184.2</ele>
        <time>2020-05-22T13:36:07Z</time>
      </trkpt>
      <trkpt lat="42.700770" lon="0.644557">
        <ele>2181.9</ele>
        <time>2020-05-22T13:36:17Z</time>
      </trkpt>
      <trkpt lat="42.700862" lon="0.644509">
        <ele>2179.4</ele>
        <time>2020-05-22T13:36:25Z</time>
      </trkpt>
      <trkpt lat="42.700956" lon="0.644476">
        <ele>2177.5</ele>
        <time>2020-05-22T13:36:33Z</time>
      </trkpt>
      <trkpt lat="42.701054" lon="0.644442">
        <ele>2175.5</ele>
        <time>2020-05-22T13:36:41Z</time>
      </trkpt>
      <trkpt lat="42.701151" lon="0.644418">
        <ele>2174.0</ele>
        <time>2020-05-22T13:36:49Z</time>
      </trkpt>
      <trkpt lat="42.701250" lon="0.644378">
        <ele>2172.9</ele>
        <time>2020-05-22T13:36:58Z</time>
      </trkpt>
      <trkpt lat="42.701341" lon="0.644345">
        <ele>2171.2</ele>
        <time>2020-05-22T13:37:06Z</time>
      </trkpt>
      <trkpt lat="42.701432" lon="0.644313">
        <ele>2169.2</ele>
        <time>2020-05-22T13:37:13Z</time>
      </trkpt>
      <trkpt lat="42.701530" lon="0.644316">
        <ele>2167.5</ele>
        <time>2020-05-22T13:37:20Z</time>
      </trkpt>
      <trkpt lat="42.701610" lon="0.644373">
        <ele>2165.5</ele>
        <time>2020-05-22T13:37:27Z</time>
      </trkpt>
      <trkpt lat="42.701693" lon="0.644431">
        <ele>2163.7</ele>
        <time>2020-05-22T13:37:35Z</time>
      </trkpt>
      <trkpt lat="42.701762" lon="0.644526">
        <ele>2161.9</ele>
        <time>2020-05-22T13:37:43Z</time>
      </trkpt>
      <trkpt lat="42.701819" lon="0.644622">
        <ele>2160.2</ele>
        <time>2020-05-22T13:37:51Z</time>
      </trkpt>
      <trkpt lat="42.701888" lon="0.644707">
        <ele>2157.6</ele>
        <time>2020-05-22T13:37:59Z</time>
      </trkpt>
      <trkpt lat="42.701942" lon="0.644808">
        <ele>2155.7</ele>
        <time>2020-05-22T13:38:07Z</time>
      </trkpt>
      <trkpt lat="42.701995" lon="0.644909">
        <ele>2153.9</ele>
        <time>2020-05-22T13:38:15Z</time>
      </trkpt>
      <trkpt lat="42.702049" lon="0.645008">
        <ele>2152.3</ele>
        <time>2020-05-22T13:38:23Z</time>
      </trkpt>
      <trkpt lat="42.702148" lon="0.645040">
        <ele>2151.4</ele>
        <time>2020-05-22T13:38:40Z</time>
      </trkpt>
      <trkpt lat="42.702240" lon="0.645089">
        <ele>2149.5</ele>
        <time>2020-05-22T13:38:49Z</time>
      </trkpt>
      <trkpt lat="42.702315" lon="0.645170">
        <ele>2147.7</ele>
        <time>2020-05-22T13:38:58Z</time>
      </trkpt>
      <trkpt lat="42.702388" lon="0.645251">
        <ele>2146.0</ele>
        <time>2020-05-22T13:39:06Z</time>
      </trkpt>
      <trkpt lat="42.702425" lon="0.645361">
        <ele>2144.1</ele>
        <time>2020-05-22T13:39:15Z</time>
      </trkpt>
      <trkpt lat="42.702487" lon="0.645463">
        <ele>2141.3</ele>
        <time>2020-05-22T13:39:25Z</time>
      </trkpt>
      <trkpt lat="42.702572" lon="0.645519">
        <ele>2140.3</ele>
        <time>2020-05-22T13:39:33Z</time>
      </trkpt>
      <trkpt lat="42.702662" lon="0.645530">
        <ele>2137.2</ele>
        <time>2020-05-22T13:39:43Z</time>
      </trkpt>
      <trkpt lat="42.702741" lon="0.645551">
        <ele>2133.9</ele>
        <time>2020-05-22T13:39:54Z</time>
      </trkpt>
      <trkpt lat="42.702786" lon="0.645436">
        <ele>2132.2</ele>
        <time>2020-05-22T13:40:03Z</time>
      </trkpt>
      <trkpt lat="42.702839" lon="0.645327">
        <ele>2128.7</ele>
        <time>2020-05-22T13:40:16Z</time>
      </trkpt>
      <trkpt lat="42.702883" lon="0.645221">
        <ele>2127.1</ele>
        <time>2020-05-22T13:40:25Z</time>
      </trkpt>
      <trkpt lat="42.702926" lon="0.645183">
        <ele>2123.2</ele>
        <time>2020-05-22T13:41:05Z</time>
      </trkpt>
      <trkpt lat="42.702966" lon="0.645227">
        <ele>2120.4</ele>
        <time>2020-05-22T13:41:18Z</time>
      </trkpt>
      <trkpt lat="42.703007" lon="0.645112">
        <ele>2119.4</ele>
        <time>2020-05-22T13:41:27Z</time>
      </trkpt>
      <trkpt lat="42.703051" lon="0.645014">
        <ele>2117.7</ele>
        <time>2020-05-22T13:41:37Z</time>
      </trkpt>
      <trkpt lat="42.703048" lon="0.645136">
        <ele>2115.9</ele>
        <time>2020-05-22T13:41:47Z</time>
      </trkpt>
      <trkpt lat="42.703026" lon="0.645271">
        <ele>2115.1</ele>
        <time>2020-05-22T13:41:56Z</time>
      </trkpt>
      <trkpt lat="42.703044" lon="0.645321">
        <ele>2112.2</ele>
        <time>2020-05-22T13:42:07Z</time>
      </trkpt>
      <trkpt lat="42.703095" lon="0.645213">
        <ele>2110.3</ele>
        <time>2020-05-22T13:42:15Z</time>
      </trkpt>
      <trkpt lat="42.703140" lon="0.645088">
        <ele>2108.5</ele>
        <time>2020-05-22T13:42:25Z</time>
      </trkpt>
      <trkpt lat="42.703168" lon="0.645150">
        <ele>2107.6</ele>
        <time>2020-05-22T13:42:35Z</time>
      </trkpt>
      <trkpt lat="42.703144" lon="0.645281">
        <ele>2105.9</ele>
        <time>2020-05-22T13:42:44Z</time>
      </trkpt>
      <trkpt lat="42.703117" lon="0.645417">
        <ele>2104.1</ele>
        <time>2020-05-22T13:42:53Z</time>
      </trkpt>
      <trkpt lat="42.703179" lon="0.645374">
        <ele>2102.4</ele>
        <time>2020-05-22T13:43:02Z</time>
      </trkpt>
      <trkpt lat="42.703243" lon="0.645253">
        <ele>2100.5</ele>
        <time>2020-05-22T13:43:10Z</time>
      </trkpt>
      <trkpt lat="42.703297" lon="0.645137">
        <ele>2099.5</ele>
        <time>2020-05-22T13:43:18Z</time>
      </trkpt>
      <trkpt lat="42.703329" lon="0.645136">
        <ele>2097.7</ele>
        <time>2020-05-22T13:43:27Z</time>
      </trkpt>
      <trkpt lat="42.703312" lon="0.645272">
        <ele>2096.0</ele>
        <time>2020-05-22T13:43:36Z</time>
      </trkpt>
      <trkpt lat="42.703300" lon="0.645403">
        <ele>2094.2</ele>
        <time>2020-05-22T13:43:45Z</time>
      </trkpt>
      <trkpt lat="42.703290" lon="0.645540">
        <ele>2092.5</ele>
        <time>2020-05-22T13:43:54Z</time>
      </trkpt>
      <trkpt lat="42.703348" lon="0.645628">
        <ele>2089.8</ele>
        <time>2020-05-22T13:44:06Z</time>
      </trkpt>
      <trkpt lat="42.703387" lon="0.645559">
        <ele>2087.1</ele>
        <time>2020-05-22T13:44:17Z</time>
      </trkpt>
      <trkpt lat="42.703415" lon="0.645438">
        <ele>2086.2</ele>
        <time>2020-05-22T13:44:25Z</time>
      </trkpt>
      <trkpt lat="42.703438" lon="0.645317">
        <ele>2083.4</ele>
        <time>2020-05-22T13:44:34Z</time>
      </trkpt>
      <trkpt lat="42.703527" lon="0.645247">
        <ele>2081.6</ele>
        <time>2020-05-22T13:44:43Z</time>
      </trkpt>
      <trkpt lat="42.703588" lon="0.645149">
        <ele>2079.7</ele>
        <time>2020-05-22T13:44:52Z</time>
      </trkpt>
      <trkpt lat="42.703643" lon="0.645177">
        <ele>2077.7</ele>
        <time>2020-05-22T13:45:02Z</time>
      </trkpt>
      <trkpt lat="42.703614" lon="0.645295">
        <ele>2076.0</ele>
        <time>2020-05-22T13:45:11Z</time>
      </trkpt>
      <trkpt lat="42.703618" lon="0.645399">
        <ele>2074.3</ele>
        <time>2020-05-22T13:45:20Z</time>
      </trkpt>
      <trkpt lat="42.703694" lon="0.645317">
        <ele>2071.4</ele>
        <time>2020-05-22T13:45:29Z</time>
      </trkpt>
      <trkpt lat="42.703757" lon="0.645235">
        <ele>2069.1</ele>
        <time>2020-05-22T13:45:39Z</time>
      </trkpt>
      <trkpt lat="42.703757" lon="0.645362">
        <ele>2067.3</ele>
        <time>2020-05-22T13:45:48Z</time>
      </trkpt>
      <trkpt lat="42.703785" lon="0.645422">
        <ele>2065.4</ele>
        <time>2020-05-22T13:45:56Z</time>
      </trkpt>
      <trkpt lat="42.703805" lon="0.645294">
        <ele>2064.6</ele>
        <time>2020-05-22T13:46:04Z</time>
      </trkpt>
      <trkpt lat="42.703848" lon="0.645377">
        <ele>2062.8</ele>
        <time>2020-05-22T13:46:14Z</time>
      </trkpt>
      <trkpt lat="42.703854" lon="0.645504">
        <ele>2060.0</ele>
        <time>2020-05-22T13:46:22Z</time>
      </trkpt>
      <trkpt lat="42.703835" lon="0.645634">
        <ele>2057.2</ele>
        <time>2020-05-22T13:46:31Z</time>
      </trkpt>
      <trkpt lat="42.703829" lon="0.645756">
        <ele>2055.4</ele>
        <time>2020-05-22T13:46:40Z</time>
      </trkpt>
      <trkpt lat="42.703825" lon="0.645880">
        <ele>2053.8</ele>
        <time>2020-05-22T13:46:48Z</time>
      </trkpt>
      <trkpt lat="42.703850" lon="0.646013">
        <ele>2051.9</ele>
        <time>2020-05-22T13:46:55Z</time>
      </trkpt>
      <trkpt lat="42.703881" lon="0.646141">
        <ele>2051.0</ele>
        <time>2020-05-22T13:47:03Z</time>
      </trkpt>
      <trkpt lat="42.703922" lon="0.646251">
        <ele>2049.0</ele>
        <time>2020-05-22T13:47:10Z</time>
      </trkpt>
      <trkpt lat="42.703938" lon="0.646371">
        <ele>2049.0</ele>
        <time>2020-05-22T13:47:18Z</time>
      </trkpt>
      <trkpt lat="42.703950" lon="0.646499">
        <ele>2049.1</ele>
        <time>2020-05-22T13:47:26Z</time>
      </trkpt>
      <trkpt lat="42.703971" lon="0.646612">
        <ele>2048.3</ele>
        <time>2020-05-22T13:47:34Z</time>
      </trkpt>
      <trkpt lat="42.703985" lon="0.646705">
        <ele>2045.6</ele>
        <time>2020-05-22T13:47:58Z</time>
      </trkpt>
      <trkpt lat="42.703969" lon="0.646779">
        <ele>2045.4</ele>
        <time>2020-05-22T13:48:35Z</time>
      </trkpt>
      <trkpt lat="42.703891" lon="0.646894">
        <ele>2043.4</ele>
        <time>2020-05-22T13:48:45Z</time>
      </trkpt>
      <trkpt lat="42.703806" lon="0.647018">
        <ele>2042.4</ele>
        <time>2020-05-22T13:48:58Z</time>
      </trkpt>
      <trkpt lat="42.703809" lon="0.647159">
        <ele>2040.6</ele>
        <time>2020-05-22T13:49:15Z</time>
      </trkpt>
      <trkpt lat="42.703804" lon="0.647306">
        <ele>2037.4</ele>
        <time>2020-05-22T13:49:27Z</time>
      </trkpt>
      <trkpt lat="42.703829" lon="0.647498">
        <ele>2035.4</ele>
        <time>2020-05-22T13:49:40Z</time>
      </trkpt>
      <trkpt lat="42.703852" lon="0.647637">
        <ele>2034.4</ele>
        <time>2020-05-22T13:49:49Z</time>
      </trkpt>
      <trkpt lat="42.703917" lon="0.647719">
        <ele>2031.2</ele>
        <time>2020-05-22T13:49:58Z</time>
      </trkpt>
      <trkpt lat="42.703973" lon="0.647824">
        <ele>2030.1</ele>
        <time>2020-05-22T13:50:07Z</time>
      </trkpt>
      <trkpt lat="42.704039" lon="0.647793">
        <ele>2027.1</ele>
        <time>2020-05-22T13:50:16Z</time>
      </trkpt>
      <trkpt lat="42.704045" lon="0.647656">
        <ele>2026.0</ele>
        <time>2020-05-22T13:50:25Z</time>
      </trkpt>
      <trkpt lat="42.704110" lon="0.647639">
        <ele>2023.0</ele>
        <time>2020-05-22T13:50:34Z</time>
      </trkpt>
      <trkpt lat="42.704159" lon="0.647775">
        <ele>2021.2</ele>
        <time>2020-05-22T13:50:44Z</time>
      </trkpt>
      <trkpt lat="42.704195" lon="0.647830">
        <ele>2018.3</ele>
        <time>2020-05-22T13:50:53Z</time>
      </trkpt>
      <trkpt lat="42.704239" lon="0.647714">
        <ele>2016.2</ele>
        <time>2020-05-22T13:51:03Z</time>
      </trkpt>
      <trkpt lat="42.704309" lon="0.647758">
        <ele>2011.8</ele>
        <time>2020-05-22T13:51:19Z</time>
      </trkpt>
      <trkpt lat="42.704352" lon="0.647761">
        <ele>2009.1</ele>
        <time>2020-05-22T13:51:28Z</time>
      </trkpt>
      <trkpt lat="42.704370" lon="0.647698">
        <ele>2007.5</ele>
        <time>2020-05-22T13:51:38Z</time>
      </trkpt>
      <trkpt lat="42.704435" lon="0.647689">
        <ele>2003.7</ele>
        <time>2020-05-22T13:51:50Z</time>
      </trkpt>
      <trkpt lat="42.704486" lon="0.647569">
        <ele>2000.8</ele>
        <time>2020-05-22T13:52:01Z</time>
      </trkpt>
      <trkpt lat="42.704537" lon="0.647529">
        <ele>1996.9</ele>
        <time>2020-05-22T13:52:13Z</time>
      </trkpt>
      <trkpt lat="42.704611" lon="0.647611">
        <ele>1993.1</ele>
        <time>2020-05-22T13:52:27Z</time>
      </trkpt>
      <trkpt lat="42.704670" lon="0.647648">
        <ele>1988.3</ele>
        <time>2020-05-22T13:52:41Z</time>
      </trkpt>
      <trkpt lat="42.704683" lon="0.647753">
        <ele>1986.7</ele>
        <time>2020-05-22T13:52:54Z</time>
      </trkpt>
      <trkpt lat="42.704712" lon="0.647642">
        <ele>1984.0</ele>
        <time>2020-05-22T13:53:03Z</time>
      </trkpt>
      <trkpt lat="42.704726" lon="0.647512">
        <ele>1983.1</ele>
        <time>2020-05-22T13:53:11Z</time>
      </trkpt>
      <trkpt lat="42.704757" lon="0.647487">
        <ele>1981.1</ele>
        <time>2020-05-22T13:53:21Z</time>
      </trkpt>
      <trkpt lat="42.704787" lon="0.647615">
        <ele>1977.6</ele>
        <time>2020-05-22T13:53:34Z</time>
      </trkpt>
      <trkpt lat="42.704844" lon="0.647724">
        <ele>1973.9</ele>
        <time>2020-05-22T13:53:53Z</time>
      </trkpt>
      <trkpt lat="42.704917" lon="0.647648">
        <ele>1971.2</ele>
        <time>2020-05-22T13:54:03Z</time>
      </trkpt>
      <trkpt lat="42.704949" lon="0.647516">
        <ele>1969.0</ele>
        <time>2020-05-22T13:54:12Z</time>
      </trkpt>
      <trkpt lat="42.704924" lon="0.647395">
        <ele>1967.9</ele>
        <time>2020-05-22T13:54:24Z</time>
      </trkpt>
      <trkpt lat="42.704986" lon="0.647284">
        <ele>1966.9</ele>
        <time>2020-05-22T13:54:33Z</time>
      </trkpt>
      <trkpt lat="42.705019" lon="0.647370">
        <ele>1964.0</ele>
        <time>2020-05-22T13:54:47Z</time>
      </trkpt>
      <trkpt lat="42.705024" lon="0.647506">
        <ele>1962.1</ele>
        <time>2020-05-22T13:54:57Z</time>
      </trkpt>
      <trkpt lat="42.705036" lon="0.647674">
        <ele>1961.0</ele>
        <time>2020-05-22T13:55:07Z</time>
      </trkpt>
      <trkpt lat="42.705013" lon="0.647923">
        <ele>1958.2</ele>
        <time>2020-05-22T13:55:23Z</time>
      </trkpt>
      <trkpt lat="42.705055" lon="0.648027">
        <ele>1954.4</ele>
        <time>2020-05-22T13:55:39Z</time>
      </trkpt>
      <trkpt lat="42.705156" lon="0.648061">
        <ele>1953.0</ele>
        <time>2020-05-22T13:55:49Z</time>
      </trkpt>
      <trkpt lat="42.705258" lon="0.648127">
        <ele>1950.4</ele>
        <time>2020-05-22T13:55:58Z</time>
      </trkpt>
      <trkpt lat="42.705330" lon="0.648242">
        <ele>1950.3</ele>
        <time>2020-05-22T13:56:07Z</time>
      </trkpt>
      <trkpt lat="42.705421" lon="0.648324">
        <ele>1949.5</ele>
        <time>2020-05-22T13:56:19Z</time>
      </trkpt>
      <trkpt lat="42.705451" lon="0.648230">
        <ele>1946.6</ele>
        <time>2020-05-22T13:56:28Z</time>
      </trkpt>
      <trkpt lat="42.705437" lon="0.648093">
        <ele>1942.7</ele>
        <time>2020-05-22T13:56:44Z</time>
      </trkpt>
      <trkpt lat="42.705362" lon="0.647947">
        <ele>1940.9</ele>
        <time>2020-05-22T13:56:54Z</time>
      </trkpt>
      <trkpt lat="42.705306" lon="0.647805">
        <ele>1940.1</ele>
        <time>2020-05-22T13:57:04Z</time>
      </trkpt>
      <trkpt lat="42.705343" lon="0.647686">
        <ele>1937.4</ele>
        <time>2020-05-22T13:57:15Z</time>
      </trkpt>
      <trkpt lat="42.705412" lon="0.647587">
        <ele>1934.8</ele>
        <time>2020-05-22T13:57:24Z</time>
      </trkpt>
      <trkpt lat="42.705475" lon="0.647482">
        <ele>1932.3</ele>
        <time>2020-05-22T13:57:34Z</time>
      </trkpt>
      <trkpt lat="42.705534" lon="0.647367">
        <ele>1929.8</ele>
        <time>2020-05-22T13:57:43Z</time>
      </trkpt>
      <trkpt lat="42.705584" lon="0.647234">
        <ele>1928.9</ele>
        <time>2020-05-22T13:57:52Z</time>
      </trkpt>
      <trkpt lat="42.705621" lon="0.647317">
        <ele>1926.2</ele>
        <time>2020-05-22T13:58:04Z</time>
      </trkpt>
      <trkpt lat="42.705627" lon="0.647490">
        <ele>1923.6</ele>
        <time>2020-05-22T13:58:14Z</time>
      </trkpt>
      <trkpt lat="42.705612" lon="0.647659">
        <ele>1920.9</ele>
        <time>2020-05-22T13:58:24Z</time>
      </trkpt>
      <trkpt lat="42.705617" lon="0.647796">
        <ele>1919.2</ele>
        <time>2020-05-22T13:58:34Z</time>
      </trkpt>
      <trkpt lat="42.705709" lon="0.647891">
        <ele>1915.5</ele>
        <time>2020-05-22T13:58:49Z</time>
      </trkpt>
      <trkpt lat="42.705793" lon="0.647988">
        <ele>1912.9</ele>
        <time>2020-05-22T13:59:01Z</time>
      </trkpt>
      <trkpt lat="42.705794" lon="0.647884">
        <ele>1909.3</ele>
        <time>2020-05-22T13:59:14Z</time>
      </trkpt>
      <trkpt lat="42.705779" lon="0.647763">
        <ele>1907.5</ele>
        <time>2020-05-22T13:59:25Z</time>
      </trkpt>
      <trkpt lat="42.705860" lon="0.647798">
        <ele>1904.7</ele>
        <time>2020-05-22T13:59:39Z</time>
      </trkpt>
      <trkpt lat="42.705939" lon="0.647897">
        <ele>1902.0</ele>
        <time>2020-05-22T13:59:51Z</time>
      </trkpt>
      <trkpt lat="42.705925" lon="0.647771">
        <ele>1898.8</ele>
        <time>2020-05-22T14:00:02Z</time>
      </trkpt>
      <trkpt lat="42.705960" lon="0.647759">
        <ele>1896.2</ele>
        <time>2020-05-22T14:00:15Z</time>
      </trkpt>
      <trkpt lat="42.705969" lon="0.647679">
        <ele>1894.3</ele>
        <time>2020-05-22T14:00:27Z</time>
      </trkpt>
      <trkpt lat="42.705969" lon="0.647545">
        <ele>1892.3</ele>
        <time>2020-05-22T14:00:38Z</time>
      </trkpt>
      <trkpt lat="42.705982" lon="0.647387">
        <ele>1889.7</ele>
        <time>2020-05-22T14:00:49Z</time>
      </trkpt>
      <trkpt lat="42.706057" lon="0.647347">
        <ele>1885.8</ele>
        <time>2020-05-22T14:01:02Z</time>
      </trkpt>
      <trkpt lat="42.706107" lon="0.647400">
        <ele>1882.3</ele>
        <time>2020-05-22T14:01:16Z</time>
      </trkpt>
      <trkpt lat="42.706123" lon="0.647250">
        <ele>1880.4</ele>
        <time>2020-05-22T14:01:25Z</time>
      </trkpt>
      <trkpt lat="42.706204" lon="0.647250">
        <ele>1876.6</ele>
        <time>2020-05-22T14:01:37Z</time>
      </trkpt>
      <trkpt lat="42.706175" lon="0.647409">
        <ele>1874.8</ele>
        <time>2020-05-22T14:01:48Z</time>
      </trkpt>
      <trkpt lat="42.706216" lon="0.647529">
        <ele>1872.7</ele>
        <time>2020-05-22T14:02:01Z</time>
      </trkpt>
      <trkpt lat="42.706255" lon="0.647490">
        <ele>1868.4</ele>
        <time>2020-05-22T14:02:18Z</time>
      </trkpt>
      <trkpt lat="42.706336" lon="0.647523">
        <ele>1864.7</ele>
        <time>2020-05-22T14:02:32Z</time>
      </trkpt>
      <trkpt lat="42.706384" lon="0.647592">
        <ele>1861.2</ele>
        <time>2020-05-22T14:03:38Z</time>
      </trkpt>
      <trkpt lat="42.706446" lon="0.647639">
        <ele>1858.2</ele>
        <time>2020-05-22T14:03:56Z</time>
      </trkpt>
      <trkpt lat="42.706458" lon="0.647796">
        <ele>1858.1</ele>
        <time>2020-05-22T14:04:10Z</time>
      </trkpt>
      <trkpt lat="42.706552" lon="0.647852">
        <ele>1856.3</ele>
        <time>2020-05-22T14:04:23Z</time>
      </trkpt>
      <trkpt lat="42.706601" lon="0.647979">
        <ele>1851.5</ele>
        <time>2020-05-22T14:04:38Z</time>
      </trkpt>
      <trkpt lat="42.706658" lon="0.647999">
        <ele>1847.6</ele>
        <time>2020-05-22T14:04:54Z</time>
      </trkpt>
      <trkpt lat="42.706734" lon="0.648076">
        <ele>1843.4</ele>
        <time>2020-05-22T14:05:11Z</time>
      </trkpt>
      <trkpt lat="42.706846" lon="0.648027">
        <ele>1838.2</ele>
        <time>2020-05-22T14:05:26Z</time>
      </trkpt>
      <trkpt lat="42.706885" lon="0.647903">
        <ele>1835.5</ele>
        <time>2020-05-22T14:05:40Z</time>
      </trkpt>
      <trkpt lat="42.706941" lon="0.647802">
        <ele>1833.4</ele>
        <time>2020-05-22T14:05:50Z</time>
      </trkpt>
      <trkpt lat="42.706982" lon="0.647683">
        <ele>1831.4</ele>
        <time>2020-05-22T14:06:00Z</time>
      </trkpt>
      <trkpt lat="42.706998" lon="0.647604">
        <ele>1829.4</ele>
        <time>2020-05-22T14:06:13Z</time>
      </trkpt>
      <trkpt lat="42.707022" lon="0.647762">
        <ele>1827.4</ele>
        <time>2020-05-22T14:06:25Z</time>
      </trkpt>
      <trkpt lat="42.707046" lon="0.647918">
        <ele>1825.5</ele>
        <time>2020-05-22T14:06:38Z</time>
      </trkpt>
      <trkpt lat="42.707137" lon="0.648005">
        <ele>1823.7</ele>
        <time>2020-05-22T14:06:51Z</time>
      </trkpt>
      <trkpt lat="42.707221" lon="0.647981">
        <ele>1820.8</ele>
        <time>2020-05-22T14:07:03Z</time>
      </trkpt>
      <trkpt lat="42.707172" lon="0.647830">
        <ele>1818.9</ele>
        <time>2020-05-22T14:07:15Z</time>
      </trkpt>
      <trkpt lat="42.707164" lon="0.647692">
        <ele>1815.9</ele>
        <time>2020-05-22T14:07:28Z</time>
      </trkpt>
      <trkpt lat="42.707196" lon="0.647561">
        <ele>1814.1</ele>
        <time>2020-05-22T14:07:39Z</time>
      </trkpt>
      <trkpt lat="42.707254" lon="0.647572">
        <ele>1811.5</ele>
        <time>2020-05-22T14:07:50Z</time>
      </trkpt>
      <trkpt lat="42.707309" lon="0.647695">
        <ele>1809.5</ele>
        <time>2020-05-22T14:08:01Z</time>
      </trkpt>
      <trkpt lat="42.707401" lon="0.647747">
        <ele>1807.5</ele>
        <time>2020-05-22T14:08:11Z</time>
      </trkpt>
      <trkpt lat="42.707492" lon="0.647772">
        <ele>1804.8</ele>
        <time>2020-05-22T14:08:22Z</time>
      </trkpt>
      <trkpt lat="42.707461" lon="0.647633">
        <ele>1802.1</ele>
        <time>2020-05-22T14:08:35Z</time>
      </trkpt>
      <trkpt lat="42.707453" lon="0.647484">
        <ele>1800.3</ele>
        <time>2020-05-22T14:08:46Z</time>
      </trkpt>
      <trkpt lat="42.707454" lon="0.647336">
        <ele>1797.5</ele>
        <time>2020-05-22T14:08:57Z</time>
      </trkpt>
      <trkpt lat="42.707504" lon="0.647298">
        <ele>1795.6</ele>
        <time>2020-05-22T14:09:09Z</time>
      </trkpt>
      <trkpt lat="42.707573" lon="0.647401">
        <ele>1793.8</ele>
        <time>2020-05-22T14:09:18Z</time>
      </trkpt>
      <trkpt lat="42.707652" lon="0.647474">
        <ele>1792.0</ele>
        <time>2020-05-22T14:09:28Z</time>
      </trkpt>
      <trkpt lat="42.707738" lon="0.647542">
        <ele>1789.1</ele>
        <time>2020-05-22T14:09:39Z</time>
      </trkpt>
      <trkpt lat="42.707734" lon="0.647426">
        <ele>1787.3</ele>
        <time>2020-05-22T14:09:49Z</time>
      </trkpt>
      <trkpt lat="42.707704" lon="0.647284">
        <ele>1786.4</ele>
        <time>2020-05-22T14:09:59Z</time>
      </trkpt>
      <trkpt lat="42.707678" lon="0.647153">
        <ele>1785.6</ele>
        <time>2020-05-22T14:10:07Z</time>
      </trkpt>
      <trkpt lat="42.707655" lon="0.647034">
        <ele>1784.5</ele>
        <time>2020-05-22T14:10:14Z</time>
      </trkpt>
      <trkpt lat="42.707658" lon="0.646911">
        <ele>1782.7</ele>
        <time>2020-05-22T14:10:22Z</time>
      </trkpt>
      <trkpt lat="42.707639" lon="0.646775">
        <ele>1780.8</ele>
        <time>2020-05-22T14:10:31Z</time>
      </trkpt>
      <trkpt lat="42.707602" lon="0.646623">
        <ele>1779.2</ele>
        <time>2020-05-22T14:10:40Z</time>
      </trkpt>
      <trkpt lat="42.707575" lon="0.646484">
        <ele>1778.4</ele>
        <time>2020-05-22T14:10:49Z</time>
      </trkpt>
      <trkpt lat="42.707542" lon="0.646333">
        <ele>1776.5</ele>
        <time>2020-05-22T14:11:06Z</time>
      </trkpt>
      <trkpt lat="42.707624" lon="0.646284">
        <ele>1775.6</ele>
        <time>2020-05-22T14:11:19Z</time>
      </trkpt>
      <trkpt lat="42.707690" lon="0.646236">
        <ele>1774.7</ele>
        <time>2020-05-22T14:11:37Z</time>
      </trkpt>
      <trkpt lat="42.707787" lon="0.646200">
        <ele>1772.8</ele>
        <time>2020-05-22T14:11:46Z</time>
      </trkpt>
      <trkpt lat="42.707881" lon="0.646156">
        <ele>1771.1</ele>
        <time>2020-05-22T14:11:55Z</time>
      </trkpt>
      <trkpt lat="42.707984" lon="0.646142">
        <ele>1769.3</ele>
        <time>2020-05-22T14:12:03Z</time>
      </trkpt>
      <trkpt lat="42.708106" lon="0.646121">
        <ele>1768.6</ele>
        <time>2020-05-22T14:12:12Z</time>
      </trkpt>
      <trkpt lat="42.708224" lon="0.646159">
        <ele>1766.7</ele>
        <time>2020-05-22T14:12:20Z</time>
      </trkpt>
      <trkpt lat="42.708323" lon="0.646185">
        <ele>1766.6</ele>
        <time>2020-05-22T14:12:27Z</time>
      </trkpt>
      <trkpt lat="42.708430" lon="0.646231">
        <ele>1765.7</ele>
        <time>2020-05-22T14:12:37Z</time>
      </trkpt>
      <trkpt lat="42.708522" lon="0.646230">
        <ele>1763.8</ele>
        <time>2020-05-22T14:12:47Z</time>
      </trkpt>
      <trkpt lat="42.708625" lon="0.646200">
        <ele>1760.7</ele>
        <time>2020-05-22T14:12:57Z</time>
      </trkpt>
      <trkpt lat="42.708676" lon="0.646095">
        <ele>1759.0</ele>
        <time>2020-05-22T14:13:06Z</time>
      </trkpt>
      <trkpt lat="42.708702" lon="0.645970">
        <ele>1757.3</ele>
        <time>2020-05-22T14:13:14Z</time>
      </trkpt>
      <trkpt lat="42.708773" lon="0.645870">
        <ele>1755.4</ele>
        <time>2020-05-22T14:13:23Z</time>
      </trkpt>
      <trkpt lat="42.708879" lon="0.645818">
        <ele>1752.6</ele>
        <time>2020-05-22T14:13:32Z</time>
      </trkpt>
      <trkpt lat="42.708897" lon="0.645891">
        <ele>1748.8</ele>
        <time>2020-05-22T14:13:45Z</time>
      </trkpt>
      <trkpt lat="42.708945" lon="0.645985">
        <ele>1744.4</ele>
        <time>2020-05-22T14:13:55Z</time>
      </trkpt>
      <trkpt lat="42.709004" lon="0.646090">
        <ele>1740.7</ele>
        <time>2020-05-22T14:14:04Z</time>
      </trkpt>
      <trkpt lat="42.709102" lon="0.646135">
        <ele>1735.7</ele>
        <time>2020-05-22T14:14:14Z</time>
      </trkpt>
      <trkpt lat="42.709198" lon="0.646168">
        <ele>1733.0</ele>
        <time>2020-05-22T14:14:24Z</time>
      </trkpt>
      <trkpt lat="42.709302" lon="0.646223">
        <ele>1730.0</ele>
        <time>2020-05-22T14:14:33Z</time>
      </trkpt>
      <trkpt lat="42.709392" lon="0.646266">
        <ele>1728.2</ele>
        <time>2020-05-22T14:14:42Z</time>
      </trkpt>
      <trkpt lat="42.709482" lon="0.646276">
        <ele>1726.4</ele>
        <time>2020-05-22T14:14:51Z</time>
      </trkpt>
      <trkpt lat="42.709581" lon="0.646297">
        <ele>1722.6</ele>
        <time>2020-05-22T14:15:00Z</time>
      </trkpt>
      <trkpt lat="42.709670" lon="0.646340">
        <ele>1719.9</ele>
        <time>2020-05-22T14:15:10Z</time>
      </trkpt>
      <trkpt lat="42.709764" lon="0.646360">
        <ele>1718.3</ele>
        <time>2020-05-22T14:15:19Z</time>
      </trkpt>
      <trkpt lat="42.709859" lon="0.646385">
        <ele>1715.7</ele>
        <time>2020-05-22T14:15:27Z</time>
      </trkpt>
      <trkpt lat="42.709935" lon="0.646338">
        <ele>1714.7</ele>
        <time>2020-05-22T14:15:35Z</time>
      </trkpt>
      <trkpt lat="42.709998" lon="0.646260">
        <ele>1712.1</ele>
        <time>2020-05-22T14:15:45Z</time>
      </trkpt>
      <trkpt lat="42.710101" lon="0.646319">
        <ele>1709.5</ele>
        <time>2020-05-22T14:15:54Z</time>
      </trkpt>
      <trkpt lat="42.710202" lon="0.646342">
        <ele>1707.6</ele>
        <time>2020-05-22T14:16:02Z</time>
      </trkpt>
      <trkpt lat="42.710303" lon="0.646369">
        <ele>1706.7</ele>
        <time>2020-05-22T14:16:11Z</time>
      </trkpt>
      <trkpt lat="42.710391" lon="0.646427">
        <ele>1704.3</ele>
        <time>2020-05-22T14:16:20Z</time>
      </trkpt>
      <trkpt lat="42.710310" lon="0.646444">
        <ele>1701.6</ele>
        <time>2020-05-22T14:16:33Z</time>
      </trkpt>
      <trkpt lat="42.710185" lon="0.646455">
        <ele>1699.9</ele>
        <time>2020-05-22T14:16:42Z</time>
      </trkpt>
      <trkpt lat="42.710155" lon="0.646532">
        <ele>1697.5</ele>
        <time>2020-05-22T14:16:52Z</time>
      </trkpt>
      <trkpt lat="42.710251" lon="0.646612">
        <ele>1693.7</ele>
        <time>2020-05-22T14:17:01Z</time>
      </trkpt>
      <trkpt lat="42.710351" lon="0.646663">
        <ele>1691.9</ele>
        <time>2020-05-22T14:17:10Z</time>
      </trkpt>
      <trkpt lat="42.710473" lon="0.646694">
        <ele>1690.1</ele>
        <time>2020-05-22T14:17:20Z</time>
      </trkpt>
      <trkpt lat="42.710565" lon="0.646723">
        <ele>1689.3</ele>
        <time>2020-05-22T14:17:29Z</time>
      </trkpt>
      <trkpt lat="42.710548" lon="0.646792">
        <ele>1686.7</ele>
        <time>2020-05-22T14:17:46Z</time>
      </trkpt>
      <trkpt lat="42.710445" lon="0.646774">
        <ele>1684.0</ele>
        <time>2020-05-22T14:17:56Z</time>
      </trkpt>
      <trkpt lat="42.710305" lon="0.646820">
        <ele>1682.4</ele>
        <time>2020-05-22T14:18:05Z</time>
      </trkpt>
      <trkpt lat="42.710266" lon="0.646902">
        <ele>1680.6</ele>
        <time>2020-05-22T14:18:18Z</time>
      </trkpt>
      <trkpt lat="42.710353" lon="0.646953">
        <ele>1677.7</ele>
        <time>2020-05-22T14:18:27Z</time>
      </trkpt>
      <trkpt lat="42.710442" lon="0.646996">
        <ele>1675.7</ele>
        <time>2020-05-22T14:18:35Z</time>
      </trkpt>
      <trkpt lat="42.710529" lon="0.647060">
        <ele>1674.1</ele>
        <time>2020-05-22T14:18:42Z</time>
      </trkpt>
      <trkpt lat="42.710579" lon="0.647163">
        <ele>1672.2</ele>
        <time>2020-05-22T14:18:51Z</time>
      </trkpt>
      <trkpt lat="42.710630" lon="0.647247">
        <ele>1668.7</ele>
        <time>2020-05-22T14:19:01Z</time>
      </trkpt>
      <trkpt lat="42.710528" lon="0.647234">
        <ele>1666.8</ele>
        <time>2020-05-22T14:19:13Z</time>
      </trkpt>
      <trkpt lat="42.710411" lon="0.647195">
        <ele>1665.1</ele>
        <time>2020-05-22T14:19:22Z</time>
      </trkpt>
      <trkpt lat="42.710478" lon="0.647278">
        <ele>1662.4</ele>
        <time>2020-05-22T14:19:32Z</time>
      </trkpt>
      <trkpt lat="42.710568" lon="0.647361">
        <ele>1660.7</ele>
        <time>2020-05-22T14:19:40Z</time>
      </trkpt>
      <trkpt lat="42.710666" lon="0.647415">
        <ele>1659.7</ele>
        <time>2020-05-22T14:19:48Z</time>
      </trkpt>
      <trkpt lat="42.710764" lon="0.647422">
        <ele>1657.8</ele>
        <time>2020-05-22T14:19:56Z</time>
      </trkpt>
      <trkpt lat="42.710865" lon="0.647443">
        <ele>1657.0</ele>
        <time>2020-05-22T14:20:04Z</time>
      </trkpt>
      <trkpt lat="42.710949" lon="0.647522">
        <ele>1654.3</ele>
        <time>2020-05-22T14:20:12Z</time>
      </trkpt>
      <trkpt lat="42.711028" lon="0.647588">
        <ele>1652.7</ele>
        <time>2020-05-22T14:20:20Z</time>
      </trkpt>
      <trkpt lat="42.711104" lon="0.647669">
        <ele>1649.2</ele>
        <time>2020-05-22T14:20:29Z</time>
      </trkpt>
      <trkpt lat="42.711173" lon="0.647730">
        <ele>1645.8</ele>
        <time>2020-05-22T14:20:39Z</time>
      </trkpt>
      <trkpt lat="42.711176" lon="0.647803">
        <ele>1642.0</ele>
        <time>2020-05-22T14:20:53Z</time>
      </trkpt>
      <trkpt lat="42.711216" lon="0.647870">
        <ele>1638.0</ele>
        <time>2020-05-22T14:21:06Z</time>
      </trkpt>
      <trkpt lat="42.711259" lon="0.647907">
        <ele>1635.4</ele>
        <time>2020-05-22T14:21:17Z</time>
      </trkpt>
      <trkpt lat="42.711162" lon="0.647956">
        <ele>1632.6</ele>
        <time>2020-05-22T14:21:30Z</time>
      </trkpt>
      <trkpt lat="42.711252" lon="0.648001">
        <ele>1628.8</ele>
        <time>2020-05-22T14:21:39Z</time>
      </trkpt>
      <trkpt lat="42.711365" lon="0.647995">
        <ele>1625.9</ele>
        <time>2020-05-22T14:21:50Z</time>
      </trkpt>
      <trkpt lat="42.711318" lon="0.648077">
        <ele>1624.3</ele>
        <time>2020-05-22T14:22:01Z</time>
      </trkpt>
      <trkpt lat="42.711204" lon="0.648128">
        <ele>1621.6</ele>
        <time>2020-05-22T14:22:12Z</time>
      </trkpt>
      <trkpt lat="42.711238" lon="0.648232">
        <ele>1617.9</ele>
        <time>2020-05-22T14:22:22Z</time>
      </trkpt>
      <trkpt lat="42.711335" lon="0.648280">
        <ele>1614.4</ele>
        <time>2020-05-22T14:22:36Z</time>
      </trkpt>
      <trkpt lat="42.711435" lon="0.648315">
        <ele>1612.5</ele>
        <time>2020-05-22T14:22:45Z</time>
      </trkpt>
      <trkpt lat="42.711410" lon="0.648406">
        <ele>1608.9</ele>
        <time>2020-05-22T14:22:59Z</time>
      </trkpt>
      <trkpt lat="42.711372" lon="0.648512">
        <ele>1604.2</ele>
        <time>2020-05-22T14:23:12Z</time>
      </trkpt>
      <trkpt lat="42.711477" lon="0.648536">
        <ele>1602.3</ele>
        <time>2020-05-22T14:23:22Z</time>
      </trkpt>
      <trkpt lat="42.711567" lon="0.648527">
        <ele>1601.6</ele>
        <time>2020-05-22T14:23:40Z</time>
      </trkpt>
      <trkpt lat="42.711639" lon="0.648514">
        <ele>1599.7</ele>
        <time>2020-05-22T14:23:49Z</time>
      </trkpt>
      <trkpt lat="42.711711" lon="0.648445">
        <ele>1597.7</ele>
        <time>2020-05-22T14:23:58Z</time>
      </trkpt>
      <trkpt lat="42.711804" lon="0.648447">
        <ele>1595.0</ele>
        <time>2020-05-22T14:24:22Z</time>
      </trkpt>
      <trkpt lat="42.711903" lon="0.648469">
        <ele>1592.9</ele>
        <time>2020-05-22T14:24:30Z</time>
      </trkpt>
      <trkpt lat="42.711970" lon="0.648561">
        <ele>1591.0</ele>
        <time>2020-05-22T14:24:39Z</time>
      </trkpt>
      <trkpt lat="42.712040" lon="0.648654">
        <ele>1589.2</ele>
        <time>2020-05-22T14:24:48Z</time>
      </trkpt>
      <trkpt lat="42.712123" lon="0.648709">
        <ele>1587.3</ele>
        <time>2020-05-22T14:24:56Z</time>
      </trkpt>
      <trkpt lat="42.712212" lon="0.648731">
        <ele>1585.4</ele>
        <time>2020-05-22T14:25:04Z</time>
      </trkpt>
      <trkpt lat="42.712312" lon="0.648709">
        <ele>1581.6</ele>
        <time>2020-05-22T14:25:13Z</time>
      </trkpt>
      <trkpt lat="42.712407" lon="0.648696">
        <ele>1579.5</ele>
        <time>2020-05-22T14:25:22Z</time>
      </trkpt>
      <trkpt lat="42.712501" lon="0.648710">
        <ele>1576.7</ele>
        <time>2020-05-22T14:25:30Z</time>
      </trkpt>
      <trkpt lat="42.712584" lon="0.648750">
        <ele>1574.8</ele>
        <time>2020-05-22T14:25:38Z</time>
      </trkpt>
      <trkpt lat="42.712664" lon="0.648791">
        <ele>1573.1</ele>
        <time>2020-05-22T14:25:46Z</time>
      </trkpt>
      <trkpt lat="42.712758" lon="0.648831">
        <ele>1570.3</ele>
        <time>2020-05-22T14:25:54Z</time>
      </trkpt>
      <trkpt lat="42.712850" lon="0.648866">
        <ele>1568.6</ele>
        <time>2020-05-22T14:26:02Z</time>
      </trkpt>
      <trkpt lat="42.712938" lon="0.648896">
        <ele>1566.9</ele>
        <time>2020-05-22T14:26:10Z</time>
      </trkpt>
      <trkpt lat="42.712929" lon="0.648972">
        <ele>1564.1</ele>
        <time>2020-05-22T14:26:21Z</time>
      </trkpt>
      <trkpt lat="42.712956" lon="0.649089">
        <ele>1558.8</ele>
        <time>2020-05-22T14:26:33Z</time>
      </trkpt>
      <trkpt lat="42.712893" lon="0.649131">
        <ele>1557.2</ele>
        <time>2020-05-22T14:26:44Z</time>
      </trkpt>
      <trkpt lat="42.712782" lon="0.649181">
        <ele>1555.3</ele>
        <time>2020-05-22T14:26:55Z</time>
      </trkpt>
      <trkpt lat="42.712671" lon="0.649278">
        <ele>1552.4</ele>
        <time>2020-05-22T14:27:06Z</time>
      </trkpt>
      <trkpt lat="42.712564" lon="0.649473">
        <ele>1549.8</ele>
        <time>2020-05-22T14:27:16Z</time>
      </trkpt>
      <trkpt lat="42.712505" lon="0.649589">
        <ele>1547.9</ele>
        <time>2020-05-22T14:27:27Z</time>
      </trkpt>
      <trkpt lat="42.712459" lon="0.649758">
        <ele>1546.2</ele>
        <time>2020-05-22T14:27:36Z</time>
      </trkpt>
      <trkpt lat="42.712555" lon="0.649773">
        <ele>1544.2</ele>
        <time>2020-05-22T14:27:45Z</time>
      </trkpt>
      <trkpt lat="42.712663" lon="0.649689">
        <ele>1542.2</ele>
        <time>2020-05-22T14:27:55Z</time>
      </trkpt>
      <trkpt lat="42.712772" lon="0.649661">
        <ele>1539.5</ele>
        <time>2020-05-22T14:28:04Z</time>
      </trkpt>
      <trkpt lat="42.712882" lon="0.649657">
        <ele>1537.7</ele>
        <time>2020-05-22T14:28:13Z</time>
      </trkpt>
      <trkpt lat="42.712979" lon="0.649649">
        <ele>1535.9</ele>
        <time>2020-05-22T14:28:21Z</time>
      </trkpt>
      <trkpt lat="42.713030" lon="0.649724">
        <ele>1534.3</ele>
        <time>2020-05-22T14:28:31Z</time>
      </trkpt>
      <trkpt lat="42.712977" lon="0.649867">
        <ele>1531.3</ele>
        <time>2020-05-22T14:28:43Z</time>
      </trkpt>
      <trkpt lat="42.713047" lon="0.649941">
        <ele>1529.1</ele>
        <time>2020-05-22T14:28:52Z</time>
      </trkpt>
      <trkpt lat="42.713140" lon="0.649990">
        <ele>1526.4</ele>
        <time>2020-05-22T14:29:01Z</time>
      </trkpt>
      <trkpt lat="42.713210" lon="0.650072">
        <ele>1523.4</ele>
        <time>2020-05-22T14:29:11Z</time>
      </trkpt>
      <trkpt lat="42.713277" lon="0.650164">
        <ele>1521.6</ele>
        <time>2020-05-22T14:29:20Z</time>
      </trkpt>
      <trkpt lat="42.713322" lon="0.650280">
        <ele>1518.7</ele>
        <time>2020-05-22T14:29:29Z</time>
      </trkpt>
      <trkpt lat="42.713371" lon="0.650411">
        <ele>1515.7</ele>
        <time>2020-05-22T14:29:39Z</time>
      </trkpt>
      <trkpt lat="42.713436" lon="0.650513">
        <ele>1512.8</ele>
        <time>2020-05-22T14:29:49Z</time>
      </trkpt>
      <trkpt lat="42.713498" lon="0.650602">
        <ele>1510.1</ele>
        <time>2020-05-22T14:29:57Z</time>
      </trkpt>
      <trkpt lat="42.713582" lon="0.650670">
        <ele>1507.5</ele>
        <time>2020-05-22T14:30:06Z</time>
      </trkpt>
      <trkpt lat="42.713677" lon="0.650692">
        <ele>1504.7</ele>
        <time>2020-05-22T14:30:16Z</time>
      </trkpt>
      <trkpt lat="42.713768" lon="0.650727">
        <ele>1502.8</ele>
        <time>2020-05-22T14:30:25Z</time>
      </trkpt>
      <trkpt lat="42.713865" lon="0.650726">
        <ele>1499.8</ele>
        <time>2020-05-22T14:30:33Z</time>
      </trkpt>
      <trkpt lat="42.713966" lon="0.650717">
        <ele>1496.5</ele>
        <time>2020-05-22T14:30:41Z</time>
      </trkpt>
      <trkpt lat="42.714063" lon="0.650707">
        <ele>1493.8</ele>
        <time>2020-05-22T14:30:49Z</time>
      </trkpt>
      <trkpt lat="42.714152" lon="0.650673">
        <ele>1492.0</ele>
        <time>2020-05-22T14:30:58Z</time>
      </trkpt>
      <trkpt lat="42.714248" lon="0.650682">
        <ele>1489.8</ele>
        <time>2020-05-22T14:31:07Z</time>
      </trkpt>
      <trkpt lat="42.714343" lon="0.650686">
        <ele>1486.9</ele>
        <time>2020-05-22T14:31:14Z</time>
      </trkpt>
      <trkpt lat="42.714439" lon="0.650699">
        <ele>1484.8</ele>
        <time>2020-05-22T14:31:22Z</time>
      </trkpt>
      <trkpt lat="42.714528" lon="0.650747">
        <ele>1483.0</ele>
        <time>2020-05-22T14:31:30Z</time>
      </trkpt>
      <trkpt lat="42.714628" lon="0.650749">
        <ele>1482.1</ele>
        <time>2020-05-22T14:31:38Z</time>
      </trkpt>
      <trkpt lat="42.714731" lon="0.650754">
        <ele>1480.2</ele>
        <time>2020-05-22T14:31:47Z</time>
      </trkpt>
      <trkpt lat="42.714823" lon="0.650775">
        <ele>1479.3</ele>
        <time>2020-05-22T14:31:55Z</time>
      </trkpt>
      <trkpt lat="42.714901" lon="0.650829">
        <ele>1477.4</ele>
        <time>2020-05-22T14:32:02Z</time>
      </trkpt>
      <trkpt lat="42.714981" lon="0.650900">
        <ele>1475.3</ele>
        <time>2020-05-22T14:32:09Z</time>
      </trkpt>
      <trkpt lat="42.715062" lon="0.650959">
        <ele>1473.3</ele>
        <time>2020-05-22T14:32:16Z</time>
      </trkpt>
      <trkpt lat="42.715157" lon="0.651013">
        <ele>1471.4</ele>
        <time>2020-05-22T14:32:24Z</time>
      </trkpt>
      <trkpt lat="42.715241" lon="0.651063">
        <ele>1469.7</ele>
        <time>2020-05-22T14:32:32Z</time>
      </trkpt>
      <trkpt lat="42.715327" lon="0.651092">
        <ele>1466.8</ele>
        <time>2020-05-22T14:33:29Z</time>
      </trkpt>
      <trkpt lat="42.715411" lon="0.651131">
        <ele>1464.9</ele>
        <time>2020-05-22T14:33:42Z</time>
      </trkpt>
      <trkpt lat="42.715501" lon="0.651150">
        <ele>1463.1</ele>
        <time>2020-05-22T14:34:00Z</time>
      </trkpt>
      <trkpt lat="42.715594" lon="0.651191">
        <ele>1460.4</ele>
        <time>2020-05-22T14:34:09Z</time>
      </trkpt>
      <trkpt lat="42.715705" lon="0.651193">
        <ele>1458.6</ele>
        <time>2020-05-22T14:34:18Z</time>
      </trkpt>
      <trkpt lat="42.715814" lon="0.651201">
        <ele>1456.0</ele>
        <time>2020-05-22T14:34:26Z</time>
      </trkpt>
      <trkpt lat="42.715916" lon="0.651218">
        <ele>1454.1</ele>
        <time>2020-05-22T14:34:35Z</time>
      </trkpt>
      <trkpt lat="42.715978" lon="0.651287">
        <ele>1450.8</ele>
        <time>2020-05-22T14:35:34Z</time>
      </trkpt>
      <trkpt lat="42.715932" lon="0.651401">
        <ele>1448.1</ele>
        <time>2020-05-22T14:36:00Z</time>
      </trkpt>
      <trkpt lat="42.715886" lon="0.651518">
        <ele>1447.1</ele>
        <time>2020-05-22T14:36:11Z</time>
      </trkpt>
      <trkpt lat="42.715903" lon="0.651658">
        <ele>1446.1</ele>
        <time>2020-05-22T14:36:21Z</time>
      </trkpt>
      <trkpt lat="42.715922" lon="0.651791">
        <ele>1446.1</ele>
        <time>2020-05-22T14:36:32Z</time>
      </trkpt>
      <trkpt lat="42.715991" lon="0.651880">
        <ele>1445.8</ele>
        <time>2020-05-22T14:36:48Z</time>
      </trkpt>
      <trkpt lat="42.716071" lon="0.651957">
        <ele>1444.9</ele>
        <time>2020-05-22T14:36:56Z</time>
      </trkpt>
      <trkpt lat="42.716153" lon="0.652029">
        <ele>1443.9</ele>
        <time>2020-05-22T14:37:04Z</time>
      </trkpt>
      <trkpt lat="42.716238" lon="0.652097">
        <ele>1441.9</ele>
        <time>2020-05-22T14:37:12Z</time>
      </trkpt>
      <trkpt lat="42.716325" lon="0.652164">
        <ele>1440.1</ele>
        <time>2020-05-22T14:37:20Z</time>
      </trkpt>
      <trkpt lat="42.716416" lon="0.652223">
        <ele>1438.3</ele>
        <time>2020-05-22T14:37:28Z</time>
      </trkpt>
      <trkpt lat="42.716503" lon="0.652256">
        <ele>1438.2</ele>
        <time>2020-05-22T14:37:35Z</time>
      </trkpt>
      <trkpt lat="42.716593" lon="0.652277">
        <ele>1437.2</ele>
        <time>2020-05-22T14:37:42Z</time>
      </trkpt>
      <trkpt lat="42.716691" lon="0.652290">
        <ele>1437.1</ele>
        <time>2020-05-22T14:37:50Z</time>
      </trkpt>
      <trkpt lat="42.716796" lon="0.652298">
        <ele>1436.1</ele>
        <time>2020-05-22T14:38:02Z</time>
      </trkpt>
      <trkpt lat="42.716895" lon="0.652355">
        <ele>1435.1</ele>
        <time>2020-05-22T14:38:10Z</time>
      </trkpt>
      <trkpt lat="42.716998" lon="0.652408">
        <ele>1435.1</ele>
        <time>2020-05-22T14:38:18Z</time>
      </trkpt>
      <trkpt lat="42.717088" lon="0.652474">
        <ele>1435.1</ele>
        <time>2020-05-22T14:38:25Z</time>
      </trkpt>
      <trkpt lat="42.717181" lon="0.652522">
        <ele>1434.2</ele>
        <time>2020-05-22T14:38:32Z</time>
      </trkpt>
      <trkpt lat="42.717273" lon="0.652571">
        <ele>1434.2</ele>
        <time>2020-05-22T14:38:39Z</time>
      </trkpt>
      <trkpt lat="42.717366" lon="0.652613">
        <ele>1433.3</ele>
        <time>2020-05-22T14:38:46Z</time>
      </trkpt>
      <trkpt lat="42.717462" lon="0.652653">
        <ele>1432.4</ele>
        <time>2020-05-22T14:38:54Z</time>
      </trkpt>
      <trkpt lat="42.717549" lon="0.652698">
        <ele>1430.8</ele>
        <time>2020-05-22T14:39:02Z</time>
      </trkpt>
      <trkpt lat="42.717636" lon="0.652745">
        <ele>1429.9</ele>
        <time>2020-05-22T14:39:10Z</time>
      </trkpt>
      <trkpt lat="42.717728" lon="0.652802">
        <ele>1429.0</ele>
        <time>2020-05-22T14:39:19Z</time>
      </trkpt>
      <trkpt lat="42.717799" lon="0.652882">
        <ele>1428.1</ele>
        <time>2020-05-22T14:39:27Z</time>
      </trkpt>
      <trkpt lat="42.717854" lon="0.652984">
        <ele>1426.5</ele>
        <time>2020-05-22T14:39:35Z</time>
      </trkpt>
      <trkpt lat="42.717892" lon="0.653114">
        <ele>1425.6</ele>
        <time>2020-05-22T14:39:43Z</time>
      </trkpt>
      <trkpt lat="42.717958" lon="0.653219">
        <ele>1424.7</ele>
        <time>2020-05-22T14:39:51Z</time>
      </trkpt>
      <trkpt lat="42.718048" lon="0.653282">
        <ele>1423.9</ele>
        <time>2020-05-22T14:39:59Z</time>
      </trkpt>
      <trkpt lat="42.718140" lon="0.653330">
        <ele>1423.9</ele>
        <time>2020-05-22T14:40:07Z</time>
      </trkpt>
      <trkpt lat="42.718236" lon="0.653386">
        <ele>1423.0</ele>
        <time>2020-05-22T14:40:15Z</time>
      </trkpt>
      <trkpt lat="42.718323" lon="0.653440">
        <ele>1422.0</ele>
        <time>2020-05-22T14:40:22Z</time>
      </trkpt>
      <trkpt lat="42.718407" lon="0.653493">
        <ele>1422.0</ele>
        <time>2020-05-22T14:40:29Z</time>
      </trkpt>
      <trkpt lat="42.718477" lon="0.653574">
        <ele>1422.0</ele>
        <time>2020-05-22T14:40:36Z</time>
      </trkpt>
      <trkpt lat="42.718543" lon="0.653673">
        <ele>1421.9</ele>
        <time>2020-05-22T14:40:44Z</time>
      </trkpt>
      <trkpt lat="42.718619" lon="0.653752">
        <ele>1421.9</ele>
        <time>2020-05-22T14:40:52Z</time>
      </trkpt>
      <trkpt lat="42.718709" lon="0.653815">
        <ele>1421.8</ele>
        <time>2020-05-22T14:41:00Z</time>
      </trkpt>
      <trkpt lat="42.718804" lon="0.653853">
        <ele>1421.0</ele>
        <time>2020-05-22T14:41:08Z</time>
      </trkpt>
      <trkpt lat="42.718901" lon="0.653858">
        <ele>1420.1</ele>
        <time>2020-05-22T14:41:17Z</time>
      </trkpt>
      <trkpt lat="42.718995" lon="0.653843">
        <ele>1418.3</ele>
        <time>2020-05-22T14:41:27Z</time>
      </trkpt>
      <trkpt lat="42.719080" lon="0.653770">
        <ele>1417.4</ele>
        <time>2020-05-22T14:41:37Z</time>
      </trkpt>
      <trkpt lat="42.719189" lon="0.653753">
        <ele>1415.7</ele>
        <time>2020-05-22T14:41:47Z</time>
      </trkpt>
      <trkpt lat="42.719286" lon="0.653768">
        <ele>1412.9</ele>
        <time>2020-05-22T14:41:57Z</time>
      </trkpt>
      <trkpt lat="42.719385" lon="0.653784">
        <ele>1411.1</ele>
        <time>2020-05-22T14:42:07Z</time>
      </trkpt>
      <trkpt lat="42.719482" lon="0.653795">
        <ele>1407.7</ele>
        <time>2020-05-22T14:42:17Z</time>
      </trkpt>
      <trkpt lat="42.719580" lon="0.653797">
        <ele>1406.0</ele>
        <time>2020-05-22T14:42:27Z</time>
      </trkpt>
      <trkpt lat="42.719679" lon="0.653846">
        <ele>1403.3</ele>
        <time>2020-05-22T14:42:38Z</time>
      </trkpt>
      <trkpt lat="42.719763" lon="0.653903">
        <ele>1400.5</ele>
        <time>2020-05-22T14:42:46Z</time>
      </trkpt>
      <trkpt lat="42.719851" lon="0.653976">
        <ele>1398.8</ele>
        <time>2020-05-22T14:42:54Z</time>
      </trkpt>
      <trkpt lat="42.719940" lon="0.654024">
        <ele>1398.0</ele>
        <time>2020-05-22T14:43:02Z</time>
      </trkpt>
      <trkpt lat="42.720025" lon="0.654087">
        <ele>1396.1</ele>
        <time>2020-05-22T14:43:11Z</time>
      </trkpt>
      <trkpt lat="42.720053" lon="0.654203">
        <ele>1394.3</ele>
        <time>2020-05-22T14:43:20Z</time>
      </trkpt>
      <trkpt lat="42.720108" lon="0.654288">
        <ele>1392.5</ele>
        <time>2020-05-22T14:43:30Z</time>
      </trkpt>
      <trkpt lat="42.720183" lon="0.654362">
        <ele>1390.7</ele>
        <time>2020-05-22T14:43:40Z</time>
      </trkpt>
      <trkpt lat="42.720275" lon="0.654411">
        <ele>1388.8</ele>
        <time>2020-05-22T14:43:51Z</time>
      </trkpt>
      <trkpt lat="42.720367" lon="0.654460">
        <ele>1385.5</ele>
        <time>2020-05-22T14:44:00Z</time>
      </trkpt>
      <trkpt lat="42.720457" lon="0.654531">
        <ele>1383.8</ele>
        <time>2020-05-22T14:44:09Z</time>
      </trkpt>
      <trkpt lat="42.720537" lon="0.654631">
        <ele>1383.0</ele>
        <time>2020-05-22T14:44:18Z</time>
      </trkpt>
      <trkpt lat="42.720631" lon="0.654675">
        <ele>1382.9</ele>
        <time>2020-05-22T14:44:28Z</time>
      </trkpt>
      <trkpt lat="42.720716" lon="0.654706">
        <ele>1385.9</ele>
        <time>2020-05-22T14:44:41Z</time>
      </trkpt>
      <trkpt lat="42.720832" lon="0.654712">
        <ele>1389.3</ele>
        <time>2020-05-22T14:44:58Z</time>
      </trkpt>
      <trkpt lat="42.720934" lon="0.654742">
        <ele>1389.0</ele>
        <time>2020-05-22T14:45:31Z</time>
      </trkpt>
      <trkpt lat="42.721024" lon="0.654693">
        <ele>1388.9</ele>
        <time>2020-05-22T14:45:43Z</time>
      </trkpt>
      <trkpt lat="42.721066" lon="0.654582">
        <ele>1388.8</ele>
        <time>2020-05-22T14:45:53Z</time>
      </trkpt>
      <trkpt lat="42.721104" lon="0.654465">
        <ele>1388.8</ele>
        <time>2020-05-22T14:46:03Z</time>
      </trkpt>
      <trkpt lat="42.721169" lon="0.654367">
        <ele>1386.3</ele>
        <time>2020-05-22T14:46:14Z</time>
      </trkpt>
      <trkpt lat="42.721242" lon="0.654289">
        <ele>1383.7</ele>
        <time>2020-05-22T14:46:25Z</time>
      </trkpt>
      <trkpt lat="42.721310" lon="0.654203">
        <ele>1382.1</ele>
        <time>2020-05-22T14:46:36Z</time>
      </trkpt>
      <trkpt lat="42.721343" lon="0.654086">
        <ele>1380.4</ele>
        <time>2020-05-22T14:46:49Z</time>
      </trkpt>
      <trkpt lat="42.721351" lon="0.653938">
        <ele>1378.2</ele>
        <time>2020-05-22T14:47:01Z</time>
      </trkpt>
      <trkpt lat="42.721417" lon="0.653806">
        <ele>1378.1</ele>
        <time>2020-05-22T14:47:12Z</time>
      </trkpt>
      <trkpt lat="42.721505" lon="0.653677">
        <ele>1378.0</ele>
        <time>2020-05-22T14:47:22Z</time>
      </trkpt>
      <trkpt lat="42.721572" lon="0.653535">
        <ele>1377.1</ele>
        <time>2020-05-22T14:47:33Z</time>
      </trkpt>
      <trkpt lat="42.721671" lon="0.653432">
        <ele>1376.2</ele>
        <time>2020-05-22T14:47:44Z</time>
      </trkpt>
      <trkpt lat="42.721769" lon="0.653367">
        <ele>1374.3</ele>
        <time>2020-05-22T14:47:54Z</time>
      </trkpt>
      <trkpt lat="42.721876" lon="0.653318">
        <ele>1373.3</ele>
        <time>2020-05-22T14:48:05Z</time>
      </trkpt>
      <trkpt lat="42.721994" lon="0.653311">
        <ele>1372.4</ele>
        <time>2020-05-22T14:48:14Z</time>
      </trkpt>
      <trkpt lat="42.722086" lon="0.653271">
        <ele>1370.6</ele>
        <time>2020-05-22T14:48:22Z</time>
      </trkpt>
      <trkpt lat="42.722190" lon="0.653248">
        <ele>1369.5</ele>
        <time>2020-05-22T14:48:31Z</time>
      </trkpt>
      <trkpt lat="42.722282" lon="0.653200">
        <ele>1367.8</ele>
        <time>2020-05-22T14:48:40Z</time>
      </trkpt>
      <trkpt lat="42.722395" lon="0.653175">
        <ele>1366.0</ele>
        <time>2020-05-22T14:48:53Z</time>
      </trkpt>
    </trkseg>
  </trk>
</gpx>

